Darstellungsparameter: Aktuell verwendete Einstellungen:
Skalierung der Graphiken ... ?
xyx+y,   Skalierungsfaktor:      Skalierung: Modus: x, Faktor: 1
Darstellungszeitraum ... ?
Vom - - bis: - -   Zeitraum: 16.08.2008 - 15.02.2009
Min/Max/Avg-Anzeige ... ?
Zeige MMA aktuell
Zeige MMA Monat
Zeige MMA alles
Zeige --A aktuell
Zeige --A Monat
Zeige --A alles
Keine MMA-Anzeige
MMA:
Keine MMA-Graphiken
MMA-Basis: 16.08.2008 - 15.02.2009
Quicknavigation für Darstellung... ?
Tage:      1T, 2T, 3T, 5T -1T -2T -3T -5T +1T +2T +3T +5T
Wochen: 1W, 2W, 3W -1W -2W -3W +1W +2W +3W
Monate: 1M, 3M, 6M -1M -3M -6M +1M +3M +6M
Jahre:    1J, 3J, 5J, 10J -1J -3J -5J -10J +1J +3J +5J +10J
Nutze für die Darstellung ... ?
Originaldaten oder Mittelwerte auf ...
Stundenbasis Tagesbasis Wochenbasis
Monatsbasis Jahresbasis      Datenbasis: Original-Daten
Darstellen als:
Statistik (Auto) Statistik J:M      Darstellung:
Zur Graphik,    zurück zur Übersicht aller Sensoren.
 
Tabellarische Datenbersicht: ?
 
Sensor: Nr:Datum:Temp:Feuchte:Taupunkt:
Aussen-T/F 1 16-08-2008 00:10:04 15.4 C 64 % 8.63 C
2 16-08-2008 00:22:04 15.4 C 64 % 8.63 C
3 16-08-2008 00:34:04 15.1 C 66 % 8.8 C
4 16-08-2008 00:46:04 14.8 C 66 % 8.52 C
5 16-08-2008 00:58:04 14.7 C 68 % 8.86 C
6 16-08-2008 01:10:04 14.4 C 70 % 9 C
7 16-08-2008 01:22:04 14.1 C 70 % 8.72 C
8 16-08-2008 01:34:04 14.1 C 71 % 8.93 C
9 16-08-2008 01:46:04 13.9 C 72 % 8.94 C
10 16-08-2008 01:58:04 13.9 C 73 % 9.15 C
11 16-08-2008 02:10:04 13.7 C 73 % 8.95 C
12 16-08-2008 02:22:04 13.5 C 74 % 8.96 C
13 16-08-2008 02:34:04 13.4 C 74 % 8.87 C
14 16-08-2008 02:46:04 13.2 C 74 % 8.67 C
15 16-08-2008 02:58:04 13.1 C 75 % 8.77 C
16 16-08-2008 03:10:04 12.9 C 76 % 8.78 C
17 16-08-2008 03:22:04 12.7 C 78 % 8.97 C
18 16-08-2008 03:34:04 12.5 C 78 % 8.77 C
19 16-08-2008 03:46:04 12.4 C 78 % 8.68 C
20 16-08-2008 03:58:05 12.4 C 79 % 8.86 C
21 16-08-2008 04:10:05 12.1 C 79 % 8.57 C
22 16-08-2008 04:22:05 12 C 81 % 8.84 C
23 16-08-2008 04:34:05 11.8 C 82 % 8.83 C
24 16-08-2008 04:46:05 11.6 C 83 % 8.81 C
25 16-08-2008 04:58:05 11.5 C 83 % 8.72 C
Sensor: Nr:Datum:Temp:Feuchte:Taupunkt:
Aussen-T/F 26 16-08-2008 05:10:05 11.4 C 83 % 8.62 C
27 16-08-2008 05:22:05 11.2 C 83 % 8.42 C
28 16-08-2008 05:34:05 11.1 C 83 % 8.33 C
29 16-08-2008 05:46:05 11 C 84 % 8.4 C
30 16-08-2008 05:58:05 10.8 C 84 % 8.21 C
31 16-08-2008 06:10:05 10.8 C 84 % 8.21 C
32 16-08-2008 06:22:05 10.7 C 84 % 8.11 C
33 16-08-2008 06:34:05 10.6 C 84 % 8.01 C
34 16-08-2008 06:46:05 10.5 C 85 % 8.09 C
35 16-08-2008 06:58:05 10.5 C 85 % 8.09 C
36 16-08-2008 07:10:05 10.6 C 85 % 8.19 C
37 16-08-2008 07:22:02 10.7 C 84 % 8.11 C
38 16-08-2008 07:34:03 10.8 C 84 % 8.21 C
39 16-08-2008 07:46:02 10.9 C 84 % 8.31 C
40 16-08-2008 07:58:02 11 C 84 % 8.4 C
41 16-08-2008 08:10:02 11.1 C 84 % 8.5 C
42 16-08-2008 08:22:02 11.4 C 84 % 8.8 C
43 16-08-2008 08:34:02 11.6 C 84 % 8.99 C
44 16-08-2008 08:46:03 12 C 82 % 9.03 C
45 16-08-2008 08:58:03 12.2 C 80 % 8.86 C
46 16-08-2008 09:10:02 12.6 C 79 % 9.06 C
47 16-08-2008 09:22:03 13 C 76 % 8.87 C
48 16-08-2008 09:34:02 13.5 C 75 % 9.16 C
49 16-08-2008 09:46:02 14.1 C 72 % 9.13 C
50 16-08-2008 09:58:02 14.7 C 69 % 9.08 C
Sensor: Nr:Datum:Temp:Feuchte:Taupunkt:
Aussen-T/F 51 16-08-2008 10:10:02 15.3 C 67 % 9.21 C
52 16-08-2008 10:22:02 16.1 C 64 % 9.29 C
53 16-08-2008 10:34:02 16.7 C 62 % 9.39 C
54 16-08-2008 10:46:02 17.4 C 59 % 9.31 C
55 16-08-2008 10:58:02 18.1 C 55 % 8.93 C
56 16-08-2008 11:10:01 18.9 C 53 % 9.12 C
57 16-08-2008 11:22:02 20 C 50 % 9.27 C
58 16-08-2008 11:34:01 20.7 C 46 % 8.67 C
59 16-08-2008 11:46:01 20.4 C 44 % 7.75 C
60 16-08-2008 11:58:01 20.8 C 44 % 8.11 C
61 16-08-2008 12:10:01 21.4 C 39 % 6.89 C
62 16-08-2008 12:22:01 22.1 C 35 % 5.94 C
63 16-08-2008 12:34:01 22.5 C 35 % 6.29 C
64 16-08-2008 12:46:01 22.4 C 31 % 4.46 C
65 16-08-2008 12:58:01 22.5 C 29 % 3.6 C
66 16-08-2008 13:10:02 22.7 C 28 % 3.27 C
67 16-08-2008 13:22:01 23.5 C 26 % 2.91 C
68 16-08-2008 13:34:02 24.8 C 26 % 4.01 C
69 16-08-2008 13:46:02 25.1 C 23 % 2.53 C
70 16-08-2008 13:58:03 25.2 C 21 % 1.34 C
71 16-08-2008 14:10:02 24.8 C 22 % 1.66 C
72 16-08-2008 14:22:02 25.7 C 23 % 3.03 C
73 16-08-2008 14:34:01 26.7 C 20 % 1.9 C
74 16-08-2008 14:46:02 26.8 C 20 % 1.98 C
75 16-08-2008 14:58:02 27.2 C 20 % 2.31 C
Sensor: Nr:Datum:Temp:Feuchte:Taupunkt:
Aussen-T/F 76 16-08-2008 15:10:02 27.8 C 20 % 2.8 C
77 16-08-2008 15:22:02 28.3 C 20 % 3.21 C
78 16-08-2008 15:34:02 28.8 C 20 % 3.62 C
79 16-08-2008 15:46:01 29.4 C 20 % 4.11 C
80 16-08-2008 15:58:01 29.9 C 20 % 4.52 C
81 16-08-2008 16:10:02 30.2 C 20 % 4.77 C
82 16-08-2008 16:22:01 29.8 C 20 % 4.44 C
83 16-08-2008 16:34:02 29.8 C 20 % 4.44 C
84 16-08-2008 16:46:02 30.2 C 20 % 4.77 C
85 16-08-2008 16:58:02 30.6 C 20 % 5.1 C
86 16-08-2008 17:10:02 30.9 C 20 % 5.34 C
87 16-08-2008 17:22:02 29.2 C 20 % 3.95 C
88 16-08-2008 17:34:02 28.6 C 20 % 3.46 C
89 16-08-2008 17:46:02 29 C 20 % 3.79 C
90 16-08-2008 17:58:02 29.5 C 20 % 4.2 C
91 16-08-2008 18:10:01 30.3 C 20 % 4.85 C
92 16-08-2008 18:22:02 30.3 C 20 % 4.85 C
93 16-08-2008 18:34:01 30.3 C 20 % 4.85 C
94 16-08-2008 18:46:01 30.1 C 20 % 4.69 C
95 16-08-2008 18:58:01 29.7 C 20 % 4.36 C
96 16-08-2008 19:10:02 28.4 C 20 % 3.29 C
97 16-08-2008 19:22:01 26.5 C 25 % 4.89 C
98 16-08-2008 19:34:02 24.9 C 27 % 4.63 C
99 16-08-2008 19:46:01 23.6 C 30 % 5.03 C
100 16-08-2008 19:58:01 22.8 C 31 % 4.8 C
Sensor: Nr:Datum:Temp:Feuchte:Taupunkt:
Aussen-T/F 101 16-08-2008 20:10:02 22 C 33 % 5 C
102 16-08-2008 20:22:02 21.3 C 35 % 5.23 C
103 16-08-2008 20:34:02 20.8 C 37 % 5.59 C
104 16-08-2008 20:46:02 20.6 C 38 % 5.8 C
105 16-08-2008 20:58:02 19.6 C 41 % 6 C
106 16-08-2008 21:10:02 19.2 C 41 % 5.64 C
107 16-08-2008 21:22:01 19 C 42 % 5.81 C
108 16-08-2008 21:34:02 18.9 C 43 % 6.06 C
109 16-08-2008 21:46:02 18.7 C 44 % 6.21 C
110 16-08-2008 21:58:02 18.6 C 45 % 6.45 C
111 16-08-2008 22:10:02 18.5 C 46 % 6.67 C
112 16-08-2008 22:23:02 18.5 C 46 % 6.67 C
113 16-08-2008 22:35:02 18.2 C 46 % 6.4 C
114 16-08-2008 22:47:02 18.2 C 46 % 6.4 C
115 16-08-2008 22:59:02 18 C 46 % 6.22 C
116 16-08-2008 23:11:02 17.8 C 50 % 7.25 C
117 16-08-2008 23:23:02 17.5 C 52 % 7.54 C
118 16-08-2008 23:35:02 17.3 C 50 % 6.79 C
119 16-08-2008 23:47:02 17.1 C 51 % 6.89 C
120 16-08-2008 23:59:03 16.9 C 50 % 6.42 C
121 17-08-2008 00:11:03 16.6 C 50 % 6.15 C
122 17-08-2008 00:23:03 16.2 C 51 % 6.06 C
123 17-08-2008 00:35:03 16.1 C 53 % 6.53 C
124 17-08-2008 00:47:03 15.9 C 54 % 6.61 C
125 17-08-2008 00:59:03 15.8 C 55 % 6.79 C
Sensor: Nr:Datum:Temp:Feuchte:Taupunkt:
Aussen-T/F 126 17-08-2008 01:11:03 15.6 C 56 % 6.86 C
127 17-08-2008 01:23:03 15.3 C 57 % 6.84 C
128 17-08-2008 01:35:03 15.1 C 58 % 6.91 C
129 17-08-2008 01:47:03 14.9 C 59 % 6.97 C
130 17-08-2008 01:59:03 14.8 C 60 % 7.12 C
131 17-08-2008 02:11:03 14.7 C 60 % 7.03 C
132 17-08-2008 02:23:03 14.4 C 61 % 6.98 C
133 17-08-2008 02:35:03 14.4 C 62 % 7.22 C
134 17-08-2008 02:47:03 14.3 C 62 % 7.13 C
135 17-08-2008 02:59:03 14.1 C 63 % 7.17 C
136 17-08-2008 03:11:03 13.8 C 66 % 7.57 C
137 17-08-2008 03:23:03 13.7 C 66 % 7.47 C
138 17-08-2008 03:35:03 13.7 C 66 % 7.47 C
139 17-08-2008 03:47:03 13.5 C 66 % 7.28 C
140 17-08-2008 03:59:03 13.6 C 66 % 7.38 C
141 17-08-2008 04:11:04 13.4 C 67 % 7.4 C
142 17-08-2008 04:23:04 13.1 C 68 % 7.34 C
143 17-08-2008 04:35:04 13.1 C 69 % 7.55 C
144 17-08-2008 04:47:04 12.9 C 70 % 7.57 C
145 17-08-2008 04:59:04 12.9 C 70 % 7.57 C
146 17-08-2008 05:11:04 12.8 C 71 % 7.68 C
147 17-08-2008 05:23:04 12.7 C 71 % 7.58 C
148 17-08-2008 05:35:04 12.5 C 72 % 7.6 C
149 17-08-2008 05:47:04 12.3 C 72 % 7.4 C
150 17-08-2008 05:59:04 12.4 C 73 % 7.7 C
Sensor: Nr:Datum:Temp:Feuchte:Taupunkt:
Aussen-T/F 151 17-08-2008 06:11:04 12.2 C 73 % 7.51 C
152 17-08-2008 06:23:04 12.1 C 74 % 7.61 C
153 17-08-2008 06:35:04 11.9 C 76 % 7.81 C
154 17-08-2008 06:47:04 11.9 C 76 % 7.81 C
155 17-08-2008 06:59:04 12 C 75 % 7.71 C
156 17-08-2008 07:11:04 12 C 75 % 7.71 C
157 17-08-2008 07:23:04 12 C 76 % 7.91 C
158 17-08-2008 07:35:04 12 C 76 % 7.91 C
159 17-08-2008 07:47:04 12.1 C 76 % 8 C
160 17-08-2008 07:59:04 12.5 C 76 % 8.39 C
161 17-08-2008 08:11:05 12.5 C 76 % 8.39 C
162 17-08-2008 08:23:05 12.6 C 75 % 8.29 C
163 17-08-2008 08:35:05 12.9 C 75 % 8.58 C
164 17-08-2008 08:47:05 13.2 C 73 % 8.47 C
165 17-08-2008 08:59:05 13.6 C 72 % 8.65 C
166 17-08-2008 09:11:02 13.9 C 71 % 8.73 C
167 17-08-2008 09:23:03 14.6 C 68 % 8.77 C
168 17-08-2008 09:35:03 15.1 C 65 % 8.58 C
169 17-08-2008 09:47:01 15.5 C 64 % 8.73 C
170 17-08-2008 09:59:01 16.2 C 63 % 9.16 C
171 17-08-2008 10:11:03 17.1 C 61 % 9.53 C
172 17-08-2008 10:23:02 17.8 C 59 % 9.69 C
173 17-08-2008 10:35:02 18.7 C 57 % 10.02 C
174 17-08-2008 10:47:02 19.6 C 53 % 9.77 C
175 17-08-2008 10:59:02 20.2 C 51 % 9.75 C
Sensor: Nr:Datum:Temp:Feuchte:Taupunkt:
Aussen-T/F 176 17-08-2008 11:11:03 21 C 47 % 9.27 C
177 17-08-2008 11:23:03 21.8 C 46 % 9.67 C
178 17-08-2008 11:35:03 22.5 C 41 % 8.6 C
179 17-08-2008 11:47:02 22.9 C 38 % 7.84 C
180 17-08-2008 11:59:02 23.1 C 35 % 6.82 C
181 17-08-2008 12:11:02 23.7 C 32 % 6.04 C
182 17-08-2008 12:23:02 24.3 C 30 % 5.63 C
183 17-08-2008 12:35:02 24.1 C 26 % 3.42 C
184 17-08-2008 12:47:03 24.5 C 25 % 3.2 C
185 17-08-2008 12:59:03 24.5 C 21 % 0.76 C
186 17-08-2008 13:11:02 25 C 21 % 1.18 C
187 17-08-2008 13:23:02 25.5 C 20 % 0.91 C
188 17-08-2008 13:35:02 26.4 C 20 % 1.65 C
189 17-08-2008 13:47:02 26.1 C 20 % 1.41 C
190 17-08-2008 13:59:02 26.6 C 20 % 1.82 C
191 17-08-2008 14:11:02 26.3 C 20 % 1.57 C
192 17-08-2008 14:23:01 26.2 C 21 % 2.17 C
193 17-08-2008 14:35:01 26.8 C 21 % 2.67 C
194 17-08-2008 14:47:01 26.8 C 22 % 3.32 C
195 17-08-2008 14:59:01 25.9 C 23 % 3.2 C
196 17-08-2008 15:11:02 25.1 C 24 % 3.13 C
197 17-08-2008 15:23:01 25.3 C 24 % 3.3 C
198 17-08-2008 15:35:01 25.7 C 25 % 4.21 C
199 17-08-2008 15:47:02 27.6 C 21 % 3.33 C
200 17-08-2008 15:59:02 28.5 C 21 % 4.07 C
Sensor: Nr:Datum:Temp:Feuchte:Taupunkt:
Aussen-T/F 201 17-08-2008 16:11:02 27.9 C 21 % 3.57 C
202 17-08-2008 16:23:02 27.1 C 22 % 3.57 C
203 17-08-2008 16:35:01 27.1 C 21 % 2.91 C
204 17-08-2008 16:47:02 26.3 C 22 % 2.91 C
205 17-08-2008 16:59:02 26.6 C 22 % 3.15 C
206 17-08-2008 17:11:01 26.3 C 23 % 3.53 C
207 17-08-2008 17:23:02 26 C 24 % 3.89 C
208 17-08-2008 17:35:01 25.9 C 27 % 5.48 C
209 17-08-2008 17:47:01 25.4 C 26 % 4.52 C
210 17-08-2008 17:59:01 25.4 C 29 % 6.09 C
211 17-08-2008 18:11:02 25.2 C 30 % 6.41 C
212 17-08-2008 18:23:01 25.2 C 28 % 5.41 C
213 17-08-2008 18:35:02 24.9 C 30 % 6.15 C
214 17-08-2008 18:47:02 24.6 C 30 % 5.89 C
215 17-08-2008 18:59:02 24.6 C 31 % 6.36 C
216 17-08-2008 19:11:02 25.4 C 30 % 6.58 C
217 17-08-2008 19:23:02 24.8 C 32 % 7 C
218 17-08-2008 19:35:02 23.9 C 36 % 7.93 C
219 17-08-2008 19:47:01 23.7 C 36 % 7.75 C
220 17-08-2008 19:59:01 24.1 C 36 % 8.11 C
221 17-08-2008 20:11:01 23.3 C 38 % 8.19 C
222 17-08-2008 20:23:01 22.1 C 40 % 7.88 C
223 17-08-2008 20:35:02 21.4 C 43 % 8.31 C
224 17-08-2008 20:47:02 21.1 C 43 % 8.04 C
225 17-08-2008 20:59:02 20.8 C 46 % 8.77 C
Sensor: Nr:Datum:Temp:Feuchte:Taupunkt:
Aussen-T/F 226 17-08-2008 21:11:02 20.8 C 45 % 8.44 C
227 17-08-2008 21:23:02 21 C 44 % 8.29 C
228 17-08-2008 21:35:02 20.1 C 55 % 10.78 C
229 17-08-2008 21:47:02 17.7 C 75 % 13.22 C
230 17-08-2008 21:59:02 17.3 C 81 % 14.01 C
231 17-08-2008 22:11:01 17.4 C 83 % 14.48 C
232 17-08-2008 22:23:02 17.6 C 84 % 14.87 C
233 17-08-2008 22:36:02 17.3 C 82 % 14.2 C
234 17-08-2008 22:48:02 17.2 C 81 % 13.91 C
235 17-08-2008 23:00:02 17 C 81 % 13.72 C
236 17-08-2008 23:12:02 16.8 C 81 % 13.52 C
237 17-08-2008 23:24:02 16.5 C 81 % 13.23 C
238 17-08-2008 23:36:02 16.3 C 82 % 13.22 C
239 17-08-2008 23:48:02 16.1 C 82 % 13.03 C
240 18-08-2008 00:00:02 16.1 C 82 % 13.03 C
241 18-08-2008 00:12:02 16 C 82 % 12.93 C
242 18-08-2008 00:24:02 16.1 C 82 % 13.03 C
243 18-08-2008 00:36:03 16.1 C 82 % 13.03 C
244 18-08-2008 00:48:03 16.4 C 82 % 13.32 C
245 18-08-2008 01:00:03 16.5 C 81 % 13.23 C
246 18-08-2008 01:12:03 16.5 C 81 % 13.23 C
247 18-08-2008 01:24:03 16.6 C 81 % 13.33 C
248 18-08-2008 01:36:03 16.5 C 81 % 13.23 C
249 18-08-2008 01:48:03 16.6 C 81 % 13.33 C
250 18-08-2008 02:00:03 16.6 C 81 % 13.33 C
Sensor: Nr:Datum:Temp:Feuchte:Taupunkt:
Aussen-T/F 251 18-08-2008 02:12:03 16.6 C 81 % 13.33 C
252 18-08-2008 02:24:03 16.6 C 81 % 13.33 C
253 18-08-2008 02:36:03 16.7 C 81 % 13.43 C
254 18-08-2008 02:48:03 16.4 C 81 % 13.13 C
255 18-08-2008 03:00:03 16.3 C 82 % 13.22 C
256 18-08-2008 03:12:03 16.2 C 82 % 13.13 C
257 18-08-2008 03:24:03 16 C 82 % 12.93 C
258 18-08-2008 03:36:03 15.8 C 84 % 13.1 C
259 18-08-2008 03:48:03 15.5 C 84 % 12.81 C
260 18-08-2008 04:00:03 15.4 C 84 % 12.71 C
261 18-08-2008 04:12:03 15.4 C 85 % 12.89 C
262 18-08-2008 04:24:03 15.4 C 85 % 12.89 C
263 18-08-2008 04:36:03 15.4 C 85 % 12.89 C
264 18-08-2008 04:48:04 15.5 C 85 % 12.99 C
265 18-08-2008 05:00:04 15.5 C 85 % 12.99 C
266 18-08-2008 05:12:04 15.7 C 86 % 13.37 C
267 18-08-2008 05:24:04 15.8 C 85 % 13.28 C
268 18-08-2008 05:36:04 15.7 C 84 % 13.01 C
269 18-08-2008 05:48:04 15.8 C 85 % 13.28 C
270 18-08-2008 06:00:04 15.9 C 84 % 13.2 C
271 18-08-2008 06:12:04 15.9 C 84 % 13.2 C
272 18-08-2008 06:24:04 15.5 C 84 % 12.81 C
273 18-08-2008 06:36:04 15.3 C 84 % 12.61 C
274 18-08-2008 06:48:02 15.2 C 85 % 12.7 C
275 18-08-2008 07:00:03 15.2 C 85 % 12.7 C
Sensor: Nr:Datum:Temp:Feuchte:Taupunkt:
Aussen-T/F 276 18-08-2008 07:12:02 15.2 C 86 % 12.88 C
277 18-08-2008 07:24:02 15.2 C 86 % 12.88 C
278 18-08-2008 07:36:02 15.2 C 87 % 13.05 C
279 18-08-2008 07:48:02 15.3 C 87 % 13.15 C
280 18-08-2008 08:00:02 15.5 C 87 % 13.35 C
281 18-08-2008 08:12:01 15.9 C 86 % 13.56 C
282 18-08-2008 08:24:02 16.4 C 84 % 13.69 C
283 18-08-2008 08:36:01 16.8 C 82 % 13.71 C
284 18-08-2008 08:48:02 17.1 C 79 % 13.43 C
285 18-08-2008 09:00:02 17.9 C 77 % 13.81 C
286 18-08-2008 09:12:01 18.3 C 74 % 13.59 C
287 18-08-2008 09:24:01 18.8 C 73 % 13.86 C
288 18-08-2008 09:36:01 19.6 C 69 % 13.76 C
289 18-08-2008 09:48:02 20 C 63 % 12.75 C
290 18-08-2008 10:00:02 20.1 C 63 % 12.84 C
291 18-08-2008 10:12:02 20.4 C 61 % 12.63 C
292 18-08-2008 10:24:02 20.6 C 62 % 13.07 C
293 18-08-2008 10:36:02 21 C 58 % 12.43 C
294 18-08-2008 10:48:02 21.3 C 56 % 12.17 C
295 18-08-2008 11:00:02 21.6 C 54 % 11.9 C
296 18-08-2008 11:12:02 22 C 54 % 12.27 C
297 18-08-2008 11:24:03 22.5 C 52 % 12.16 C
298 18-08-2008 11:36:02 22.7 C 48 % 11.13 C
299 18-08-2008 11:48:02 23.2 C 47 % 11.27 C
300 18-08-2008 12:00:02 23.8 C 44 % 10.82 C
Sensor: Nr:Datum:Temp:Feuchte:Taupunkt:
Aussen-T/F 301 18-08-2008 12:12:02 23.9 C 44 % 10.91 C
302 18-08-2008 12:24:02 23.5 C 45 % 10.89 C
303 18-08-2008 12:36:02 23.6 C 44 % 10.64 C
304 18-08-2008 12:48:01 23.5 C 44 % 10.55 C
305 18-08-2008 13:00:01 23.7 C 44 % 10.73 C
306 18-08-2008 13:12:02 24.1 C 43 % 10.75 C
307 18-08-2008 13:24:01 24.8 C 40 % 10.29 C
308 18-08-2008 13:36:02 25.5 C 38 % 10.15 C
309 18-08-2008 13:48:02 25.9 C 36 % 9.69 C
310 18-08-2008 14:00:02 24.7 C 38 % 9.44 C
311 18-08-2008 14:12:02 24.6 C 39 % 9.73 C
312 18-08-2008 14:24:02 23.9 C 43 % 10.57 C
313 18-08-2008 14:36:02 24.7 C 40 % 10.2 C
314 18-08-2008 14:48:01 25.3 C 37 % 9.57 C
315 18-08-2008 15:00:01 25.4 C 36 % 9.25 C
316 18-08-2008 15:12:01 25.5 C 35 % 8.92 C
317 18-08-2008 15:24:01 25.3 C 35 % 8.75 C
318 18-08-2008 15:36:02 25.2 C 35 % 8.66 C
319 18-08-2008 15:48:02 25.1 C 35 % 8.57 C
320 18-08-2008 16:00:02 25.4 C 37 % 9.66 C
321 18-08-2008 16:12:02 25.7 C 38 % 10.32 C
322 18-08-2008 16:24:02 26.2 C 35 % 9.54 C
323 18-08-2008 16:36:02 26.4 C 34 % 9.28 C
324 18-08-2008 16:48:02 27.9 C 30 % 8.73 C
325 18-08-2008 17:00:02 29 C 27 % 8.12 C
Sensor: Nr:Datum:Temp:Feuchte:Taupunkt:
Aussen-T/F 326 18-08-2008 17:12:02 29.8 C 24 % 7.07 C
327 18-08-2008 17:24:02 29.4 C 25 % 7.33 C
328 18-08-2008 17:36:02 28.6 C 25 % 6.66 C
329 18-08-2008 17:48:02 29.7 C 23 % 6.37 C
330 18-08-2008 18:00:02 30 C 23 % 6.62 C
331 18-08-2008 18:12:03 29.6 C 23 % 6.28 C
332 18-08-2008 18:24:02 28.5 C 25 % 6.57 C
333 18-08-2008 18:36:03 28.9 C 25 % 6.91 C
334 18-08-2008 18:48:02 28 C 26 % 6.72 C
335 18-08-2008 19:00:03 28 C 27 % 7.27 C
336 18-08-2008 19:12:01 28 C 27 % 7.27 C
337 18-08-2008 19:24:02 27.5 C 29 % 7.89 C
338 18-08-2008 19:36:01 27.6 C 29 % 7.97 C
339 18-08-2008 19:48:02 28.2 C 30 % 8.99 C
340 18-08-2008 20:00:02 27.5 C 31 % 8.87 C
341 18-08-2008 20:12:01 26.3 C 35 % 9.63 C
342 18-08-2008 20:24:02 25.3 C 38 % 9.97 C
343 18-08-2008 20:36:01 24.6 C 41 % 10.48 C
344 18-08-2008 20:48:03 24.1 C 42 % 10.39 C
345 18-08-2008 21:00:03 23.7 C 45 % 11.07 C
346 18-08-2008 21:12:02 23.4 C 44 % 10.46 C
347 18-08-2008 21:24:03 23 C 46 % 10.76 C
348 18-08-2008 21:36:02 22.8 C 46 % 10.58 C
349 18-08-2008 21:48:02 22.6 C 48 % 11.04 C
350 18-08-2008 22:00:02 22.4 C 47 % 10.54 C
Sensor: Nr:Datum:Temp:Feuchte:Taupunkt:
Aussen-T/F 351 18-08-2008 22:13:01 22.4 C 47 % 10.54 C
352 18-08-2008 22:25:01 22.3 C 48 % 10.77 C
353 18-08-2008 22:37:01 22.1 C 49 % 10.89 C
354 18-08-2008 22:49:01 22 C 48 % 10.49 C
355 18-08-2008 23:01:01 21.9 C 49 % 10.71 C
356 18-08-2008 23:13:01 22 C 47 % 10.18 C
357 18-08-2008 23:25:01 21.8 C 51 % 11.22 C
358 18-08-2008 23:37:01 21.7 C 52 % 11.42 C
359 18-08-2008 23:49:01 21.6 C 52 % 11.33 C
360 19-08-2008 00:01:01 21.8 C 52 % 11.51 C
361 19-08-2008 00:13:01 22 C 53 % 11.99 C
362 19-08-2008 00:25:02 20.7 C 63 % 13.41 C
363 19-08-2008 00:37:02 20.5 C 66 % 13.93 C
364 19-08-2008 00:49:02 20.5 C 67 % 14.16 C
365 19-08-2008 01:01:02 20.6 C 68 % 14.49 C
366 19-08-2008 01:13:02 20.2 C 68 % 14.11 C
367 19-08-2008 01:25:02 19.8 C 69 % 13.95 C
368 19-08-2008 01:37:02 19.7 C 69 % 13.86 C
369 19-08-2008 01:49:02 19.5 C 70 % 13.89 C
370 19-08-2008 02:01:02 19.5 C 70 % 13.89 C
371 19-08-2008 02:13:02 19.2 C 70 % 13.6 C
372 19-08-2008 02:25:02 19.3 C 71 % 13.91 C
373 19-08-2008 02:37:02 19.1 C 71 % 13.72 C
374 19-08-2008 02:49:02 18.9 C 73 % 13.96 C
375 19-08-2008 03:01:02 18.7 C 73 % 13.76 C
Sensor: Nr:Datum:Temp:Feuchte:Taupunkt:
Aussen-T/F 376 19-08-2008 03:13:02 18.8 C 74 % 14.07 C
377 19-08-2008 03:25:02 19 C 73 % 14.05 C
378 19-08-2008 03:37:02 18.9 C 73 % 13.96 C
379 19-08-2008 03:49:02 18.7 C 73 % 13.76 C
380 19-08-2008 04:01:02 18.6 C 74 % 13.88 C
381 19-08-2008 04:13:02 18.5 C 74 % 13.78 C
382 19-08-2008 04:25:03 18.5 C 74 % 13.78 C
383 19-08-2008 04:37:03 18.9 C 70 % 13.31 C
384 19-08-2008 04:49:03 19.1 C 65 % 12.37 C
385 19-08-2008 05:01:03 19.2 C 65 % 12.47 C
386 19-08-2008 05:13:03 19 C 65 % 12.28 C
387 19-08-2008 05:25:03 18.8 C 67 % 12.55 C
388 19-08-2008 05:37:03 18.6 C 68 % 12.58 C
389 19-08-2008 05:49:03 18.3 C 69 % 12.52 C
390 19-08-2008 06:01:03 18.3 C 69 % 12.52 C
391 19-08-2008 06:13:03 18.3 C 66 % 11.84 C
392 19-08-2008 06:25:03 18.5 C 63 % 11.33 C
393 19-08-2008 06:37:03 18.7 C 61 % 11.03 C
394 19-08-2008 06:49:03 18.5 C 61 % 10.84 C
395 19-08-2008 07:01:02 18.5 C 60 % 10.6 C
396 19-08-2008 07:13:02 18.4 C 61 % 10.75 C
397 19-08-2008 07:25:02 18.2 C 62 % 10.81 C
398 19-08-2008 07:37:02 18 C 63 % 10.86 C
399 19-08-2008 07:49:02 18.5 C 60 % 10.6 C
400 19-08-2008 08:01:03 19 C 57 % 10.3 C
Sensor: Nr:Datum:Temp:Feuchte:Taupunkt:
Aussen-T/F 401 19-08-2008 08:13:03 19.4 C 53 % 9.58 C
402 19-08-2008 08:25:02 19.5 C 53 % 9.67 C
403 19-08-2008 08:37:02 19.7 C 52 % 9.58 C
404 19-08-2008 08:49:02 19.9 C 50 % 9.18 C
405 19-08-2008 09:01:02 20 C 49 % 8.97 C
406 19-08-2008 09:13:02 20.2 C 49 % 9.15 C
407 19-08-2008 09:25:02 20.1 C 49 % 9.06 C
408 19-08-2008 09:37:02 20 C 49 % 8.97 C
409 19-08-2008 09:49:02 20.2 C 50 % 9.45 C
410 19-08-2008 10:01:02 20.3 C 49 % 9.24 C
411 19-08-2008 10:13:02 20.7 C 49 % 9.61 C
412 19-08-2008 10:25:02 21 C 47 % 9.27 C
413 19-08-2008 10:37:02 20.8 C 49 % 9.7 C
414 19-08-2008 10:49:02 21.2 C 48 % 9.76 C
415 19-08-2008 11:01:02 21.3 C 48 % 9.85 C
416 19-08-2008 11:13:02 21.6 C 47 % 9.81 C
417 19-08-2008 11:25:02 21.5 C 47 % 9.72 C
418 19-08-2008 11:37:02 22.2 C 45 % 9.71 C
419 19-08-2008 11:49:02 21.9 C 45 % 9.44 C
420 19-08-2008 12:01:03 22.6 C 44 % 9.74 C
421 19-08-2008 12:13:03 22.7 C 42 % 9.14 C
422 19-08-2008 12:25:02 22.5 C 42 % 8.96 C
423 19-08-2008 12:37:03 22.7 C 41 % 8.78 C
424 19-08-2008 12:49:02 22.8 C 40 % 8.5 C
425 19-08-2008 13:01:01 23 C 39 % 8.31 C
Sensor: Nr:Datum:Temp:Feuchte:Taupunkt:
Aussen-T/F 426 19-08-2008 13:13:01 23.5 C 38 % 8.37 C
427 19-08-2008 13:25:02 23.9 C 38 % 8.73 C
428 19-08-2008 13:37:01 23.7 C 37 % 8.16 C
429 19-08-2008 13:49:02 23.7 C 38 % 8.55 C
430 19-08-2008 14:01:01 24.3 C 36 % 8.28 C
431 19-08-2008 14:13:01 24.5 C 35 % 8.05 C
432 19-08-2008 14:25:02 24.2 C 35 % 7.78 C
433 19-08-2008 14:37:01 23.6 C 37 % 8.07 C
434 19-08-2008 14:49:02 23.1 C 38 % 8.02 C
435 19-08-2008 15:01:01 23.1 C 38 % 8.02 C
436 19-08-2008 15:13:01 23.9 C 38 % 8.73 C
437 19-08-2008 15:25:02 24.1 C 36 % 8.11 C
438 19-08-2008 15:37:01 24.5 C 36 % 8.46 C
439 19-08-2008 15:49:01 24.4 C 36 % 8.37 C
440 19-08-2008 16:01:01 23.6 C 38 % 8.46 C
441 19-08-2008 16:13:01 23.5 C 39 % 8.76 C
442 19-08-2008 16:25:02 23.6 C 38 % 8.46 C
443 19-08-2008 16:37:01 24 C 36 % 8.02 C
444 19-08-2008 16:49:01 24.1 C 36 % 8.11 C
445 19-08-2008 17:01:01 23.9 C 37 % 8.33 C
446 19-08-2008 17:13:01 23.6 C 38 % 8.46 C
447 19-08-2008 17:25:01 23.5 C 39 % 8.76 C
448 19-08-2008 17:37:01 23.2 C 40 % 8.86 C
449 19-08-2008 17:49:01 22.8 C 41 % 8.87 C
450 19-08-2008 18:01:02 22.9 C 43 % 9.67 C
Sensor: Nr:Datum:Temp:Feuchte:Taupunkt:
Aussen-T/F 451 19-08-2008 18:13:02 22.8 C 42 % 9.23 C
452 19-08-2008 18:25:01 22.6 C 42 % 9.05 C
453 19-08-2008 18:37:02 22.5 C 43 % 9.31 C
454 19-08-2008 18:49:02 22.3 C 43 % 9.13 C
455 19-08-2008 19:01:02 22.2 C 44 % 9.38 C
456 19-08-2008 19:13:02 21.8 C 46 % 9.67 C
457 19-08-2008 19:25:02 21.5 C 47 % 9.72 C
458 19-08-2008 19:37:02 21.4 C 49 % 10.25 C
459 19-08-2008 19:49:01 21.3 C 50 % 10.46 C
460 19-08-2008 20:01:01 21.3 C 50 % 10.46 C
461 19-08-2008 20:13:01 21.5 C 49 % 10.34 C
462 19-08-2008 20:25:01 21.2 C 50 % 10.37 C
463 19-08-2008 20:37:02 20.8 C 52 % 10.59 C
464 19-08-2008 20:49:02 20.4 C 53 % 10.51 C
465 19-08-2008 21:01:02 20 C 54 % 10.42 C
466 19-08-2008 21:13:02 19.8 C 55 % 10.51 C
467 19-08-2008 21:25:02 19.5 C 56 % 10.5 C
468 19-08-2008 21:37:02 19.4 C 57 % 10.67 C
469 19-08-2008 21:50:02 19.2 C 58 % 10.74 C
470 19-08-2008 22:02:02 19.1 C 58 % 10.65 C
471 19-08-2008 22:14:02 19 C 59 % 10.81 C
472 19-08-2008 22:26:02 18.9 C 60 % 10.97 C
473 19-08-2008 22:38:02 18.9 C 60 % 10.97 C
474 19-08-2008 22:50:02 18.9 C 60 % 10.97 C
475 19-08-2008 23:02:02 18.8 C 61 % 11.13 C
Sensor: Nr:Datum:Temp:Feuchte:Taupunkt:
Aussen-T/F 476 19-08-2008 23:14:02 18.5 C 62 % 11.09 C
477 19-08-2008 23:26:02 18.6 C 62 % 11.18 C
478 19-08-2008 23:38:03 18.3 C 64 % 11.38 C
479 19-08-2008 23:50:03 17.8 C 69 % 12.04 C
480 20-08-2008 00:02:03 17.7 C 69 % 11.95 C
481 20-08-2008 00:14:03 18.1 C 66 % 11.65 C
482 20-08-2008 00:26:03 18.2 C 65 % 11.52 C
483 20-08-2008 00:38:03 18.1 C 66 % 11.65 C
484 20-08-2008 00:50:03 17.9 C 70 % 12.35 C
485 20-08-2008 01:02:03 17.8 C 70 % 12.26 C
486 20-08-2008 01:14:03 18.1 C 67 % 11.88 C
487 20-08-2008 01:26:03 17 C 78 % 13.14 C
488 20-08-2008 01:38:03 16.7 C 82 % 13.61 C
489 20-08-2008 01:50:03 16.6 C 83 % 13.7 C
490 20-08-2008 02:02:03 16.8 C 82 % 13.71 C
491 20-08-2008 02:14:03 16.8 C 80 % 13.33 C
492 20-08-2008 02:26:03 16.9 C 79 % 13.24 C
493 20-08-2008 02:38:03 16.7 C 79 % 13.04 C
494 20-08-2008 02:50:03 16.7 C 78 % 12.85 C
495 20-08-2008 03:02:03 16.7 C 77 % 12.65 C
496 20-08-2008 03:14:03 16.6 C 76 % 12.36 C
497 20-08-2008 03:26:04 16.5 C 76 % 12.26 C
498 20-08-2008 03:38:04 16.4 C 77 % 12.36 C
499 20-08-2008 03:50:04 16.3 C 78 % 12.46 C
500 20-08-2008 04:02:04 16.5 C 77 % 12.46 C
Sensor: Nr:Datum:Temp:Feuchte:Taupunkt:
Aussen-T/F 501 20-08-2008 04:14:04 16.6 C 76 % 12.36 C
502 20-08-2008 04:26:04 16.5 C 76 % 12.26 C
503 20-08-2008 04:38:04 16.4 C 76 % 12.16 C
504 20-08-2008 04:50:04 16.3 C 76 % 12.07 C
505 20-08-2008 05:02:04 16.4 C 76 % 12.16 C
506 20-08-2008 05:14:04 16.4 C 76 % 12.16 C
507 20-08-2008 05:26:04 16.2 C 76 % 11.97 C
508 20-08-2008 05:38:04 16.2 C 76 % 11.97 C
509 20-08-2008 05:50:04 16.1 C 75 % 11.67 C
510 20-08-2008 06:02:04 16 C 75 % 11.57 C
511 20-08-2008 06:14:04 16.1 C 76 % 11.87 C
512 20-08-2008 06:26:04 16 C 76 % 11.77 C
513 20-08-2008 06:38:04 15.8 C 77 % 11.78 C
514 20-08-2008 06:50:04 15.8 C 77 % 11.78 C
515 20-08-2008 07:02:02 15.8 C 77 % 11.78 C
516 20-08-2008 07:14:02 16 C 75 % 11.57 C
517 20-08-2008 07:26:02 16.2 C 74 % 11.56 C
518 20-08-2008 07:38:02 16.2 C 73 % 11.36 C
519 20-08-2008 07:50:02 16.2 C 71 % 10.94 C
520 20-08-2008 08:02:03 16.2 C 72 % 11.15 C
521 20-08-2008 08:14:03 16.3 C 71 % 11.04 C
522 20-08-2008 08:26:02 16.5 C 69 % 10.8 C
523 20-08-2008 08:38:02 16.6 C 68 % 10.67 C
524 20-08-2008 08:50:02 16.7 C 67 % 10.55 C
525 20-08-2008 09:02:02 16.9 C 65 % 10.28 C
Sensor: Nr:Datum:Temp:Feuchte:Taupunkt:
Aussen-T/F 526 20-08-2008 09:14:02 17 C 62 % 9.67 C
527 20-08-2008 09:26:02 17.5 C 62 % 10.15 C
528 20-08-2008 09:38:02 18 C 60 % 10.13 C
529 20-08-2008 09:50:02 18.2 C 58 % 9.81 C
530 20-08-2008 10:02:03 18.9 C 57 % 10.2 C
531 20-08-2008 10:14:03 18.8 C 57 % 10.11 C
532 20-08-2008 10:26:02 18.7 C 57 % 10.02 C
533 20-08-2008 10:38:02 19.4 C 54 % 9.86 C
534 20-08-2008 10:50:02 19.4 C 54 % 9.86 C
535 20-08-2008 11:02:02 19.7 C 53 % 9.86 C
536 20-08-2008 11:14:02 19.5 C 52 % 9.39 C
537 20-08-2008 11:26:02 19.5 C 54 % 9.95 C
538 20-08-2008 11:38:02 20.4 C 49 % 9.34 C
539 20-08-2008 11:50:02 19.8 C 49 % 8.79 C
540 20-08-2008 12:02:02 20.2 C 49 % 9.15 C
541 20-08-2008 12:14:02 21.1 C 46 % 9.04 C
542 20-08-2008 12:26:02 21.1 C 44 % 8.38 C
543 20-08-2008 12:38:02 20.8 C 46 % 8.77 C
544 20-08-2008 12:50:02 20.9 C 45 % 8.53 C
545 20-08-2008 13:02:02 20.9 C 46 % 8.86 C
546 20-08-2008 13:14:03 20.3 C 48 % 8.94 C
547 20-08-2008 13:26:02 20.5 C 48 % 9.12 C
548 20-08-2008 13:38:02 21.1 C 45 % 8.71 C
549 20-08-2008 13:50:01 21.1 C 45 % 8.71 C
550 20-08-2008 14:02:02 21.2 C 45 % 8.8 C
Sensor: Nr:Datum:Temp:Feuchte:Taupunkt:
Aussen-T/F 551 20-08-2008 14:14:02 22 C 41 % 8.15 C
552 20-08-2008 14:26:01 22.1 C 39 % 7.51 C
553 20-08-2008 14:38:02 22.5 C 40 % 8.24 C
554 20-08-2008 14:50:02 22.5 C 40 % 8.24 C
555 20-08-2008 15:02:02 22.4 C 41 % 8.51 C
556 20-08-2008 15:14:02 21.7 C 41 % 7.88 C
557 20-08-2008 15:26:02 22.5 C 40 % 8.24 C
558 20-08-2008 15:38:01 23 C 36 % 7.14 C
559 20-08-2008 15:50:02 21.9 C 39 % 7.33 C
560 20-08-2008 16:02:01 22.2 C 39 % 7.6 C
561 20-08-2008 16:14:01 22.5 C 39 % 7.86 C
562 20-08-2008 16:26:02 20.3 C 46 % 8.31 C
563 20-08-2008 16:38:01 20.4 C 44 % 7.75 C
564 20-08-2008 16:50:02 20.9 C 43 % 7.86 C
565 20-08-2008 17:02:01 22.7 C 38 % 7.66 C
566 20-08-2008 17:14:01 22.9 C 37 % 7.45 C
567 20-08-2008 17:26:02 23.2 C 36 % 7.31 C
568 20-08-2008 17:38:01 23.4 C 36 % 7.49 C
569 20-08-2008 17:50:01 24.1 C 35 % 7.69 C
570 20-08-2008 18:02:02 22.7 C 36 % 6.87 C
571 20-08-2008 18:14:03 22.2 C 36 % 6.43 C
572 20-08-2008 18:26:01 21.6 C 38 % 6.69 C
573 20-08-2008 18:38:02 21.3 C 40 % 7.16 C
574 20-08-2008 18:50:02 20.6 C 40 % 6.54 C
575 20-08-2008 19:02:02 20.6 C 41 % 6.9 C
Sensor: Nr:Datum:Temp:Feuchte:Taupunkt:
Aussen-T/F 576 20-08-2008 19:14:02 20.5 C 42 % 7.16 C
577 20-08-2008 19:26:02 20.3 C 43 % 7.32 C
578 20-08-2008 19:38:02 20.1 C 44 % 7.48 C
579 20-08-2008 19:50:02 20 C 45 % 7.72 C
580 20-08-2008 20:02:03 19.8 C 45 % 7.53 C
581 20-08-2008 20:14:03 19.7 C 46 % 7.77 C
582 20-08-2008 20:26:02 19.4 C 47 % 7.81 C
583 20-08-2008 20:38:03 19.2 C 48 % 7.93 C
584 20-08-2008 20:50:02 18.9 C 52 % 8.84 C
585 20-08-2008 21:02:01 18.6 C 54 % 9.12 C
586 20-08-2008 21:14:01 18.6 C 54 % 9.12 C
587 20-08-2008 21:26:02 18.4 C 55 % 9.2 C
588 20-08-2008 21:38:02 18.2 C 57 % 9.55 C
589 20-08-2008 21:50:02 17.9 C 59 % 9.78 C
590 20-08-2008 22:02:01 17.7 C 60 % 9.84 C
591 20-08-2008 22:14:01 17.7 C 60 % 9.84 C
592 20-08-2008 22:26:02 17.8 C 60 % 9.94 C
593 20-08-2008 22:38:01 17.8 C 59 % 9.69 C
594 20-08-2008 22:51:01 17.8 C 59 % 9.69 C
595 20-08-2008 23:03:01 17.8 C 59 % 9.69 C
596 20-08-2008 23:15:01 17.7 C 60 % 9.84 C
597 20-08-2008 23:27:01 17.7 C 60 % 9.84 C
598 20-08-2008 23:39:01 17.6 C 60 % 9.75 C
599 20-08-2008 23:51:01 17.5 C 61 % 9.9 C
600 21-08-2008 00:03:01 17.4 C 61 % 9.81 C
Sensor: Nr:Datum:Temp:Feuchte:Taupunkt:
Aussen-T/F 601 21-08-2008 00:15:01 17.5 C 62 % 10.15 C
602 21-08-2008 00:27:02 17.3 C 62 % 9.96 C
603 21-08-2008 00:39:02 17.2 C 61 % 9.62 C
604 21-08-2008 00:51:02 17.1 C 61 % 9.53 C
605 21-08-2008 01:03:02 17 C 62 % 9.67 C
606 21-08-2008 01:15:02 16.8 C 63 % 9.72 C
607 21-08-2008 01:27:02 16.7 C 63 % 9.63 C
608 21-08-2008 01:39:02 16.4 C 64 % 9.58 C
609 21-08-2008 01:51:02 16.2 C 65 % 9.62 C
610 21-08-2008 02:03:02 16 C 66 % 9.66 C
611 21-08-2008 02:15:02 15.9 C 67 % 9.79 C
612 21-08-2008 02:27:02 15.6 C 68 % 9.72 C
613 21-08-2008 02:39:02 15.3 C 69 % 9.65 C
614 21-08-2008 02:51:02 14.9 C 71 % 9.69 C
615 21-08-2008 03:03:02 14.8 C 72 % 9.81 C
616 21-08-2008 03:15:02 14.4 C 73 % 9.63 C
617 21-08-2008 03:27:02 14.4 C 74 % 9.83 C
618 21-08-2008 03:39:02 14.3 C 74 % 9.73 C
619 21-08-2008 03:51:02 14.1 C 75 % 9.74 C
620 21-08-2008 04:03:02 13.9 C 76 % 9.74 C
621 21-08-2008 04:15:03 13.7 C 76 % 9.55 C
622 21-08-2008 04:27:03 13.5 C 77 % 9.55 C
623 21-08-2008 04:39:03 13.5 C 77 % 9.55 C
624 21-08-2008 04:51:03 13.3 C 78 % 9.55 C
625 21-08-2008 05:03:03 13.2 C 79 % 9.64 C
Sensor: Nr:Datum:Temp:Feuchte:Taupunkt:
Aussen-T/F 626 21-08-2008 05:15:03 13.1 C 79 % 9.54 C
627 21-08-2008 05:27:03 13.1 C 80 % 9.73 C
628 21-08-2008 05:39:03 13.1 C 79 % 9.54 C
629 21-08-2008 05:51:03 13.1 C 79 % 9.54 C
630 21-08-2008 06:03:03 13 C 79 % 9.45 C
631 21-08-2008 06:15:03 12.9 C 80 % 9.54 C
632 21-08-2008 06:27:03 12.9 C 81 % 9.72 C
633 21-08-2008 06:39:02 13.2 C 80 % 9.83 C
634 21-08-2008 06:51:02 13.4 C 80 % 10.02 C
635 21-08-2008 07:03:02 13.6 C 79 % 10.03 C
636 21-08-2008 07:15:02 13.7 C 79 % 10.13 C
637 21-08-2008 07:27:02 14 C 78 % 10.23 C
638 21-08-2008 07:39:02 14.2 C 77 % 10.23 C
639 21-08-2008 07:51:02 14.6 C 76 % 10.42 C
640 21-08-2008 08:03:02 14.6 C 74 % 10.02 C
641 21-08-2008 08:15:02 14.5 C 75 % 10.13 C
642 21-08-2008 08:27:02 14.8 C 75 % 10.42 C
643 21-08-2008 08:39:02 15.4 C 70 % 9.96 C
644 21-08-2008 08:51:02 16 C 67 % 9.88 C
645 21-08-2008 09:03:02 15.9 C 67 % 9.79 C
646 21-08-2008 09:15:02 15.8 C 68 % 9.91 C
647 21-08-2008 09:27:02 15.9 C 68 % 10.01 C
648 21-08-2008 09:39:02 16.3 C 68 % 10.39 C
649 21-08-2008 09:51:02 16.8 C 67 % 10.64 C
650 21-08-2008 10:03:01 17.3 C 64 % 10.43 C
Sensor: Nr:Datum:Temp:Feuchte:Taupunkt:
Aussen-T/F 651 21-08-2008 10:15:02 17.8 C 61 % 10.18 C
652 21-08-2008 10:27:02 18.4 C 59 % 10.25 C
653 21-08-2008 10:39:01 19.1 C 55 % 9.86 C
654 21-08-2008 10:51:02 20.6 C 48 % 9.21 C
655 21-08-2008 11:03:01 20.3 C 47 % 8.63 C
656 21-08-2008 11:15:02 20.8 C 45 % 8.44 C
657 21-08-2008 11:27:02 20.7 C 46 % 8.67 C
658 21-08-2008 11:39:01 21.3 C 42 % 7.88 C
659 21-08-2008 11:51:01 21.5 C 43 % 8.4 C
660 21-08-2008 12:03:01 21.5 C 44 % 8.74 C
661 21-08-2008 12:15:02 22.7 C 39 % 8.04 C
662 21-08-2008 12:27:02 22.5 C 40 % 8.24 C
663 21-08-2008 12:39:01 23.5 C 37 % 7.98 C
664 21-08-2008 12:51:01 23.3 C 35 % 6.99 C
665 21-08-2008 13:03:02 23.4 C 35 % 7.08 C
666 21-08-2008 13:15:01 24.2 C 33 % 6.92 C
667 21-08-2008 13:27:01 24.6 C 31 % 6.36 C
668 21-08-2008 13:39:02 24.7 C 32 % 6.91 C
669 21-08-2008 13:51:02 24.5 C 32 % 6.74 C
670 21-08-2008 14:03:02 25.1 C 30 % 6.32 C
671 21-08-2008 14:15:02 25.1 C 30 % 6.32 C
672 21-08-2008 14:27:02 25.1 C 30 % 6.32 C
673 21-08-2008 14:39:02 25.6 C 28 % 5.75 C
674 21-08-2008 14:51:02 25.6 C 29 % 6.26 C
675 21-08-2008 15:03:03 25.5 C 29 % 6.17 C
Sensor: Nr:Datum:Temp:Feuchte:Taupunkt:
Aussen-T/F 676 21-08-2008 15:15:02 25.8 C 29 % 6.43 C
677 21-08-2008 15:27:02 25.8 C 28 % 5.92 C
678 21-08-2008 15:39:02 25.9 C 29 % 6.52 C
679 21-08-2008 15:51:02 25.7 C 30 % 6.84 C
680 21-08-2008 16:03:01 25.4 C 30 % 6.58 C
681 21-08-2008 16:15:02 25.5 C 31 % 7.14 C
682 21-08-2008 16:27:02 25.3 C 31 % 6.97 C
683 21-08-2008 16:39:02 25.9 C 30 % 7.01 C
684 21-08-2008 16:51:02 25.7 C 31 % 7.31 C
685 21-08-2008 17:03:01 25.4 C 32 % 7.52 C
686 21-08-2008 17:15:01 25 C 32 % 7.17 C
687 21-08-2008 17:27:01 25.4 C 31 % 7.05 C
688 21-08-2008 17:39:01 25.3 C 31 % 6.97 C
689 21-08-2008 17:51:03 26.1 C 30 % 7.18 C
690 21-08-2008 18:03:02 25.8 C 31 % 7.4 C
691 21-08-2008 18:15:02 25.4 C 32 % 7.52 C
692 21-08-2008 18:27:02 25.4 C 32 % 7.52 C
693 21-08-2008 18:39:02 24.5 C 35 % 8.05 C
694 21-08-2008 18:51:02 24.1 C 36 % 8.11 C
695 21-08-2008 19:03:02 23.7 C 37 % 8.16 C
696 21-08-2008 19:15:03 23.3 C 39 % 8.58 C
697 21-08-2008 19:27:03 22.9 C 40 % 8.59 C
698 21-08-2008 19:39:02 22.8 C 41 % 8.87 C
699 21-08-2008 19:51:01 22.9 C 41 % 8.96 C
700 21-08-2008 20:03:01 22.8 C 42 % 9.23 C
Sensor: Nr:Datum:Temp:Feuchte:Taupunkt:
Aussen-T/F 701 21-08-2008 20:15:01 22.6 C 42 % 9.05 C
702 21-08-2008 20:27:01 22.5 C 43 % 9.31 C
703 21-08-2008 20:39:01 22.3 C 43 % 9.13 C
704 21-08-2008 20:51:01 22.2 C 43 % 9.04 C
705 21-08-2008 21:03:02 22 C 44 % 9.2 C
706 21-08-2008 21:15:01 21.9 C 45 % 9.44 C
707 21-08-2008 21:27:01 21.9 C 45 % 9.44 C
708 21-08-2008 21:39:02 21.7 C 46 % 9.58 C
709 21-08-2008 21:51:02 21.6 C 46 % 9.49 C
710 21-08-2008 22:04:03 21.3 C 47 % 9.54 C
711 21-08-2008 22:16:03 21.1 C 47 % 9.36 C
712 21-08-2008 22:28:03 21 C 48 % 9.58 C
713 21-08-2008 22:40:03 20.7 C 50 % 9.91 C
714 21-08-2008 22:52:03 20.7 C 50 % 9.91 C
715 21-08-2008 23:04:03 20.6 C 51 % 10.12 C
716 21-08-2008 23:16:04 20.6 C 51 % 10.12 C
717 21-08-2008 23:28:04 20.4 C 52 % 10.22 C
718 21-08-2008 23:40:04 20.4 C 52 % 10.22 C
719 21-08-2008 23:52:04 20.2 C 53 % 10.32 C
720 22-08-2008 00:04:04 20.1 C 53 % 10.23 C
721 22-08-2008 00:16:04 20 C 54 % 10.42 C
722 22-08-2008 00:28:04 20.1 C 53 % 10.23 C
723 22-08-2008 00:40:04 20 C 54 % 10.42 C
724 22-08-2008 00:52:04 19.9 C 54 % 10.32 C
725 22-08-2008 01:04:04 20 C 54 % 10.42 C
Sensor: Nr:Datum:Temp:Feuchte:Taupunkt:
Aussen-T/F 726 22-08-2008 01:16:04 20.3 C 55 % 10.97 C
727 22-08-2008 01:28:04 19.6 C 57 % 10.86 C
728 22-08-2008 01:40:04 19.5 C 57 % 10.76 C
729 22-08-2008 01:52:04 19.3 C 57 % 10.58 C
730 22-08-2008 02:04:04 19.1 C 58 % 10.65 C
731 22-08-2008 02:16:04 18.9 C 59 % 10.72 C
732 22-08-2008 02:28:04 18.7 C 59 % 10.53 C
733 22-08-2008 02:40:04 18.5 C 59 % 10.34 C
734 22-08-2008 02:52:04 18.4 C 60 % 10.5 C
735 22-08-2008 03:04:05 18.5 C 59 % 10.34 C
736 22-08-2008 03:16:05 18.5 C 60 % 10.6 C
737 22-08-2008 03:28:05 18.4 C 60 % 10.5 C
738 22-08-2008 03:40:05 18.5 C 60 % 10.6 C
739 22-08-2008 03:52:05 18.5 C 60 % 10.6 C
740 22-08-2008 04:04:05 18.5 C 60 % 10.6 C
741 22-08-2008 04:16:05 18.4 C 60 % 10.5 C
742 22-08-2008 04:28:05 18.4 C 61 % 10.75 C
743 22-08-2008 04:40:05 18.3 C 61 % 10.66 C
744 22-08-2008 04:52:05 18.2 C 62 % 10.81 C
745 22-08-2008 05:04:05 18.2 C 62 % 10.81 C
746 22-08-2008 05:16:05 18.1 C 62 % 10.71 C
747 22-08-2008 05:28:05 18.2 C 62 % 10.81 C
748 22-08-2008 05:40:05 18.1 C 63 % 10.95 C
749 22-08-2008 05:52:05 18 C 63 % 10.86 C
750 22-08-2008 06:04:05 17.9 C 64 % 11 C
Sensor: Nr:Datum:Temp:Feuchte:Taupunkt:
Aussen-T/F 751 22-08-2008 06:16:05 17.5 C 65 % 10.85 C
752 22-08-2008 06:28:05 17.3 C 66 % 10.89 C
753 22-08-2008 06:40:05 17 C 67 % 10.83 C
754 22-08-2008 06:52:06 16.8 C 69 % 11.09 C
755 22-08-2008 07:04:06 16.9 C 69 % 11.18 C
756 22-08-2008 07:16:02 16.8 C 70 % 11.3 C
757 22-08-2008 07:28:02 17 C 70 % 11.49 C
758 22-08-2008 07:40:03 17.2 C 69 % 11.47 C
759 22-08-2008 07:52:01 17.6 C 69 % 11.85 C
760 22-08-2008 08:04:01 17.7 C 68 % 11.72 C
761 22-08-2008 08:16:01 17.8 C 68 % 11.82 C
762 22-08-2008 08:28:01 18 C 65 % 11.33 C
763 22-08-2008 08:40:01 17.9 C 65 % 11.23 C
764 22-08-2008 08:52:02 17.7 C 66 % 11.27 C
765 22-08-2008 09:04:02 17.8 C 66 % 11.37 C
766 22-08-2008 09:16:02 18.1 C 64 % 11.19 C
767 22-08-2008 09:28:02 18.7 C 63 % 11.52 C
768 22-08-2008 09:40:02 19.3 C 61 % 11.6 C
769 22-08-2008 09:52:02 20 C 58 % 11.49 C
770 22-08-2008 10:04:02 20.6 C 56 % 11.52 C
771 22-08-2008 10:16:02 21.2 C 53 % 11.25 C
772 22-08-2008 10:28:02 22.2 C 50 % 11.29 C
773 22-08-2008 10:40:02 22.9 C 47 % 11 C
774 22-08-2008 10:52:02 23.3 C 45 % 10.71 C
775 22-08-2008 11:04:02 23.6 C 44 % 10.64 C
Sensor: Nr:Datum:Temp:Feuchte:Taupunkt:
Aussen-T/F 776 22-08-2008 11:16:02 24.4 C 41 % 10.3 C
777 22-08-2008 11:28:02 24.9 C 39 % 10 C
778 22-08-2008 11:40:02 24.5 C 42 % 10.75 C
779 22-08-2008 11:52:02 24.9 C 40 % 10.38 C
780 22-08-2008 12:04:02 24.8 C 39 % 9.91 C
781 22-08-2008 12:16:02 24.8 C 40 % 10.29 C
782 22-08-2008 12:28:02 24.8 C 39 % 9.91 C
783 22-08-2008 12:40:02 24.5 C 40 % 10.02 C
784 22-08-2008 12:52:02 24.5 C 41 % 10.39 C
785 22-08-2008 13:04:02 24.3 C 41 % 10.21 C
786 22-08-2008 13:16:02 24.2 C 42 % 10.48 C
787 22-08-2008 13:28:02 23.4 C 47 % 11.45 C
788 22-08-2008 13:40:02 22.9 C 50 % 11.93 C
789 22-08-2008 13:52:02 21.5 C 58 % 12.89 C
790 22-08-2008 14:04:01 19.1 C 69 % 13.28 C
791 22-08-2008 14:16:02 18.1 C 78 % 14.21 C
792 22-08-2008 14:28:02 17.9 C 83 % 14.97 C
793 22-08-2008 14:40:01 18.2 C 83 % 15.27 C
794 22-08-2008 14:52:02 18.1 C 83 % 15.17 C
795 22-08-2008 15:04:01 18.4 C 84 % 15.65 C
796 22-08-2008 15:16:02 18.5 C 84 % 15.75 C
797 22-08-2008 15:28:02 18 C 86 % 15.62 C
798 22-08-2008 15:40:01 17.9 C 88 % 15.88 C
799 22-08-2008 15:52:03 18.3 C 88 % 16.28 C
800 22-08-2008 16:04:02 18.5 C 88 % 16.48 C
Sensor: Nr:Datum:Temp:Feuchte:Taupunkt:
Aussen-T/F 801 22-08-2008 16:16:03 18.3 C 88 % 16.28 C
802 22-08-2008 16:28:03 18.5 C 88 % 16.48 C
803 22-08-2008 16:40:03 18.2 C 88 % 16.18 C
804 22-08-2008 16:52:02 17.9 C 89 % 16.06 C
805 22-08-2008 17:04:02 17.8 C 88 % 15.79 C
806 22-08-2008 17:16:01 17.8 C 88 % 15.79 C
807 22-08-2008 17:28:01 17.7 C 88 % 15.69 C
808 22-08-2008 17:40:02 17.5 C 88 % 15.49 C
809 22-08-2008 17:52:02 17.5 C 88 % 15.49 C
810 22-08-2008 18:04:02 17.5 C 88 % 15.49 C
811 22-08-2008 18:16:02 16.1 C 86 % 13.76 C
812 22-08-2008 18:28:02 15.7 C 86 % 13.37 C
813 22-08-2008 18:40:02 15.5 C 87 % 13.35 C
814 22-08-2008 18:52:02 15.6 C 89 % 13.79 C
815 22-08-2008 19:04:02 15.4 C 89 % 13.6 C
816 22-08-2008 19:16:02 15.2 C 90 % 13.57 C
817 22-08-2008 19:28:02 15.2 C 91 % 13.74 C
818 22-08-2008 19:40:02 15.4 C 91 % 13.94 C
819 22-08-2008 19:52:02 15.4 C 92 % 14.11 C
820 22-08-2008 20:04:01 15.4 C 92 % 14.11 C
821 22-08-2008 20:16:02 15.3 C 92 % 14.01 C
822 22-08-2008 20:28:02 15.3 C 92 % 14.01 C
823 22-08-2008 20:40:01 15.4 C 93 % 14.27 C
824 22-08-2008 20:52:02 15.4 C 93 % 14.27 C
825 22-08-2008 21:04:01 15.4 C 93 % 14.27 C
Sensor: Nr:Datum:Temp:Feuchte:Taupunkt:
Aussen-T/F 826 22-08-2008 21:16:02 15.5 C 93 % 14.37 C
827 22-08-2008 21:28:02 15.3 C 93 % 14.18 C
828 22-08-2008 21:40:01 15.1 C 93 % 13.98 C
829 22-08-2008 21:52:03 14.9 C 94 % 13.94 C
830 22-08-2008 22:04:02 14.8 C 94 % 13.84 C
831 22-08-2008 22:16:03 14.8 C 94 % 13.84 C
832 22-08-2008 22:28:03 14.8 C 94 % 13.84 C
833 22-08-2008 22:40:02 15 C 94 % 14.04 C
834 22-08-2008 22:52:01 15 C 94 % 14.04 C
835 22-08-2008 23:05:02 14.7 C 94 % 13.74 C
836 22-08-2008 23:17:02 14.6 C 94 % 13.65 C
837 22-08-2008 23:29:02 14.7 C 94 % 13.74 C
838 22-08-2008 23:41:02 14.8 C 95 % 14.01 C
839 22-08-2008 23:53:02 14.6 C 94 % 13.65 C
840 23-08-2008 00:05:02 14.5 C 94 % 13.55 C
841 23-08-2008 00:17:02 14.3 C 94 % 13.35 C
842 23-08-2008 00:29:02 14.1 C 95 % 13.31 C
843 23-08-2008 00:41:02 14 C 94 % 13.05 C
844 23-08-2008 00:53:02 14 C 94 % 13.05 C
845 23-08-2008 01:05:02 14 C 94 % 13.05 C
846 23-08-2008 01:17:02 13.8 C 95 % 13.01 C
847 23-08-2008 01:29:02 13.8 C 95 % 13.01 C
848 23-08-2008 01:41:03 13.7 C 94 % 12.75 C
849 23-08-2008 01:53:03 13.8 C 94 % 12.85 C
850 23-08-2008 02:05:03 13.8 C 94 % 12.85 C
Sensor: Nr:Datum:Temp:Feuchte:Taupunkt:
Aussen-T/F 851 23-08-2008 02:17:03 13.7 C 94 % 12.75 C
852 23-08-2008 02:29:03 13.7 C 93 % 12.59 C
853 23-08-2008 02:41:03 13.7 C 93 % 12.59 C
854 23-08-2008 02:53:03 13.6 C 93 % 12.49 C
855 23-08-2008 03:05:03 13.6 C 93 % 12.49 C
856 23-08-2008 03:17:03 13.3 C 90 % 11.7 C
857 23-08-2008 03:29:03 13 C 86 % 10.72 C
858 23-08-2008 03:41:03 12.6 C 85 % 10.15 C
859 23-08-2008 03:53:03 12.2 C 86 % 9.93 C
860 23-08-2008 04:05:03 11.9 C 88 % 9.98 C
861 23-08-2008 04:17:03 11.7 C 89 % 9.95 C
862 23-08-2008 04:29:03 11.5 C 90 % 9.92 C
863 23-08-2008 04:41:03 11.4 C 91 % 9.98 C
864 23-08-2008 04:53:03 11.2 C 91 % 9.79 C
865 23-08-2008 05:05:03 11.1 C 91 % 9.69 C
866 23-08-2008 05:17:03 10.9 C 92 % 9.65 C
867 23-08-2008 05:29:04 10.8 C 92 % 9.55 C
868 23-08-2008 05:41:04 10.8 C 92 % 9.55 C
869 23-08-2008 05:53:04 11 C 92 % 9.75 C
870 23-08-2008 06:05:04 11.2 C 93 % 10.11 C
871 23-08-2008 06:17:04 11 C 92 % 9.75 C
872 23-08-2008 06:29:04 10.9 C 93 % 9.81 C
873 23-08-2008 06:41:04 10.8 C 93 % 9.71 C
874 23-08-2008 06:53:04 10.7 C 93 % 9.62 C
875 23-08-2008 07:05:04 10.7 C 93 % 9.62 C
Sensor: Nr:Datum:Temp:Feuchte:Taupunkt:
Aussen-T/F 876 23-08-2008 07:17:04 10.7 C 93 % 9.62 C
877 23-08-2008 07:29:04 10.8 C 93 % 9.71 C
878 23-08-2008 07:41:04 11.1 C 92 % 9.85 C
879 23-08-2008 07:53:01 11.6 C 92 % 10.35 C
880 23-08-2008 08:05:02 12 C 91 % 10.58 C
881 23-08-2008 08:17:02 12.1 C 90 % 10.51 C
882 23-08-2008 08:29:02 12.7 C 88 % 10.77 C
883 23-08-2008 08:41:01 12.5 C 84 % 9.87 C
884 23-08-2008 08:53:01 12.6 C 82 % 9.61 C
885 23-08-2008 09:05:02 12.8 C 80 % 9.44 C
886 23-08-2008 09:17:01 13.2 C 78 % 9.45 C
887 23-08-2008 09:29:01 13.3 C 76 % 9.16 C
888 23-08-2008 09:41:01 13.4 C 78 % 9.65 C
889 23-08-2008 09:53:02 14.5 C 77 % 10.52 C
890 23-08-2008 10:05:01 14.4 C 71 % 9.21 C
891 23-08-2008 10:17:02 14.8 C 71 % 9.6 C
892 23-08-2008 10:29:02 15.1 C 69 % 9.46 C
893 23-08-2008 10:41:01 15.7 C 65 % 9.15 C
894 23-08-2008 10:53:02 16 C 64 % 9.2 C
895 23-08-2008 11:05:02 16.3 C 62 % 9.01 C
896 23-08-2008 11:17:03 16.6 C 61 % 9.06 C
897 23-08-2008 11:29:03 17.1 C 58 % 8.78 C
898 23-08-2008 11:41:02 17.4 C 56 % 8.54 C
899 23-08-2008 11:53:01 17.7 C 55 % 8.55 C
900 23-08-2008 12:05:02 17.9 C 55 % 8.74 C
Sensor: Nr:Datum:Temp:Feuchte:Taupunkt:
Aussen-T/F 901 23-08-2008 12:17:01 18.5 C 48 % 7.29 C
902 23-08-2008 12:29:01 17.5 C 51 % 7.26 C
903 23-08-2008 12:41:02 17.5 C 51 % 7.26 C
904 23-08-2008 12:53:02 17.7 C 52 % 7.73 C
905 23-08-2008 13:05:02 18.2 C 49 % 7.32 C
906 23-08-2008 13:17:02 18 C 50 % 7.43 C
907 23-08-2008 13:29:02 17.5 C 51 % 7.26 C
908 23-08-2008 13:41:02 17.5 C 51 % 7.26 C
909 23-08-2008 13:53:02 18.4 C 46 % 6.58 C
910 23-08-2008 14:05:03 17.9 C 51 % 7.63 C
911 23-08-2008 14:17:02 17.7 C 43 % 4.98 C
912 23-08-2008 14:29:02 17.9 C 40 % 4.12 C
913 23-08-2008 14:41:03 17.7 C 39 % 3.59 C
914 23-08-2008 14:53:02 17.5 C 41 % 4.12 C
915 23-08-2008 15:05:02 17.2 C 42 % 4.19 C
916 23-08-2008 15:17:02 17.1 C 43 % 4.43 C
917 23-08-2008 15:29:02 17.1 C 44 % 4.76 C
918 23-08-2008 15:41:02 17 C 47 % 5.62 C
919 23-08-2008 15:53:01 17.3 C 46 % 5.58 C
920 23-08-2008 16:05:02 16.6 C 51 % 6.43 C
921 23-08-2008 16:17:02 17.4 C 50 % 6.88 C
922 23-08-2008 16:29:02 18.6 C 45 % 6.45 C
923 23-08-2008 16:41:02 18.1 C 47 % 6.62 C
924 23-08-2008 16:53:02 18.5 C 50 % 7.89 C
925 23-08-2008 17:05:02 19.7 C 45 % 7.44 C
Sensor: Nr:Datum:Temp:Feuchte:Taupunkt:
Aussen-T/F 926 23-08-2008 17:17:02 19.6 C 45 % 7.35 C
927 23-08-2008 17:29:02 19.7 C 45 % 7.44 C
928 23-08-2008 17:41:02 19.1 C 44 % 6.57 C
929 23-08-2008 17:53:02 19.5 C 45 % 7.26 C
930 23-08-2008 18:05:03 18.9 C 43 % 6.06 C
931 23-08-2008 18:17:02 18.8 C 44 % 6.3 C
932 23-08-2008 18:29:02 18.7 C 43 % 5.88 C
933 23-08-2008 18:41:03 18.6 C 43 % 5.79 C
934 23-08-2008 18:53:02 18.4 C 44 % 5.94 C
935 23-08-2008 19:05:02 18.2 C 46 % 6.4 C
936 23-08-2008 19:17:02 17 C 58 % 8.69 C
937 23-08-2008 19:29:03 16.8 C 65 % 10.19 C
938 23-08-2008 19:41:02 16 C 69 % 10.32 C
939 23-08-2008 19:53:02 15.9 C 73 % 11.07 C
940 23-08-2008 20:05:02 15.8 C 72 % 10.77 C
941 23-08-2008 20:17:02 16 C 63 % 8.97 C
942 23-08-2008 20:29:02 16.3 C 59 % 8.28 C
943 23-08-2008 20:41:02 15.8 C 63 % 8.78 C
944 23-08-2008 20:53:01 14.9 C 72 % 9.9 C
945 23-08-2008 21:05:02 14.5 C 77 % 10.52 C
946 23-08-2008 21:17:02 14.2 C 81 % 10.99 C
947 23-08-2008 21:29:02 14 C 83 % 11.16 C
948 23-08-2008 21:41:02 14.2 C 83 % 11.36 C
949 23-08-2008 21:53:02 14.1 C 82 % 11.08 C
950 23-08-2008 22:06:01 14.3 C 81 % 11.09 C
Sensor: Nr:Datum:Temp:Feuchte:Taupunkt:
Aussen-T/F 951 23-08-2008 22:18:01 14.4 C 79 % 10.81 C
952 23-08-2008 22:30:01 14.6 C 78 % 10.81 C
953 23-08-2008 22:42:01 14.4 C 77 % 10.42 C
954 23-08-2008 22:54:01 14.1 C 78 % 10.33 C
955 23-08-2008 23:06:01 14 C 78 % 10.23 C
956 23-08-2008 23:18:01 13.9 C 79 % 10.32 C
957 23-08-2008 23:30:01 13.9 C 78 % 10.13 C
958 23-08-2008 23:42:01 14.1 C 75 % 9.74 C
959 23-08-2008 23:54:02 14.2 C 75 % 9.84 C
960 24-08-2008 00:06:02 13.9 C 76 % 9.74 C
961 24-08-2008 00:18:02 13.8 C 77 % 9.84 C
962 24-08-2008 00:30:02 13.6 C 77 % 9.65 C
963 24-08-2008 00:42:02 13.6 C 77 % 9.65 C
964 24-08-2008 00:54:02 13.5 C 77 % 9.55 C
965 24-08-2008 01:06:02 13.5 C 77 % 9.55 C
966 24-08-2008 01:18:02 13.4 C 77 % 9.45 C
967 24-08-2008 01:30:02 13.5 C 76 % 9.36 C
968 24-08-2008 01:42:02 13.2 C 77 % 9.26 C
969 24-08-2008 01:54:02 12.9 C 79 % 9.35 C
970 24-08-2008 02:06:02 13 C 79 % 9.45 C
971 24-08-2008 02:18:02 13.1 C 78 % 9.36 C
972 24-08-2008 02:30:02 12.8 C 79 % 9.25 C
973 24-08-2008 02:42:02 12.6 C 81 % 9.43 C
974 24-08-2008 02:54:02 12.5 C 81 % 9.33 C
975 24-08-2008 03:06:02 12.3 C 82 % 9.32 C
Sensor: Nr:Datum:Temp:Feuchte:Taupunkt:
Aussen-T/F 976 24-08-2008 03:18:02 12.4 C 82 % 9.42 C
977 24-08-2008 03:30:02 12.5 C 81 % 9.33 C
978 24-08-2008 03:42:03 12.4 C 81 % 9.23 C
979 24-08-2008 03:54:03 12.1 C 83 % 9.3 C
980 24-08-2008 04:06:03 12.1 C 82 % 9.12 C
981 24-08-2008 04:18:03 12 C 83 % 9.21 C
982 24-08-2008 04:30:03 12 C 83 % 9.21 C
983 24-08-2008 04:42:03 11.8 C 84 % 9.19 C
984 24-08-2008 04:54:03 11.7 C 84 % 9.09 C
985 24-08-2008 05:06:03 11.4 C 85 % 8.97 C
986 24-08-2008 05:18:03 11.2 C 86 % 8.95 C
987 24-08-2008 05:30:03 11.2 C 87 % 9.12 C
988 24-08-2008 05:42:03 11.1 C 87 % 9.02 C
989 24-08-2008 05:54:03 11.2 C 87 % 9.12 C
990 24-08-2008 06:06:03 11.2 C 87 % 9.12 C
991 24-08-2008 06:18:03 11.5 C 87 % 9.41 C
992 24-08-2008 06:30:03 11.7 C 86 % 9.44 C
993 24-08-2008 06:42:03 11.8 C 85 % 9.36 C
994 24-08-2008 06:54:03 11.7 C 85 % 9.27 C
995 24-08-2008 07:06:03 11.8 C 85 % 9.36 C
996 24-08-2008 07:18:03 11.8 C 85 % 9.36 C
997 24-08-2008 07:30:03 11.6 C 85 % 9.17 C
998 24-08-2008 07:42:04 11.6 C 85 % 9.17 C
999 24-08-2008 07:54:04 11.7 C 85 % 9.27 C
1000 24-08-2008 08:06:04 11.6 C 86 % 9.34 C
Sensor: Nr:Datum:Temp:Feuchte:Taupunkt:
Aussen-T/F 1001 24-08-2008 08:18:04 11.8 C 86 % 9.54 C
1002 24-08-2008 08:30:04 11.9 C 85 % 9.46 C
1003 24-08-2008 08:42:04 12.1 C 84 % 9.48 C
1004 24-08-2008 08:54:04 12.3 C 84 % 9.68 C
1005 24-08-2008 09:06:02 12.5 C 84 % 9.87 C
1006 24-08-2008 09:18:02 12.8 C 83 % 9.99 C
1007 24-08-2008 09:30:02 13.5 C 80 % 10.12 C
1008 24-08-2008 09:42:02 14 C 76 % 9.84 C
1009 24-08-2008 09:54:02 14.2 C 76 % 10.03 C
1010 24-08-2008 10:06:02 15.2 C 73 % 10.4 C
1011 24-08-2008 10:18:02 15.5 C 70 % 10.06 C
1012 24-08-2008 10:30:03 15.8 C 69 % 10.13 C
1013 24-08-2008 10:42:02 16.2 C 65 % 9.62 C
1014 24-08-2008 10:54:02 16.4 C 64 % 9.58 C
1015 24-08-2008 11:06:02 16.6 C 63 % 9.53 C
1016 24-08-2008 11:18:02 17 C 60 % 9.19 C
1017 24-08-2008 11:30:02 17.4 C 58 % 9.06 C
1018 24-08-2008 11:42:02 18.4 C 53 % 8.66 C
1019 24-08-2008 11:54:02 19.1 C 47 % 7.53 C
1020 24-08-2008 12:06:02 19.1 C 45 % 6.9 C
1021 24-08-2008 12:18:02 19.2 C 46 % 7.31 C
1022 24-08-2008 12:30:02 19.7 C 44 % 7.12 C
1023 24-08-2008 12:42:02 19.5 C 41 % 5.91 C
1024 24-08-2008 12:54:02 19.6 C 41 % 6 C
1025 24-08-2008 13:06:02 19.6 C 40 % 5.64 C
Sensor: Nr:Datum:Temp:Feuchte:Taupunkt:
Aussen-T/F 1026 24-08-2008 13:18:01 20.5 C 39 % 6.08 C
1027 24-08-2008 13:30:01 21.1 C 37 % 5.86 C
1028 24-08-2008 13:42:02 21.6 C 34 % 5.08 C
1029 24-08-2008 13:54:02 21.9 C 34 % 5.34 C
1030 24-08-2008 14:06:03 21.3 C 34 % 4.82 C
1031 24-08-2008 14:18:02 21.5 C 33 % 4.57 C
1032 24-08-2008 14:30:02 21.6 C 32 % 4.21 C
1033 24-08-2008 14:42:03 22.5 C 30 % 4.08 C
1034 24-08-2008 14:54:02 22 C 31 % 4.11 C
1035 24-08-2008 15:06:01 22.1 C 31 % 4.2 C
1036 24-08-2008 15:18:02 22.9 C 31 % 4.89 C
1037 24-08-2008 15:30:03 22.9 C 30 % 4.42 C
1038 24-08-2008 15:42:01 22.7 C 31 % 4.72 C
1039 24-08-2008 15:54:02 22.4 C 30 % 3.99 C
1040 24-08-2008 16:06:02 22.7 C 30 % 4.25 C
1041 24-08-2008 16:18:02 22.7 C 31 % 4.72 C
1042 24-08-2008 16:30:02 22.6 C 31 % 4.63 C
1043 24-08-2008 16:42:02 22.4 C 31 % 4.46 C
1044 24-08-2008 16:54:01 22.7 C 30 % 4.25 C
1045 24-08-2008 17:06:02 22.5 C 30 % 4.08 C
1046 24-08-2008 17:18:02 22.4 C 32 % 4.91 C
1047 24-08-2008 17:30:02 23.5 C 27 % 3.44 C
1048 24-08-2008 17:42:02 23.4 C 28 % 3.87 C
1049 24-08-2008 17:54:01 22.1 C 32 % 4.65 C
1050 24-08-2008 18:06:01 21.8 C 36 % 6.08 C
Sensor: Nr:Datum:Temp:Feuchte:Taupunkt:
Aussen-T/F 1051 24-08-2008 18:18:02 21.9 C 36 % 6.17 C
1052 24-08-2008 18:30:03 21.6 C 40 % 7.43 C
1053 24-08-2008 18:42:01 21.2 C 40 % 7.08 C
1054 24-08-2008 18:54:03 21.1 C 38 % 6.24 C
1055 24-08-2008 19:06:02 21 C 40 % 6.9 C
1056 24-08-2008 19:18:03 20.7 C 42 % 7.34 C
1057 24-08-2008 19:30:03 20.3 C 44 % 7.66 C
1058 24-08-2008 19:42:02 19.9 C 45 % 7.63 C
1059 24-08-2008 19:54:01 19.5 C 47 % 7.9 C
1060 24-08-2008 20:06:01 19 C 47 % 7.44 C
1061 24-08-2008 20:18:01 18.8 C 49 % 7.87 C
1062 24-08-2008 20:30:01 18.6 C 51 % 8.27 C
1063 24-08-2008 20:42:01 18.3 C 52 % 8.28 C
1064 24-08-2008 20:54:01 18.2 C 53 % 8.47 C
1065 24-08-2008 21:06:02 17.9 C 54 % 8.47 C
1066 24-08-2008 21:18:01 17.9 C 54 % 8.47 C
1067 24-08-2008 21:30:01 17.9 C 55 % 8.74 C
1068 24-08-2008 21:42:02 17.9 C 53 % 8.19 C
1069 24-08-2008 21:55:03 17.9 C 54 % 8.47 C
1070 24-08-2008 22:07:03 17.9 C 53 % 8.19 C
1071 24-08-2008 22:19:03 17.8 C 54 % 8.38 C
1072 24-08-2008 22:31:03 17.3 C 58 % 8.97 C
1073 24-08-2008 22:43:03 16.4 C 65 % 9.81 C
1074 24-08-2008 22:55:03 16.2 C 68 % 10.29 C
1075 24-08-2008 23:07:03 15.9 C 73 % 11.07 C
Sensor: Nr:Datum:Temp:Feuchte:Taupunkt:
Aussen-T/F 1076 24-08-2008 23:19:03 15.6 C 77 % 11.59 C
1077 24-08-2008 23:31:03 15.4 C 79 % 11.78 C
1078 24-08-2008 23:43:03 15 C 82 % 11.95 C
1079 24-08-2008 23:55:03 14.6 C 85 % 12.11 C
1080 25-08-2008 00:07:03 14.5 C 86 % 12.19 C
1081 25-08-2008 00:19:03 14.4 C 88 % 12.44 C
1082 25-08-2008 00:31:03 14.5 C 89 % 12.71 C
1083 25-08-2008 00:43:03 14.5 C 89 % 12.71 C
1084 25-08-2008 00:55:03 14.4 C 90 % 12.78 C
1085 25-08-2008 01:07:03 14.5 C 90 % 12.88 C
1086 25-08-2008 01:19:03 14.4 C 90 % 12.78 C
1087 25-08-2008 01:31:04 14.4 C 90 % 12.78 C
1088 25-08-2008 01:43:04 14.4 C 90 % 12.78 C
1089 25-08-2008 01:55:04 14.5 C 90 % 12.88 C
1090 25-08-2008 02:07:04 14.7 C 91 % 13.25 C
1091 25-08-2008 02:19:04 14.7 C 90 % 13.08 C
1092 25-08-2008 02:31:04 14.6 C 90 % 12.98 C
1093 25-08-2008 02:43:04 14.7 C 90 % 13.08 C
1094 25-08-2008 02:55:04 14.6 C 90 % 12.98 C
1095 25-08-2008 03:07:04 14.5 C 90 % 12.88 C
1096 25-08-2008 03:19:04 14.5 C 89 % 12.71 C
1097 25-08-2008 03:31:04 14.4 C 89 % 12.61 C
1098 25-08-2008 03:43:04 14.4 C 89 % 12.61 C
1099 25-08-2008 03:55:04 14.4 C 90 % 12.78 C
1100 25-08-2008 04:07:04 14.4 C 90 % 12.78 C
Sensor: Nr:Datum:Temp:Feuchte:Taupunkt:
Aussen-T/F 1101 25-08-2008 04:19:04 14.3 C 89 % 12.51 C
1102 25-08-2008 04:31:04 14.3 C 90 % 12.68 C
1103 25-08-2008 04:43:04 14.3 C 90 % 12.68 C
1104 25-08-2008 04:55:04 14.2 C 90 % 12.58 C
1105 25-08-2008 05:07:04 14.2 C 90 % 12.58 C
1106 25-08-2008 05:19:04 14.2 C 91 % 12.75 C
1107 25-08-2008 05:31:05 14.2 C 91 % 12.75 C
1108 25-08-2008 05:43:05 14.3 C 91 % 12.85 C
1109 25-08-2008 05:55:05 14.2 C 91 % 12.75 C
1110 25-08-2008 06:07:05 14.3 C 90 % 12.68 C
1111 25-08-2008 06:19:05 14.4 C 89 % 12.61 C
1112 25-08-2008 06:31:05 14.5 C 88 % 12.54 C
1113 25-08-2008 06:43:05 14.6 C 87 % 12.46 C
1114 25-08-2008 06:55:05 14.6 C 87 % 12.46 C
1115 25-08-2008 07:07:05 14.7 C 87 % 12.56 C
1116 25-08-2008 07:19:05 14.8 C 87 % 12.66 C
1117 25-08-2008 07:31:03 14.7 C 88 % 12.73 C
1118 25-08-2008 07:43:03 14.7 C 88 % 12.73 C
1119 25-08-2008 07:55:02 14.7 C 88 % 12.73 C
1120 25-08-2008 08:07:01 14.8 C 88 % 12.83 C
1121 25-08-2008 08:19:01 14.8 C 88 % 12.83 C
1122 25-08-2008 08:31:02 14.9 C 87 % 12.76 C
1123 25-08-2008 08:43:02 15.1 C 87 % 12.95 C
1124 25-08-2008 08:55:02 15.2 C 87 % 13.05 C
1125 25-08-2008 09:07:02 15.5 C 87 % 13.35 C
Sensor: Nr:Datum:Temp:Feuchte:Taupunkt:
Aussen-T/F 1126 25-08-2008 09:19:03 15.6 C 86 % 13.27 C
1127 25-08-2008 09:31:02 15.6 C 87 % 13.45 C
1128 25-08-2008 09:43:02 15.9 C 87 % 13.74 C
1129 25-08-2008 09:55:02 16 C 85 % 13.48 C
1130 25-08-2008 10:07:01 16.5 C 84 % 13.79 C
1131 25-08-2008 10:19:02 16.8 C 83 % 13.9 C
1132 25-08-2008 10:31:01 17 C 82 % 13.91 C
1133 25-08-2008 10:43:01 17 C 80 % 13.53 C
1134 25-08-2008 10:55:02 17.1 C 78 % 13.24 C
1135 25-08-2008 11:07:01 17.2 C 78 % 13.33 C
1136 25-08-2008 11:19:02 17.5 C 77 % 13.43 C
1137 25-08-2008 11:31:01 17.7 C 76 % 13.42 C
1138 25-08-2008 11:43:01 17.9 C 75 % 13.41 C
1139 25-08-2008 11:55:02 18.7 C 71 % 13.34 C
1140 25-08-2008 12:07:02 18.9 C 69 % 13.09 C
1141 25-08-2008 12:19:02 19.5 C 64 % 12.51 C
1142 25-08-2008 12:31:02 19.6 C 64 % 12.61 C
1143 25-08-2008 12:43:02 20 C 62 % 12.5 C
1144 25-08-2008 12:55:02 20.5 C 59 % 12.22 C
1145 25-08-2008 13:07:03 20 C 60 % 12 C
1146 25-08-2008 13:19:02 19.4 C 62 % 11.94 C
1147 25-08-2008 13:31:03 20 C 61 % 12.26 C
1148 25-08-2008 13:43:03 20.5 C 58 % 11.96 C
1149 25-08-2008 13:55:02 19.7 C 61 % 11.97 C
1150 25-08-2008 14:07:01 20 C 60 % 12 C
Sensor: Nr:Datum:Temp:Feuchte:Taupunkt:
Aussen-T/F 1151 25-08-2008 14:19:02 20.5 C 58 % 11.96 C
1152 25-08-2008 14:31:01 20.8 C 57 % 11.97 C
1153 25-08-2008 14:43:01 20.9 C 56 % 11.8 C
1154 25-08-2008 14:55:02 21.2 C 54 % 11.53 C
1155 25-08-2008 15:07:01 20.4 C 58 % 11.86 C
1156 25-08-2008 15:19:02 20.7 C 59 % 12.41 C
1157 25-08-2008 15:31:01 21.4 C 55 % 11.99 C
1158 25-08-2008 15:43:01 21.4 C 55 % 11.99 C
1159 25-08-2008 15:55:02 22.2 C 50 % 11.29 C
1160 25-08-2008 16:07:01 22.4 C 50 % 11.47 C
1161 25-08-2008 16:19:02 22.4 C 51 % 11.77 C
1162 25-08-2008 16:31:01 22.5 C 49 % 11.26 C
1163 25-08-2008 16:43:01 22.4 C 51 % 11.77 C
1164 25-08-2008 16:55:01 23.5 C 46 % 11.22 C
1165 25-08-2008 17:07:02 23.8 C 46 % 11.49 C
1166 25-08-2008 17:19:01 23.9 C 45 % 11.25 C
1167 25-08-2008 17:31:02 23.8 C 45 % 11.16 C
1168 25-08-2008 17:43:02 22.6 C 49 % 11.35 C
1169 25-08-2008 17:55:02 21.9 C 52 % 11.61 C
1170 25-08-2008 18:07:02 21.9 C 53 % 11.89 C
1171 25-08-2008 18:19:02 21.4 C 54 % 11.71 C
1172 25-08-2008 18:31:02 21 C 55 % 11.62 C
1173 25-08-2008 18:43:02 21 C 58 % 12.43 C
1174 25-08-2008 18:55:02 20.9 C 59 % 12.59 C
1175 25-08-2008 19:07:03 20.9 C 59 % 12.59 C
Sensor: Nr:Datum:Temp:Feuchte:Taupunkt:
Aussen-T/F 1176 25-08-2008 19:19:02 20.5 C 61 % 12.73 C
1177 25-08-2008 19:31:03 20.3 C 62 % 12.79 C
1178 25-08-2008 19:43:03 21 C 58 % 12.43 C
1179 25-08-2008 19:55:02 20.9 C 51 % 10.39 C
1180 25-08-2008 20:07:02 20 C 54 % 10.42 C
1181 25-08-2008 20:19:02 19.3 C 59 % 11.09 C
1182 25-08-2008 20:31:01 18.8 C 61 % 11.13 C
1183 25-08-2008 20:43:01 18.3 C 63 % 11.14 C
1184 25-08-2008 20:55:02 17.9 C 65 % 11.23 C
1185 25-08-2008 21:07:02 17.6 C 67 % 11.4 C
1186 25-08-2008 21:19:02 17.4 C 67 % 11.21 C
1187 25-08-2008 21:31:01 17.2 C 68 % 11.25 C
1188 25-08-2008 21:43:01 17 C 69 % 11.28 C
1189 25-08-2008 21:56:02 17 C 69 % 11.28 C
1190 25-08-2008 22:08:02 16.8 C 70 % 11.3 C
1191 25-08-2008 22:20:02 16.6 C 70 % 11.11 C
1192 25-08-2008 22:32:02 16.6 C 69 % 10.89 C
1193 25-08-2008 22:44:02 16.3 C 70 % 10.82 C
1194 25-08-2008 22:56:02 16.1 C 71 % 10.84 C
1195 25-08-2008 23:08:02 15.8 C 73 % 10.97 C
1196 25-08-2008 23:20:02 15.7 C 74 % 11.08 C
1197 25-08-2008 23:32:02 15.5 C 75 % 11.09 C
1198 25-08-2008 23:44:02 15.3 C 76 % 11.1 C
1199 25-08-2008 23:56:02 15.1 C 78 % 11.3 C
1200 26-08-2008 00:08:02 14.9 C 80 % 11.48 C
Sensor: Nr:Datum:Temp:Feuchte:Taupunkt:
Aussen-T/F 1201 26-08-2008 00:20:02 14.7 C 81 % 11.48 C
1202 26-08-2008 00:32:03 14.5 C 81 % 11.28 C
1203 26-08-2008 00:44:03 14.4 C 82 % 11.37 C
1204 26-08-2008 00:56:03 14.3 C 82 % 11.27 C
1205 26-08-2008 01:08:03 14.2 C 82 % 11.17 C
1206 26-08-2008 01:20:03 14.1 C 82 % 11.08 C
1207 26-08-2008 01:32:03 13.9 C 83 % 11.06 C
1208 26-08-2008 01:44:03 13.8 C 83 % 10.97 C
1209 26-08-2008 01:56:03 13.7 C 83 % 10.87 C
1210 26-08-2008 02:08:03 13.6 C 83 % 10.77 C
1211 26-08-2008 02:20:03 13.8 C 84 % 11.15 C
1212 26-08-2008 02:32:03 13.9 C 84 % 11.24 C
1213 26-08-2008 02:44:03 14.1 C 83 % 11.26 C
1214 26-08-2008 02:56:03 14.2 C 82 % 11.17 C
1215 26-08-2008 03:08:03 14.2 C 82 % 11.17 C
1216 26-08-2008 03:20:03 14.2 C 82 % 11.17 C
1217 26-08-2008 03:32:03 14 C 81 % 10.79 C
1218 26-08-2008 03:44:03 14 C 81 % 10.79 C
1219 26-08-2008 03:56:03 14 C 81 % 10.79 C
1220 26-08-2008 04:08:03 14.1 C 82 % 11.08 C
1221 26-08-2008 04:20:03 14.1 C 81 % 10.89 C
1222 26-08-2008 04:32:04 14.1 C 82 % 11.08 C
1223 26-08-2008 04:44:04 14.3 C 82 % 11.27 C
1224 26-08-2008 04:56:04 14.4 C 81 % 11.18 C
1225 26-08-2008 05:08:04 14.5 C 81 % 11.28 C
Sensor: Nr:Datum:Temp:Feuchte:Taupunkt:
Aussen-T/F 1226 26-08-2008 05:20:04 14.6 C 81 % 11.38 C
1227 26-08-2008 05:32:04 14.6 C 80 % 11.19 C
1228 26-08-2008 05:44:04 14.6 C 81 % 11.38 C
1229 26-08-2008 05:56:04 14.7 C 79 % 11.1 C
1230 26-08-2008 06:08:04 14.7 C 79 % 11.1 C
1231 26-08-2008 06:20:04 14.7 C 78 % 10.91 C
1232 26-08-2008 06:32:04 15 C 77 % 11 C
1233 26-08-2008 06:44:04 14.7 C 78 % 10.91 C
1234 26-08-2008 06:56:02 14.8 C 77 % 10.81 C
1235 26-08-2008 07:08:02 14.9 C 77 % 10.91 C
1236 26-08-2008 07:20:02 15 C 75 % 10.61 C
1237 26-08-2008 07:32:02 15.2 C 75 % 10.8 C
1238 26-08-2008 07:44:02 15.3 C 75 % 10.9 C
1239 26-08-2008 07:56:01 15.4 C 74 % 10.79 C
1240 26-08-2008 08:08:02 15.6 C 74 % 10.99 C
1241 26-08-2008 08:20:01 15.6 C 73 % 10.78 C
1242 26-08-2008 08:32:02 15.8 C 73 % 10.97 C
1243 26-08-2008 08:44:02 15.9 C 72 % 10.86 C
1244 26-08-2008 08:56:02 16.2 C 71 % 10.94 C
1245 26-08-2008 09:08:02 16.4 C 70 % 10.92 C
1246 26-08-2008 09:20:02 16.7 C 68 % 10.77 C
1247 26-08-2008 09:32:01 16.8 C 68 % 10.87 C
1248 26-08-2008 09:44:01 17 C 66 % 10.61 C
1249 26-08-2008 09:56:01 17.2 C 65 % 10.57 C
1250 26-08-2008 10:08:02 17.5 C 64 % 10.62 C
Sensor: Nr:Datum:Temp:Feuchte:Taupunkt:
Aussen-T/F 1251 26-08-2008 10:20:02 17.7 C 64 % 10.81 C
1252 26-08-2008 10:32:02 18.2 C 61 % 10.56 C
1253 26-08-2008 10:44:02 18.6 C 59 % 10.44 C
1254 26-08-2008 10:56:01 19.1 C 58 % 10.65 C
1255 26-08-2008 11:08:02 19.7 C 56 % 10.68 C
1256 26-08-2008 11:20:01 20.1 C 53 % 10.23 C
1257 26-08-2008 11:32:02 20.6 C 52 % 10.41 C
1258 26-08-2008 11:44:02 21 C 49 % 9.89 C
1259 26-08-2008 11:56:02 21.4 C 49 % 10.25 C
1260 26-08-2008 12:08:02 22.2 C 46 % 10.04 C
1261 26-08-2008 12:20:02 22.5 C 44 % 9.65 C
1262 26-08-2008 12:32:02 22.9 C 43 % 9.67 C
1263 26-08-2008 12:44:02 22.9 C 43 % 9.67 C
1264 26-08-2008 12:56:02 22.9 C 44 % 10.01 C
1265 26-08-2008 13:08:02 22.7 C 45 % 10.16 C
1266 26-08-2008 13:20:01 23.1 C 45 % 10.53 C
1267 26-08-2008 13:32:02 23.6 C 43 % 10.3 C
1268 26-08-2008 13:44:02 24.3 C 40 % 9.84 C
1269 26-08-2008 13:56:02 23.9 C 42 % 10.21 C
1270 26-08-2008 14:08:02 23.4 C 42 % 9.77 C
1271 26-08-2008 14:20:02 23.8 C 41 % 9.76 C
1272 26-08-2008 14:32:02 23.6 C 42 % 9.94 C
1273 26-08-2008 14:44:02 23.6 C 43 % 10.3 C
1274 26-08-2008 14:56:02 24.5 C 40 % 10.02 C
1275 26-08-2008 15:08:02 24.8 C 39 % 9.91 C
Sensor: Nr:Datum:Temp:Feuchte:Taupunkt:
Aussen-T/F 1276 26-08-2008 15:20:02 24.6 C 39 % 9.73 C
1277 26-08-2008 15:32:02 24.9 C 39 % 10 C
1278 26-08-2008 15:44:02 24.6 C 39 % 9.73 C
1279 26-08-2008 15:56:02 25.2 C 37 % 9.48 C
1280 26-08-2008 16:08:02 25.4 C 37 % 9.66 C
1281 26-08-2008 16:20:02 25.9 C 36 % 9.69 C
1282 26-08-2008 16:32:02 25.7 C 36 % 9.52 C
1283 26-08-2008 16:44:02 26 C 36 % 9.78 C
1284 26-08-2008 16:56:02 25.9 C 36 % 9.69 C
1285 26-08-2008 17:08:02 26 C 34 % 8.93 C
1286 26-08-2008 17:20:01 26.3 C 34 % 9.19 C
1287 26-08-2008 17:32:02 25.8 C 36 % 9.61 C
1288 26-08-2008 17:44:02 27.3 C 33 % 9.62 C
1289 26-08-2008 17:56:02 26.4 C 34 % 9.28 C
1290 26-08-2008 18:08:02 26.8 C 35 % 10.06 C
1291 26-08-2008 18:20:02 25.8 C 37 % 10.01 C
1292 26-08-2008 18:32:02 26 C 36 % 9.78 C
1293 26-08-2008 18:44:02 25.7 C 37 % 9.92 C
1294 26-08-2008 18:56:02 24.9 C 40 % 10.38 C
1295 26-08-2008 19:08:02 24.6 C 41 % 10.48 C
1296 26-08-2008 19:20:02 24.3 C 43 % 10.93 C
1297 26-08-2008 19:32:02 23.8 C 45 % 11.16 C
1298 26-08-2008 19:44:02 23.8 C 45 % 11.16 C
1299 26-08-2008 19:56:03 23.7 C 45 % 11.07 C
1300 26-08-2008 20:08:02 23.2 C 46 % 10.95 C
Sensor: Nr:Datum:Temp:Feuchte:Taupunkt:
Aussen-T/F 1301 26-08-2008 20:20:02 22.6 C 49 % 11.35 C
1302 26-08-2008 20:32:02 22 C 51 % 11.4 C
1303 26-08-2008 20:44:02 21.4 C 55 % 11.99 C
1304 26-08-2008 20:56:02 21 C 56 % 11.89 C
1305 26-08-2008 21:08:02 20.8 C 57 % 11.97 C
1306 26-08-2008 21:20:02 20.7 C 58 % 12.15 C
1307 26-08-2008 21:32:02 20.6 C 59 % 12.31 C
1308 26-08-2008 21:44:02 20.3 C 60 % 12.29 C
1309 26-08-2008 21:57:03 19.9 C 62 % 12.41 C
1310 26-08-2008 22:09:03 19.4 C 64 % 12.42 C
1311 26-08-2008 22:21:03 18.9 C 68 % 12.87 C
1312 26-08-2008 22:33:03 18.8 C 69 % 13 C
1313 26-08-2008 22:45:03 18.6 C 70 % 13.02 C
1314 26-08-2008 22:57:03 18.4 C 70 % 12.83 C
1315 26-08-2008 23:09:03 18.2 C 71 % 12.86 C
1316 26-08-2008 23:21:03 17.8 C 73 % 12.9 C
1317 26-08-2008 23:33:03 17.7 C 74 % 13.01 C
1318 26-08-2008 23:45:03 17.6 C 76 % 13.32 C
1319 26-08-2008 23:57:03 17.4 C 76 % 13.13 C
1320 27-08-2008 00:09:03 17.2 C 77 % 13.14 C
1321 27-08-2008 00:21:03 17 C 78 % 13.14 C
1322 27-08-2008 00:33:03 16.8 C 79 % 13.14 C
1323 27-08-2008 00:45:03 16.5 C 80 % 13.04 C
1324 27-08-2008 00:57:04 16.5 C 80 % 13.04 C
1325 27-08-2008 01:09:04 16.2 C 81 % 12.94 C
Sensor: Nr:Datum:Temp:Feuchte:Taupunkt:
Aussen-T/F 1326 27-08-2008 01:21:04 16.1 C 81 % 12.84 C
1327 27-08-2008 01:33:04 16 C 82 % 12.93 C
1328 27-08-2008 01:45:04 16.1 C 82 % 13.03 C
1329 27-08-2008 01:57:04 15.9 C 83 % 13.02 C
1330 27-08-2008 02:09:04 15.8 C 83 % 12.92 C
1331 27-08-2008 02:21:04 15.6 C 83 % 12.72 C
1332 27-08-2008 02:33:04 15.6 C 84 % 12.91 C
1333 27-08-2008 02:45:04 15.7 C 84 % 13.01 C
1334 27-08-2008 02:57:04 15.7 C 84 % 13.01 C
1335 27-08-2008 03:09:04 15.8 C 83 % 12.92 C
1336 27-08-2008 03:21:04 15.8 C 83 % 12.92 C
1337 27-08-2008 03:33:04 15.8 C 83 % 12.92 C
1338 27-08-2008 03:45:04 15.7 C 83 % 12.82 C
1339 27-08-2008 03:57:04 15.6 C 83 % 12.72 C
1340 27-08-2008 04:09:04 15.6 C 83 % 12.72 C
1341 27-08-2008 04:21:04 15.5 C 83 % 12.63 C
1342 27-08-2008 04:33:04 15.4 C 83 % 12.53 C
1343 27-08-2008 04:45:04 15.3 C 83 % 12.43 C
1344 27-08-2008 04:57:04 15 C 83 % 12.14 C
1345 27-08-2008 05:09:05 14.7 C 85 % 12.21 C
1346 27-08-2008 05:21:05 14.5 C 86 % 12.19 C
1347 27-08-2008 05:33:05 14.3 C 86 % 11.99 C
1348 27-08-2008 05:45:05 14.2 C 87 % 12.07 C
1349 27-08-2008 05:57:05 14 C 87 % 11.87 C
1350 27-08-2008 06:09:05 14 C 88 % 12.05 C
Sensor: Nr:Datum:Temp:Feuchte:Taupunkt:
Aussen-T/F 1351 27-08-2008 06:21:05 14.2 C 89 % 12.41 C
1352 27-08-2008 06:33:05 14.2 C 88 % 12.24 C
1353 27-08-2008 06:45:05 14.2 C 88 % 12.24 C
1354 27-08-2008 06:57:05 14.2 C 88 % 12.24 C
1355 27-08-2008 07:09:02 14.2 C 88 % 12.24 C
1356 27-08-2008 07:21:02 14.3 C 88 % 12.34 C
1357 27-08-2008 07:33:02 14.4 C 88 % 12.44 C
1358 27-08-2008 07:45:03 14.5 C 87 % 12.36 C
1359 27-08-2008 07:57:03 14.7 C 86 % 12.38 C
1360 27-08-2008 08:09:02 14.8 C 85 % 12.3 C
1361 27-08-2008 08:21:03 14.8 C 84 % 12.12 C
1362 27-08-2008 08:33:02 14.7 C 83 % 11.85 C
1363 27-08-2008 08:45:02 15 C 83 % 12.14 C
1364 27-08-2008 08:57:02 15.1 C 81 % 11.87 C
1365 27-08-2008 09:09:02 15.5 C 81 % 12.26 C
1366 27-08-2008 09:21:03 15.8 C 79 % 12.17 C
1367 27-08-2008 09:33:03 16.3 C 78 % 12.46 C
1368 27-08-2008 09:45:02 16.8 C 76 % 12.55 C
1369 27-08-2008 09:57:02 17.1 C 73 % 12.23 C
1370 27-08-2008 10:09:01 17.3 C 73 % 12.42 C
1371 27-08-2008 10:21:02 17.7 C 72 % 12.59 C
1372 27-08-2008 10:33:02 18 C 70 % 12.45 C
1373 27-08-2008 10:45:02 18.3 C 70 % 12.74 C
1374 27-08-2008 10:57:02 19.3 C 64 % 12.32 C
1375 27-08-2008 11:09:01 19.9 C 58 % 11.4 C
Sensor: Nr:Datum:Temp:Feuchte:Taupunkt:
Aussen-T/F 1376 27-08-2008 11:21:02 20.3 C 56 % 11.24 C
1377 27-08-2008 11:33:01 20.7 C 53 % 10.78 C
1378 27-08-2008 11:45:02 21 C 51 % 10.48 C
1379 27-08-2008 11:57:02 21 C 52 % 10.78 C
1380 27-08-2008 12:09:01 21.5 C 50 % 10.65 C
1381 27-08-2008 12:21:02 21.5 C 50 % 10.65 C
1382 27-08-2008 12:33:01 21.9 C 49 % 10.71 C
1383 27-08-2008 12:45:01 22 C 48 % 10.49 C
1384 27-08-2008 12:57:01 22.3 C 47 % 10.45 C
1385 27-08-2008 13:09:01 22.7 C 47 % 10.81 C
1386 27-08-2008 13:21:01 23.1 C 44 % 10.19 C
1387 27-08-2008 13:33:01 23.7 C 44 % 10.73 C
1388 27-08-2008 13:45:01 23.6 C 44 % 10.64 C
1389 27-08-2008 13:57:01 24 C 41 % 9.94 C
1390 27-08-2008 14:09:02 24.6 C 40 % 10.11 C
1391 27-08-2008 14:21:01 24.6 C 39 % 9.73 C
1392 27-08-2008 14:33:02 25.6 C 39 % 10.62 C
1393 27-08-2008 14:45:02 25.8 C 37 % 10.01 C
1394 27-08-2008 14:57:02 26.3 C 35 % 9.63 C
1395 27-08-2008 15:09:02 26.5 C 35 % 9.8 C
1396 27-08-2008 15:21:02 26.6 C 35 % 9.89 C
1397 27-08-2008 15:33:02 27 C 33 % 9.36 C
1398 27-08-2008 15:45:02 27.4 C 34 % 10.16 C
1399 27-08-2008 15:57:02 28.1 C 32 % 9.86 C
1400 27-08-2008 16:09:03 28.5 C 31 % 9.73 C
Sensor: Nr:Datum:Temp:Feuchte:Taupunkt:
Aussen-T/F 1401 27-08-2008 16:21:02 28.9 C 31 % 10.08 C
1402 27-08-2008 16:33:03 29 C 30 % 9.68 C
1403 27-08-2008 16:45:02 29 C 29 % 9.17 C
1404 27-08-2008 16:57:02 28.8 C 30 % 9.51 C
1405 27-08-2008 17:09:01 28.5 C 31 % 9.73 C
1406 27-08-2008 17:21:02 27.8 C 31 % 9.13 C
1407 27-08-2008 17:33:02 27.3 C 33 % 9.62 C
1408 27-08-2008 17:45:02 26.8 C 36 % 10.49 C
1409 27-08-2008 17:57:02 26.6 C 37 % 10.72 C
1410 27-08-2008 18:09:01 26.7 C 35 % 9.98 C
1411 27-08-2008 18:21:02 26.4 C 37 % 10.54 C
1412 27-08-2008 18:33:01 26.5 C 37 % 10.63 C
1413 27-08-2008 18:45:03 25.9 C 39 % 10.89 C
1414 27-08-2008 18:57:03 25 C 41 % 10.84 C
1415 27-08-2008 19:09:02 24.3 C 43 % 10.93 C
1416 27-08-2008 19:21:03 23.5 C 46 % 11.22 C
1417 27-08-2008 19:33:02 23.3 C 46 % 11.04 C
1418 27-08-2008 19:45:02 23 C 47 % 11.09 C
1419 27-08-2008 19:57:02 22.7 C 49 % 11.44 C
1420 27-08-2008 20:09:02 22 C 50 % 11.11 C
1421 27-08-2008 20:21:02 21.8 C 51 % 11.22 C
1422 27-08-2008 20:33:02 21.6 C 51 % 11.04 C
1423 27-08-2008 20:45:01 21.3 C 52 % 11.05 C
1424 27-08-2008 20:57:01 21.1 C 52 % 10.87 C
1425 27-08-2008 21:09:01 20.9 C 53 % 10.97 C
Sensor: Nr:Datum:Temp:Feuchte:Taupunkt:
Aussen-T/F 1426 27-08-2008 21:21:01 20.8 C 53 % 10.88 C
1427 27-08-2008 21:33:01 20.8 C 53 % 10.88 C
1428 27-08-2008 21:45:01 20.2 C 53 % 10.32 C
1429 27-08-2008 21:57:01 20.1 C 53 % 10.23 C
1430 27-08-2008 22:09:02 20.1 C 53 % 10.23 C
1431 27-08-2008 22:21:01 20.2 C 53 % 10.32 C
1432 27-08-2008 22:33:02 20 C 53 % 10.14 C
1433 27-08-2008 22:46:02 19.7 C 55 % 10.41 C
1434 27-08-2008 22:58:02 19.7 C 56 % 10.68 C
1435 27-08-2008 23:10:02 19.8 C 57 % 11.04 C
1436 27-08-2008 23:22:02 19.6 C 56 % 10.59 C
1437 27-08-2008 23:34:02 19.7 C 57 % 10.95 C
1438 27-08-2008 23:46:02 19.5 C 57 % 10.76 C
1439 27-08-2008 23:58:02 19.4 C 57 % 10.67 C
1440 28-08-2008 00:10:02 19.4 C 58 % 10.93 C
1441 28-08-2008 00:22:02 19.4 C 58 % 10.93 C
1442 28-08-2008 00:34:02 19.2 C 58 % 10.74 C
1443 28-08-2008 00:46:02 19.1 C 59 % 10.91 C
1444 28-08-2008 00:58:02 19.1 C 59 % 10.91 C
1445 28-08-2008 01:10:02 19 C 59 % 10.81 C
1446 28-08-2008 01:22:02 19.1 C 60 % 11.16 C
1447 28-08-2008 01:34:02 19 C 59 % 10.81 C
1448 28-08-2008 01:46:02 19 C 60 % 11.07 C
1449 28-08-2008 01:58:02 18.9 C 61 % 11.22 C
1450 28-08-2008 02:10:02 18.8 C 61 % 11.13 C
Sensor: Nr:Datum:Temp:Feuchte:Taupunkt:
Aussen-T/F 1451 28-08-2008 02:22:02 18.9 C 62 % 11.47 C
1452 28-08-2008 02:34:03 18.9 C 62 % 11.47 C
1453 28-08-2008 02:46:03 18.7 C 63 % 11.52 C
1454 28-08-2008 02:58:03 18.6 C 63 % 11.42 C
1455 28-08-2008 03:10:03 18.6 C 63 % 11.42 C
1456 28-08-2008 03:22:03 18.6 C 63 % 11.42 C
1457 28-08-2008 03:34:03 18.5 C 64 % 11.57 C
1458 28-08-2008 03:46:03 18.5 C 64 % 11.57 C
1459 28-08-2008 03:58:03 18.5 C 64 % 11.57 C
1460 28-08-2008 04:10:03 18.4 C 65 % 11.71 C
1461 28-08-2008 04:22:03 18.4 C 65 % 11.71 C
1462 28-08-2008 04:34:03 18.4 C 65 % 11.71 C
1463 28-08-2008 04:46:03 18.3 C 65 % 11.61 C
1464 28-08-2008 04:58:03 18.3 C 66 % 11.84 C
1465 28-08-2008 05:10:03 18.2 C 65 % 11.52 C
1466 28-08-2008 05:22:03 18.2 C 66 % 11.75 C
1467 28-08-2008 05:34:03 18.2 C 66 % 11.75 C
1468 28-08-2008 05:46:03 18.1 C 65 % 11.42 C
1469 28-08-2008 05:58:03 18 C 66 % 11.56 C
1470 28-08-2008 06:10:03 18 C 66 % 11.56 C
1471 28-08-2008 06:22:04 17.9 C 67 % 11.69 C
1472 28-08-2008 06:34:04 17.9 C 67 % 11.69 C
1473 28-08-2008 06:46:04 17.9 C 68 % 11.91 C
1474 28-08-2008 06:58:04 17.8 C 68 % 11.82 C
1475 28-08-2008 07:10:02 17.8 C 68 % 11.82 C
Sensor: Nr:Datum:Temp:Feuchte:Taupunkt:
Aussen-T/F 1476 28-08-2008 07:22:02 17.8 C 68 % 11.82 C
1477 28-08-2008 07:34:03 17.8 C 68 % 11.82 C
1478 28-08-2008 07:46:02 17.9 C 69 % 12.14 C
1479 28-08-2008 07:58:02 18.1 C 68 % 12.11 C
1480 28-08-2008 08:10:02 18.1 C 68 % 12.11 C
1481 28-08-2008 08:22:02 18.1 C 69 % 12.33 C
1482 28-08-2008 08:34:02 18.5 C 69 % 12.71 C
1483 28-08-2008 08:46:02 18.6 C 67 % 12.36 C
1484 28-08-2008 08:58:02 18.7 C 67 % 12.45 C
1485 28-08-2008 09:10:03 18.9 C 66 % 12.41 C
1486 28-08-2008 09:22:02 19.1 C 62 % 11.65 C
1487 28-08-2008 09:34:02 19.2 C 61 % 11.5 C
1488 28-08-2008 09:46:02 19.3 C 59 % 11.09 C
1489 28-08-2008 09:58:02 19.3 C 60 % 11.35 C
1490 28-08-2008 10:10:02 19.4 C 59 % 11.19 C
1491 28-08-2008 10:22:02 19.6 C 58 % 11.12 C
1492 28-08-2008 10:34:02 19.9 C 55 % 10.6 C
1493 28-08-2008 10:46:02 20.2 C 51 % 9.75 C
1494 28-08-2008 10:58:02 20.5 C 51 % 10.02 C
1495 28-08-2008 11:10:02 21 C 46 % 8.95 C
1496 28-08-2008 11:22:02 21.5 C 44 % 8.74 C
1497 28-08-2008 11:34:02 21.7 C 43 % 8.58 C
1498 28-08-2008 11:46:02 22.1 C 40 % 7.88 C
1499 28-08-2008 11:58:02 22.7 C 39 % 8.04 C
1500 28-08-2008 12:10:02 23 C 37 % 7.54 C
Sensor: Nr:Datum:Temp:Feuchte:Taupunkt:
Aussen-T/F 1501 28-08-2008 12:22:02 22.9 C 37 % 7.45 C
1502 28-08-2008 12:34:02 23.1 C 36 % 7.23 C
1503 28-08-2008 12:46:02 23.3 C 35 % 6.99 C
1504 28-08-2008 12:58:02 23.5 C 35 % 7.17 C
1505 28-08-2008 13:10:02 23.6 C 35 % 7.25 C
1506 28-08-2008 13:22:02 23.9 C 35 % 7.52 C
1507 28-08-2008 13:34:02 23.2 C 35 % 6.9 C
1508 28-08-2008 13:46:02 23.1 C 37 % 7.63 C
1509 28-08-2008 13:58:02 23.3 C 36 % 7.4 C
1510 28-08-2008 14:10:02 23 C 37 % 7.54 C
1511 28-08-2008 14:22:02 23.3 C 37 % 7.8 C
1512 28-08-2008 14:34:02 23.7 C 36 % 7.75 C
1513 28-08-2008 14:46:02 23.1 C 38 % 8.02 C
1514 28-08-2008 14:58:02 23.6 C 37 % 8.07 C
1515 28-08-2008 15:10:02 23.7 C 36 % 7.75 C
1516 28-08-2008 15:22:02 24.4 C 35 % 7.96 C
1517 28-08-2008 15:34:02 24.2 C 34 % 7.36 C
1518 28-08-2008 15:46:01 23.6 C 37 % 8.07 C
1519 28-08-2008 15:58:01 23.2 C 37 % 7.71 C
1520 28-08-2008 16:10:02 22.6 C 40 % 8.33 C
1521 28-08-2008 16:22:02 23 C 40 % 8.68 C
1522 28-08-2008 16:34:02 23.1 C 38 % 8.02 C
1523 28-08-2008 16:46:02 23.3 C 39 % 8.58 C
1524 28-08-2008 16:58:02 23.4 C 37 % 7.89 C
1525 28-08-2008 17:10:02 22.8 C 40 % 8.5 C
Sensor: Nr:Datum:Temp:Feuchte:Taupunkt:
Aussen-T/F 1526 28-08-2008 17:22:02 22.9 C 40 % 8.59 C
1527 28-08-2008 17:34:02 22.6 C 40 % 8.33 C
1528 28-08-2008 17:46:02 22 C 41 % 8.15 C
1529 28-08-2008 17:58:02 22 C 41 % 8.15 C
1530 28-08-2008 18:10:03 21.8 C 43 % 8.67 C
1531 28-08-2008 18:22:02 22 C 42 % 8.51 C
1532 28-08-2008 18:34:02 22 C 42 % 8.51 C
1533 28-08-2008 18:46:02 21.7 C 43 % 8.58 C
1534 28-08-2008 18:58:02 21.7 C 43 % 8.58 C
1535 28-08-2008 19:10:02 21.6 C 44 % 8.83 C
1536 28-08-2008 19:22:02 21.6 C 46 % 9.49 C
1537 28-08-2008 19:34:02 21.5 C 45 % 9.08 C
1538 28-08-2008 19:46:03 21.3 C 46 % 9.22 C
1539 28-08-2008 19:58:03 21.1 C 48 % 9.67 C
1540 28-08-2008 20:10:02 20.8 C 51 % 10.3 C
1541 28-08-2008 20:22:03 20.6 C 51 % 10.12 C
1542 28-08-2008 20:34:02 20.4 C 53 % 10.51 C
1543 28-08-2008 20:46:03 20.3 C 52 % 10.13 C
1544 28-08-2008 20:58:03 20.2 C 52 % 10.04 C
1545 28-08-2008 21:10:02 20.1 C 52 % 9.94 C
1546 28-08-2008 21:22:02 20 C 53 % 10.14 C
1547 28-08-2008 21:34:02 20 C 54 % 10.42 C
1548 28-08-2008 21:46:02 19.8 C 56 % 10.78 C
1549 28-08-2008 21:58:02 19.6 C 58 % 11.12 C
1550 28-08-2008 22:10:03 19.5 C 59 % 11.28 C
Sensor: Nr:Datum:Temp:Feuchte:Taupunkt:
Aussen-T/F 1551 28-08-2008 22:22:02 19.4 C 58 % 10.93 C
1552 28-08-2008 22:35:02 19.4 C 58 % 10.93 C
1553 28-08-2008 22:47:02 19.3 C 59 % 11.09 C
1554 28-08-2008 22:59:02 19.1 C 59 % 10.91 C
1555 28-08-2008 23:11:02 19.1 C 60 % 11.16 C
1556 28-08-2008 23:23:02 19.2 C 60 % 11.25 C
1557 28-08-2008 23:35:02 19.2 C 60 % 11.25 C
1558 28-08-2008 23:47:02 19.1 C 60 % 11.16 C
1559 28-08-2008 23:59:02 19.1 C 61 % 11.41 C
1560 29-08-2008 00:11:02 19 C 61 % 11.31 C
1561 29-08-2008 00:23:02 18.9 C 62 % 11.47 C
1562 29-08-2008 00:35:02 18.9 C 62 % 11.47 C
1563 29-08-2008 00:47:02 18.9 C 62 % 11.47 C
1564 29-08-2008 00:59:02 18.8 C 62 % 11.37 C
1565 29-08-2008 01:11:02 18.8 C 62 % 11.37 C
1566 29-08-2008 01:23:02 18.8 C 62 % 11.37 C
1567 29-08-2008 01:35:02 18.7 C 62 % 11.28 C
1568 29-08-2008 01:47:02 18.7 C 61 % 11.03 C
1569 29-08-2008 01:59:02 18.6 C 61 % 10.94 C
1570 29-08-2008 02:11:03 18.6 C 61 % 10.94 C
1571 29-08-2008 02:23:03 18.5 C 61 % 10.84 C
1572 29-08-2008 02:35:03 18.5 C 62 % 11.09 C
1573 29-08-2008 02:47:03 18.5 C 60 % 10.6 C
1574 29-08-2008 02:59:03 18.4 C 61 % 10.75 C
1575 29-08-2008 03:11:03 18.4 C 63 % 11.23 C
Sensor: Nr:Datum:Temp:Feuchte:Taupunkt:
Aussen-T/F 1576 29-08-2008 03:23:03 18.3 C 62 % 10.9 C
1577 29-08-2008 03:35:03 18.2 C 62 % 10.81 C
1578 29-08-2008 03:47:03 18.2 C 62 % 10.81 C
1579 29-08-2008 03:59:03 18.1 C 62 % 10.71 C
1580 29-08-2008 04:11:03 18.1 C 61 % 10.47 C
1581 29-08-2008 04:23:03 18.1 C 62 % 10.71 C
1582 29-08-2008 04:35:03 18.1 C 61 % 10.47 C
1583 29-08-2008 04:47:03 18.1 C 61 % 10.47 C
1584 29-08-2008 04:59:03 18.1 C 61 % 10.47 C
1585 29-08-2008 05:11:03 18 C 60 % 10.13 C
1586 29-08-2008 05:23:03 18 C 60 % 10.13 C
1587 29-08-2008 05:35:03 17.9 C 61 % 10.28 C
1588 29-08-2008 05:47:03 17.9 C 62 % 10.52 C
1589 29-08-2008 05:59:04 17.9 C 61 % 10.28 C
1590 29-08-2008 06:11:04 17.8 C 62 % 10.43 C
1591 29-08-2008 06:23:04 17.8 C 62 % 10.43 C
1592 29-08-2008 06:35:04 17.8 C 62 % 10.43 C
1593 29-08-2008 06:47:04 17.8 C 62 % 10.43 C
1594 29-08-2008 06:59:04 17.8 C 62 % 10.43 C
1595 29-08-2008 07:11:04 17.8 C 63 % 10.67 C
1596 29-08-2008 07:23:04 17.8 C 63 % 10.67 C
1597 29-08-2008 07:35:04 17.8 C 63 % 10.67 C
1598 29-08-2008 07:47:04 17.9 C 63 % 10.76 C
1599 29-08-2008 07:59:04 17.9 C 62 % 10.52 C
1600 29-08-2008 08:11:04 17.9 C 62 % 10.52 C
Sensor: Nr:Datum:Temp:Feuchte:Taupunkt:
Aussen-T/F 1601 29-08-2008 08:23:02 18.1 C 61 % 10.47 C
1602 29-08-2008 08:35:02 18.1 C 61 % 10.47 C
1603 29-08-2008 08:47:01 18.1 C 62 % 10.71 C
1604 29-08-2008 08:59:01 18.2 C 63 % 11.05 C
1605 29-08-2008 09:11:02 18.3 C 63 % 11.14 C
1606 29-08-2008 09:23:02 18.4 C 63 % 11.23 C
1607 29-08-2008 09:35:02 18.5 C 63 % 11.33 C
1608 29-08-2008 09:47:02 18.6 C 60 % 10.69 C
1609 29-08-2008 09:59:02 18.9 C 60 % 10.97 C
1610 29-08-2008 10:11:03 19.3 C 57 % 10.58 C
1611 29-08-2008 10:23:02 19.6 C 56 % 10.59 C
1612 29-08-2008 10:35:03 19.8 C 55 % 10.51 C
1613 29-08-2008 10:47:02 20.4 C 53 % 10.51 C
1614 29-08-2008 10:59:02 20.5 C 52 % 10.31 C
1615 29-08-2008 11:11:01 20.7 C 52 % 10.5 C
1616 29-08-2008 11:23:02 20.4 C 53 % 10.51 C
1617 29-08-2008 11:35:02 20.5 C 52 % 10.31 C
1618 29-08-2008 11:47:02 20.8 C 52 % 10.59 C
1619 29-08-2008 11:59:02 21.3 C 51 % 10.76 C
1620 29-08-2008 12:11:01 21 C 51 % 10.48 C
1621 29-08-2008 12:23:02 21.1 C 51 % 10.58 C
1622 29-08-2008 12:35:01 21.5 C 51 % 10.94 C
1623 29-08-2008 12:47:02 21.8 C 50 % 10.92 C
1624 29-08-2008 12:59:02 22.3 C 46 % 10.13 C
1625 29-08-2008 13:11:01 23.1 C 44 % 10.19 C
Sensor: Nr:Datum:Temp:Feuchte:Taupunkt:
Aussen-T/F 1626 29-08-2008 13:23:02 23.2 C 43 % 9.94 C
1627 29-08-2008 13:35:01 23.3 C 42 % 9.68 C
1628 29-08-2008 13:47:01 23.8 C 40 % 9.4 C
1629 29-08-2008 13:59:01 23.4 C 42 % 9.77 C
1630 29-08-2008 14:11:01 23.7 C 42 % 10.03 C
1631 29-08-2008 14:23:01 24.5 C 40 % 10.02 C
1632 29-08-2008 14:35:01 23.9 C 41 % 9.85 C
1633 29-08-2008 14:47:01 24.1 C 41 % 10.03 C
1634 29-08-2008 14:59:01 24.5 C 40 % 10.02 C
1635 29-08-2008 15:11:02 24.1 C 39 % 9.29 C
1636 29-08-2008 15:23:01 24.1 C 40 % 9.67 C
1637 29-08-2008 15:35:02 24.6 C 39 % 9.73 C
1638 29-08-2008 15:47:02 25.3 C 36 % 9.16 C
1639 29-08-2008 15:59:02 25.7 C 36 % 9.52 C
1640 29-08-2008 16:11:02 25.7 C 35 % 9.1 C
1641 29-08-2008 16:23:02 25.7 C 36 % 9.52 C
1642 29-08-2008 16:35:02 25 C 37 % 9.31 C
1643 29-08-2008 16:47:01 24.7 C 40 % 10.2 C
1644 29-08-2008 16:59:01 25.4 C 38 % 10.06 C
1645 29-08-2008 17:11:01 26.1 C 34 % 9.02 C
1646 29-08-2008 17:23:01 26 C 35 % 9.36 C
1647 29-08-2008 17:35:01 27.4 C 32 % 9.25 C
1648 29-08-2008 17:47:03 28.5 C 32 % 10.21 C
1649 29-08-2008 17:59:03 28.1 C 32 % 9.86 C
1650 29-08-2008 18:11:02 27.9 C 32 % 9.69 C
Sensor: Nr:Datum:Temp:Feuchte:Taupunkt:
Aussen-T/F 1651 29-08-2008 18:23:03 27.3 C 33 % 9.62 C
1652 29-08-2008 18:35:02 27.6 C 33 % 9.89 C
1653 29-08-2008 18:47:02 28 C 32 % 9.77 C
1654 29-08-2008 18:59:02 27.9 C 31 % 9.22 C
1655 29-08-2008 19:11:03 26.7 C 32 % 8.65 C
1656 29-08-2008 19:23:02 25.1 C 37 % 9.39 C
1657 29-08-2008 19:35:03 24.9 C 40 % 10.38 C
1658 29-08-2008 19:47:02 24.5 C 43 % 11.11 C
1659 29-08-2008 19:59:03 23.7 C 45 % 11.07 C
1660 29-08-2008 20:11:01 23.1 C 47 % 11.18 C
1661 29-08-2008 20:23:02 22.3 C 51 % 11.68 C
1662 29-08-2008 20:35:01 21.4 C 53 % 11.43 C
1663 29-08-2008 20:47:02 20.7 C 56 % 11.61 C
1664 29-08-2008 20:59:02 20.1 C 58 % 11.58 C
1665 29-08-2008 21:11:01 19.8 C 61 % 12.07 C
1666 29-08-2008 21:23:02 19.5 C 62 % 12.03 C
1667 29-08-2008 21:35:01 19.3 C 63 % 12.09 C
1668 29-08-2008 21:47:02 19.3 C 63 % 12.09 C
1669 29-08-2008 21:59:02 19 C 64 % 12.04 C
1670 29-08-2008 22:11:01 18.9 C 66 % 12.41 C
1671 29-08-2008 22:24:01 18.8 C 67 % 12.55 C
1672 29-08-2008 22:36:01 18.6 C 68 % 12.58 C
1673 29-08-2008 22:48:01 18.5 C 68 % 12.49 C
1674 29-08-2008 23:00:01 18.3 C 69 % 12.52 C
1675 29-08-2008 23:12:01 18.1 C 70 % 12.55 C
Sensor: Nr:Datum:Temp:Feuchte:Taupunkt:
Aussen-T/F 1676 29-08-2008 23:24:01 17.9 C 72 % 12.78 C
1677 29-08-2008 23:36:02 17.7 C 73 % 12.8 C
1678 29-08-2008 23:48:02 17.4 C 74 % 12.72 C
1679 30-08-2008 00:00:02 17.2 C 74 % 12.53 C
1680 30-08-2008 00:12:02 17.1 C 75 % 12.64 C
1681 30-08-2008 00:24:02 16.9 C 76 % 12.65 C
1682 30-08-2008 00:36:02 16.8 C 77 % 12.75 C
1683 30-08-2008 00:48:02 16.6 C 77 % 12.55 C
1684 30-08-2008 01:00:02 16.4 C 78 % 12.56 C
1685 30-08-2008 01:12:02 16.3 C 78 % 12.46 C
1686 30-08-2008 01:24:02 16.2 C 79 % 12.56 C
1687 30-08-2008 01:36:02 16.1 C 79 % 12.46 C
1688 30-08-2008 01:48:02 15.9 C 80 % 12.46 C
1689 30-08-2008 02:00:02 15.8 C 80 % 12.36 C
1690 30-08-2008 02:12:02 15.6 C 80 % 12.16 C
1691 30-08-2008 02:24:02 15.5 C 81 % 12.26 C
1692 30-08-2008 02:36:02 15.4 C 81 % 12.16 C
1693 30-08-2008 02:48:02 15.4 C 81 % 12.16 C
1694 30-08-2008 03:00:02 15.2 C 81 % 11.96 C
1695 30-08-2008 03:12:02 15 C 81 % 11.77 C
1696 30-08-2008 03:24:03 14.9 C 82 % 11.86 C
1697 30-08-2008 03:36:03 14.7 C 83 % 11.85 C
1698 30-08-2008 03:48:03 14.7 C 83 % 11.85 C
1699 30-08-2008 04:00:03 14.7 C 83 % 11.85 C
1700 30-08-2008 04:12:03 14.4 C 83 % 11.55 C
Sensor: Nr:Datum:Temp:Feuchte:Taupunkt:
Aussen-T/F 1701 30-08-2008 04:24:03 14.4 C 83 % 11.55 C
1702 30-08-2008 04:36:03 14.3 C 83 % 11.45 C
1703 30-08-2008 04:48:03 14.4 C 83 % 11.55 C
1704 30-08-2008 05:00:03 14.5 C 84 % 11.83 C
1705 30-08-2008 05:12:03 14.5 C 84 % 11.83 C
1706 30-08-2008 05:24:03 14.5 C 84 % 11.83 C
1707 30-08-2008 05:36:03 14.5 C 84 % 11.83 C
1708 30-08-2008 05:48:03 14 C 85 % 11.52 C
1709 30-08-2008 06:00:03 14.5 C 85 % 12.01 C
1710 30-08-2008 06:12:03 14.4 C 85 % 11.91 C
1711 30-08-2008 06:24:03 14.3 C 86 % 11.99 C
1712 30-08-2008 06:36:03 14.3 C 87 % 12.17 C
1713 30-08-2008 06:48:03 14.4 C 88 % 12.44 C
1714 30-08-2008 07:00:03 14.6 C 88 % 12.64 C
1715 30-08-2008 07:12:04 14.6 C 87 % 12.46 C
1716 30-08-2008 07:24:04 14.8 C 88 % 12.83 C
1717 30-08-2008 07:36:04 14.9 C 87 % 12.76 C
1718 30-08-2008 07:48:04 15.1 C 86 % 12.78 C
1719 30-08-2008 08:00:04 15.2 C 85 % 12.7 C
1720 30-08-2008 08:12:02 15.4 C 84 % 12.71 C
1721 30-08-2008 08:24:01 15.5 C 83 % 12.63 C
1722 30-08-2008 08:36:02 15.7 C 83 % 12.82 C
1723 30-08-2008 08:48:02 15.8 C 82 % 12.74 C
1724 30-08-2008 09:00:02 15.8 C 82 % 12.74 C
1725 30-08-2008 09:12:02 16.1 C 81 % 12.84 C
Sensor: Nr:Datum:Temp:Feuchte:Taupunkt:
Aussen-T/F 1726 30-08-2008 09:24:02 16.4 C 80 % 12.94 C
1727 30-08-2008 09:36:02 16.8 C 79 % 13.14 C
1728 30-08-2008 09:48:02 17.1 C 77 % 13.04 C
1729 30-08-2008 10:00:02 17 C 78 % 13.14 C
1730 30-08-2008 10:12:02 17.4 C 79 % 13.72 C
1731 30-08-2008 10:24:02 17.9 C 77 % 13.81 C
1732 30-08-2008 10:36:02 18.5 C 74 % 13.78 C
1733 30-08-2008 10:48:02 19.1 C 72 % 13.94 C
1734 30-08-2008 11:00:02 19.6 C 70 % 13.98 C
1735 30-08-2008 11:12:01 20.2 C 64 % 13.18 C
1736 30-08-2008 11:24:02 20.7 C 62 % 13.16 C
1737 30-08-2008 11:36:02 21.2 C 59 % 12.87 C
1738 30-08-2008 11:48:02 21.8 C 57 % 12.91 C
1739 30-08-2008 12:00:02 22.4 C 55 % 12.92 C
1740 30-08-2008 12:12:01 22.9 C 52 % 12.53 C
1741 30-08-2008 12:24:02 23.5 C 51 % 12.78 C
1742 30-08-2008 12:36:01 23.8 C 49 % 12.45 C
1743 30-08-2008 12:48:02 24.1 C 46 % 11.76 C
1744 30-08-2008 13:00:02 24.5 C 44 % 11.45 C
1745 30-08-2008 13:12:02 25.1 C 43 % 11.65 C
1746 30-08-2008 13:24:02 25.6 C 42 % 11.74 C
1747 30-08-2008 13:36:03 26.1 C 39 % 11.07 C
1748 30-08-2008 13:48:02 26.3 C 39 % 11.25 C
1749 30-08-2008 14:00:02 26.9 C 37 % 10.99 C
1750 30-08-2008 14:12:02 27.7 C 36 % 11.28 C
Sensor: Nr:Datum:Temp:Feuchte:Taupunkt:
Aussen-T/F 1751 30-08-2008 14:24:02 28.4 C 34 % 11.03 C
1752 30-08-2008 14:36:02 28.9 C 32 % 10.55 C
1753 30-08-2008 14:48:02 29.3 C 30 % 9.94 C
1754 30-08-2008 15:00:02 29.6 C 30 % 10.19 C
1755 30-08-2008 15:12:02 30.3 C 29 % 10.29 C
1756 30-08-2008 15:24:01 30.4 C 28 % 9.85 C
1757 30-08-2008 15:36:02 30.4 C 27 % 9.31 C
1758 30-08-2008 15:48:02 30.7 C 26 % 9 C
1759 30-08-2008 16:00:02 31 C 26 % 9.26 C
1760 30-08-2008 16:12:02 31.2 C 25 % 8.84 C
1761 30-08-2008 16:24:02 31.2 C 24 % 8.24 C
1762 30-08-2008 16:36:02 31.6 C 23 % 7.95 C
1763 30-08-2008 16:48:02 31.9 C 22 % 7.55 C
1764 30-08-2008 17:00:02 31.4 C 22 % 7.13 C
1765 30-08-2008 17:12:02 31.7 C 22 % 7.38 C
1766 30-08-2008 17:24:01 32.1 C 21 % 7.03 C
1767 30-08-2008 17:36:02 32.1 C 20 % 6.32 C
1768 30-08-2008 17:48:02 32.1 C 20 % 6.32 C
1769 30-08-2008 18:00:02 32.2 C 20 % 6.41 C
1770 30-08-2008 18:12:02 32.3 C 20 % 6.49 C
1771 30-08-2008 18:24:02 32 C 20 % 6.24 C
1772 30-08-2008 18:36:02 31.8 C 20 % 6.08 C
1773 30-08-2008 18:48:02 31.7 C 22 % 7.38 C
1774 30-08-2008 19:00:02 31.3 C 23 % 7.7 C
1775 30-08-2008 19:12:02 31 C 25 % 8.67 C
Sensor: Nr:Datum:Temp:Feuchte:Taupunkt:
Aussen-T/F 1776 30-08-2008 19:24:02 30.4 C 26 % 8.75 C
1777 30-08-2008 19:36:02 29.4 C 29 % 9.52 C
1778 30-08-2008 19:48:02 28.1 C 31 % 9.39 C
1779 30-08-2008 20:00:02 26.5 C 35 % 9.8 C
1780 30-08-2008 20:12:02 25.2 C 38 % 9.88 C
1781 30-08-2008 20:24:02 24.3 C 41 % 10.21 C
1782 30-08-2008 20:36:02 23.5 C 44 % 10.55 C
1783 30-08-2008 20:48:02 23 C 45 % 10.43 C
1784 30-08-2008 21:00:02 22.7 C 48 % 11.13 C
1785 30-08-2008 21:12:03 22.6 C 48 % 11.04 C
1786 30-08-2008 21:24:02 22.2 C 49 % 10.98 C
1787 30-08-2008 21:36:03 22 C 49 % 10.8 C
1788 30-08-2008 21:48:02 21.6 C 51 % 11.04 C
1789 30-08-2008 22:00:02 21.4 C 52 % 11.14 C
1790 30-08-2008 22:12:02 21.2 C 53 % 11.25 C
1791 30-08-2008 22:24:02 21 C 53 % 11.06 C
1792 30-08-2008 22:36:02 20.7 C 54 % 11.07 C
1793 30-08-2008 22:48:02 20.4 C 55 % 11.06 C
1794 30-08-2008 23:00:02 20.4 C 55 % 11.06 C
1795 30-08-2008 23:12:01 20.1 C 56 % 11.06 C
1796 30-08-2008 23:24:02 20 C 56 % 10.96 C
1797 30-08-2008 23:36:01 19.6 C 57 % 10.86 C
1798 30-08-2008 23:49:02 19.4 C 58 % 10.93 C
1799 31-08-2008 00:01:02 19.2 C 59 % 11 C
1800 31-08-2008 00:13:02 19.1 C 59 % 10.91 C
Sensor: Nr:Datum:Temp:Feuchte:Taupunkt:
Aussen-T/F 1801 31-08-2008 00:25:02 18.8 C 61 % 11.13 C
1802 31-08-2008 00:37:02 18.6 C 63 % 11.42 C
1803 31-08-2008 00:49:02 18.4 C 62 % 10.99 C
1804 31-08-2008 01:01:02 18.2 C 63 % 11.05 C
1805 31-08-2008 01:13:02 18.1 C 63 % 10.95 C
1806 31-08-2008 01:25:02 17.9 C 65 % 11.23 C
1807 31-08-2008 01:37:02 17.7 C 65 % 11.04 C
1808 31-08-2008 01:49:02 17.5 C 65 % 10.85 C
1809 31-08-2008 02:01:02 17.4 C 68 % 11.44 C
1810 31-08-2008 02:13:02 17.1 C 70 % 11.59 C
1811 31-08-2008 02:25:02 16.9 C 70 % 11.4 C
1812 31-08-2008 02:37:03 16.8 C 72 % 11.73 C
1813 31-08-2008 02:49:03 16.6 C 71 % 11.32 C
1814 31-08-2008 03:01:03 16.4 C 71 % 11.13 C
1815 31-08-2008 03:13:03 16.1 C 70 % 10.63 C
1816 31-08-2008 03:25:03 16 C 71 % 10.75 C
1817 31-08-2008 03:37:03 15.9 C 73 % 11.07 C
1818 31-08-2008 03:49:03 15.8 C 75 % 11.38 C
1819 31-08-2008 04:01:03 15.6 C 75 % 11.19 C
1820 31-08-2008 04:13:03 15.6 C 76 % 11.39 C
1821 31-08-2008 04:25:03 15.4 C 77 % 11.39 C
1822 31-08-2008 04:37:03 15.2 C 77 % 11.2 C
1823 31-08-2008 04:49:03 15.1 C 77 % 11.1 C
1824 31-08-2008 05:01:03 14.9 C 77 % 10.91 C
1825 31-08-2008 05:13:03 14.8 C 78 % 11 C
Sensor: Nr:Datum:Temp:Feuchte:Taupunkt:
Aussen-T/F 1826 31-08-2008 05:25:03 14.7 C 77 % 10.71 C
1827 31-08-2008 05:37:03 14.5 C 77 % 10.52 C
1828 31-08-2008 05:49:03 14.5 C 77 % 10.52 C
1829 31-08-2008 06:01:03 14.3 C 77 % 10.33 C
1830 31-08-2008 06:13:03 14.2 C 77 % 10.23 C
1831 31-08-2008 06:25:04 14.1 C 78 % 10.33 C
1832 31-08-2008 06:37:04 14 C 78 % 10.23 C
1833 31-08-2008 06:49:04 13.9 C 80 % 10.51 C
1834 31-08-2008 07:01:04 14 C 80 % 10.61 C
1835 31-08-2008 07:13:04 14 C 79 % 10.42 C
1836 31-08-2008 07:25:04 14 C 79 % 10.42 C
1837 31-08-2008 07:37:04 14 C 80 % 10.61 C
1838 31-08-2008 07:49:04 14.1 C 80 % 10.71 C
1839 31-08-2008 08:01:04 14.2 C 80 % 10.8 C
1840 31-08-2008 08:13:04 14.4 C 79 % 10.81 C
1841 31-08-2008 08:25:04 14.5 C 79 % 10.91 C
1842 31-08-2008 08:37:04 14.6 C 79 % 11 C
1843 31-08-2008 08:49:01 14.7 C 79 % 11.1 C
1844 31-08-2008 09:01:02 15 C 78 % 11.2 C
1845 31-08-2008 09:13:02 15.4 C 77 % 11.39 C
1846 31-08-2008 09:25:02 15.8 C 77 % 11.78 C
1847 31-08-2008 09:37:02 16.5 C 74 % 11.85 C
1848 31-08-2008 09:49:03 17.1 C 70 % 11.59 C
1849 31-08-2008 10:01:02 17.7 C 67 % 11.5 C
1850 31-08-2008 10:13:02 18.4 C 63 % 11.23 C
Sensor: Nr:Datum:Temp:Feuchte:Taupunkt:
Aussen-T/F 1851 31-08-2008 10:25:02 19 C 61 % 11.31 C
1852 31-08-2008 10:37:02 19.3 C 61 % 11.6 C
1853 31-08-2008 10:49:03 20 C 58 % 11.49 C
1854 31-08-2008 11:01:02 20.7 C 58 % 12.15 C
1855 31-08-2008 11:13:02 21.4 C 54 % 11.71 C
1856 31-08-2008 11:25:03 22.1 C 50 % 11.2 C
1857 31-08-2008 11:37:02 22.8 C 47 % 10.91 C
1858 31-08-2008 11:49:02 23.5 C 44 % 10.55 C
1859 31-08-2008 12:01:02 24.1 C 44 % 11.09 C
1860 31-08-2008 12:13:02 24.9 C 39 % 10 C
1861 31-08-2008 12:25:02 25.3 C 36 % 9.16 C
1862 31-08-2008 12:37:02 25.6 C 35 % 9.01 C
1863 31-08-2008 12:49:01 26 C 32 % 8.04 C
1864 31-08-2008 13:01:02 26.1 C 32 % 8.13 C
1865 31-08-2008 13:13:02 26.6 C 33 % 9.01 C
1866 31-08-2008 13:25:01 26.8 C 33 % 9.19 C
1867 31-08-2008 13:37:02 27.9 C 32 % 9.69 C
1868 31-08-2008 13:49:02 28.3 C 30 % 9.07 C
1869 31-08-2008 14:01:02 28.7 C 30 % 9.42 C
1870 31-08-2008 14:13:02 28.7 C 30 % 9.42 C
1871 31-08-2008 14:25:02 29.7 C 29 % 9.77 C
1872 31-08-2008 14:37:02 30.1 C 28 % 9.59 C
1873 31-08-2008 14:49:02 30.3 C 27 % 9.22 C
1874 31-08-2008 15:01:01 30.4 C 26 % 8.75 C
1875 31-08-2008 15:13:01 30.5 C 26 % 8.83 C
Sensor: Nr:Datum:Temp:Feuchte:Taupunkt:
Aussen-T/F 1876 31-08-2008 15:25:02 31 C 25 % 8.67 C
1877 31-08-2008 15:37:01 31.2 C 24 % 8.24 C
1878 31-08-2008 15:49:02 31.8 C 22 % 7.46 C
1879 31-08-2008 16:01:01 31.8 C 23 % 8.12 C
1880 31-08-2008 16:13:01 32 C 21 % 6.95 C
1881 31-08-2008 16:25:02 32 C 22 % 7.63 C
1882 31-08-2008 16:37:01 32.3 C 21 % 7.2 C
1883 31-08-2008 16:49:01 31.5 C 24 % 8.49 C
1884 31-08-2008 17:01:02 31.8 C 23 % 8.12 C
1885 31-08-2008 17:13:02 31.4 C 25 % 9.01 C
1886 31-08-2008 17:25:01 31.4 C 25 % 9.01 C
1887 31-08-2008 17:37:02 31.6 C 25 % 9.18 C
1888 31-08-2008 17:49:02 31.9 C 24 % 8.83 C
1889 31-08-2008 18:01:02 32.4 C 22 % 7.96 C
1890 31-08-2008 18:13:02 32.3 C 22 % 7.88 C
1891 31-08-2008 18:25:02 32.4 C 22 % 7.96 C
1892 31-08-2008 18:37:02 32.1 C 23 % 8.37 C
1893 31-08-2008 18:49:02 31.9 C 25 % 9.43 C
1894 31-08-2008 19:01:02 31.2 C 27 % 9.99 C
1895 31-08-2008 19:13:02 30.9 C 29 % 10.8 C
1896 31-08-2008 19:25:02 30.6 C 30 % 11.05 C
1897 31-08-2008 19:37:02 29.5 C 34 % 11.99 C
1898 31-08-2008 19:49:02 28.2 C 37 % 12.13 C
1899 31-08-2008 20:01:02 27.1 C 40 % 12.34 C
1900 31-08-2008 20:13:03 26.2 C 42 % 12.28 C
Sensor: Nr:Datum:Temp:Feuchte:Taupunkt:
Aussen-T/F 1901 31-08-2008 20:25:01 25.5 C 45 % 12.7 C
1902 31-08-2008 20:37:02 25 C 46 % 12.58 C
1903 31-08-2008 20:49:02 24.9 C 48 % 13.14 C
1904 31-08-2008 21:01:02 24.8 C 49 % 13.36 C
1905 31-08-2008 21:13:02 24.5 C 50 % 13.4 C
1906 31-08-2008 21:25:02 24.5 C 51 % 13.7 C
1907 31-08-2008 21:37:02 24.4 C 51 % 13.61 C
1908 31-08-2008 21:49:02 24.3 C 51 % 13.52 C
1909 31-08-2008 22:01:01 24.1 C 52 % 13.63 C
1910 31-08-2008 22:13:01 23.7 C 54 % 13.84 C
1911 31-08-2008 22:25:02 23.3 C 56 % 14.03 C
1912 31-08-2008 22:37:02 23 C 58 % 14.29 C
1913 31-08-2008 22:49:03 23 C 58 % 14.29 C
1914 31-08-2008 23:01:02 22.9 C 58 % 14.2 C
1915 31-08-2008 23:13:02 22.6 C 59 % 14.18 C
1916 31-08-2008 23:25:03 22.8 C 59 % 14.37 C
1917 31-08-2008 23:37:02 22.5 C 59 % 14.09 C
1918 31-08-2008 23:49:03 22.3 C 60 % 14.16 C
1919 01-09-2008 00:02:02 22.1 C 60 % 13.98 C
1920 01-09-2008 00:14:02 22.1 C 61 % 14.23 C
1921 01-09-2008 00:26:02 22 C 62 % 14.39 C
1922 01-09-2008 00:38:02 22.2 C 62 % 14.58 C
1923 01-09-2008 00:50:02 22 C 62 % 14.39 C
1924 01-09-2008 01:02:03 22 C 62 % 14.39 C
1925 01-09-2008 01:14:03 21.9 C 63 % 14.54 C
Sensor: Nr:Datum:Temp:Feuchte:Taupunkt:
Aussen-T/F 1926 01-09-2008 01:26:03 21.8 C 63 % 14.45 C
1927 01-09-2008 01:38:03 21.7 C 63 % 14.35 C
1928 01-09-2008 01:50:03 21.8 C 62 % 14.2 C
1929 01-09-2008 02:02:03 21.6 C 62 % 14.01 C
1930 01-09-2008 02:14:03 21.7 C 62 % 14.1 C
1931 01-09-2008 02:26:03 21.7 C 62 % 14.1 C
1932 01-09-2008 02:38:03 21.3 C 67 % 14.93 C
1933 01-09-2008 02:50:03 20.8 C 71 % 15.35 C
1934 01-09-2008 03:02:03 20.6 C 69 % 14.71 C
1935 01-09-2008 03:14:03 20.7 C 66 % 14.12 C
1936 01-09-2008 03:26:03 20.9 C 63 % 13.6 C
1937 01-09-2008 03:38:03 20.9 C 64 % 13.84 C
1938 01-09-2008 03:50:03 20.9 C 65 % 14.08 C
1939 01-09-2008 04:02:03 20.8 C 65 % 13.98 C
1940 01-09-2008 04:14:03 20.8 C 64 % 13.74 C
1941 01-09-2008 04:26:03 20.8 C 65 % 13.98 C
1942 01-09-2008 04:38:03 20.8 C 64 % 13.74 C
1943 01-09-2008 04:50:04 20.2 C 68 % 14.11 C
1944 01-09-2008 05:02:04 20 C 70 % 14.36 C
1945 01-09-2008 05:14:04 19.4 C 76 % 15.06 C
1946 01-09-2008 05:26:04 19.1 C 79 % 15.37 C
1947 01-09-2008 05:38:04 18.8 C 82 % 15.66 C
1948 01-09-2008 05:50:04 18.9 C 83 % 15.95 C
1949 01-09-2008 06:02:04 19.1 C 82 % 15.96 C
1950 01-09-2008 06:14:04 19.3 C 81 % 15.96 C
Sensor: Nr:Datum:Temp:Feuchte:Taupunkt:
Aussen-T/F 1951 01-09-2008 06:26:04 19.3 C 79 % 15.57 C
1952 01-09-2008 06:38:04 19.1 C 80 % 15.57 C
1953 01-09-2008 06:50:04 18.9 C 82 % 15.76 C
1954 01-09-2008 07:02:04 18.7 C 84 % 15.94 C
1955 01-09-2008 07:14:04 18.6 C 85 % 16.03 C
1956 01-09-2008 07:26:04 18.7 C 85 % 16.13 C
1957 01-09-2008 07:38:04 18.8 C 85 % 16.23 C
1958 01-09-2008 07:50:04 18.9 C 85 % 16.32 C
1959 01-09-2008 08:02:04 18.9 C 83 % 15.95 C
1960 01-09-2008 08:14:04 19.1 C 82 % 15.96 C
1961 01-09-2008 08:26:04 19.3 C 81 % 15.96 C
1962 01-09-2008 08:38:05 19.1 C 80 % 15.57 C
1963 01-09-2008 08:50:05 19.2 C 81 % 15.86 C
1964 01-09-2008 09:02:05 19.3 C 81 % 15.96 C
1965 01-09-2008 09:14:05 19.3 C 81 % 15.96 C
1966 01-09-2008 09:26:05 19.4 C 79 % 15.66 C
1967 01-09-2008 09:38:03 20.7 C 73 % 15.69 C
1968 01-09-2008 09:50:02 21.2 C 66 % 14.6 C
1969 01-09-2008 10:02:01 21.5 C 63 % 14.16 C
1970 01-09-2008 10:14:01 21.4 C 63 % 14.07 C
1971 01-09-2008 10:26:02 21.2 C 63 % 13.88 C
1972 01-09-2008 10:38:01 21.3 C 63 % 13.97 C
1973 01-09-2008 10:50:01 21.7 C 60 % 13.6 C
1974 01-09-2008 11:02:01 22.1 C 56 % 12.92 C
1975 01-09-2008 11:14:01 22.4 C 53 % 12.36 C
Sensor: Nr:Datum:Temp:Feuchte:Taupunkt:
Aussen-T/F 1976 01-09-2008 11:26:01 22.4 C 53 % 12.36 C
1977 01-09-2008 11:38:01 22.6 C 52 % 12.25 C
1978 01-09-2008 11:50:01 22.6 C 49 % 11.35 C
1979 01-09-2008 12:02:02 22.6 C 49 % 11.35 C
1980 01-09-2008 12:14:02 22.5 C 50 % 11.56 C
1981 01-09-2008 12:26:01 21.4 C 51 % 10.85 C
1982 01-09-2008 12:38:02 21.5 C 52 % 11.24 C
1983 01-09-2008 12:50:02 21.5 C 52 % 11.24 C
1984 01-09-2008 13:02:02 22 C 51 % 11.4 C
1985 01-09-2008 13:14:02 22.6 C 50 % 11.66 C
1986 01-09-2008 13:26:02 24.1 C 44 % 11.09 C
1987 01-09-2008 13:38:02 24.1 C 35 % 7.69 C
1988 01-09-2008 13:50:02 24 C 34 % 7.18 C
1989 01-09-2008 14:02:03 24.9 C 32 % 7.08 C
1990 01-09-2008 14:14:03 24.8 C 34 % 7.88 C
1991 01-09-2008 14:26:02 24.5 C 33 % 7.18 C
1992 01-09-2008 14:38:03 24.1 C 33 % 6.84 C
1993 01-09-2008 14:50:02 23.7 C 35 % 7.34 C
1994 01-09-2008 15:02:01 23.5 C 37 % 7.98 C
1995 01-09-2008 15:14:01 23.5 C 38 % 8.37 C
1996 01-09-2008 15:26:02 23.9 C 35 % 7.52 C
1997 01-09-2008 15:38:01 23.5 C 34 % 6.74 C
1998 01-09-2008 15:50:02 23.4 C 35 % 7.08 C
1999 01-09-2008 16:02:01 23.4 C 34 % 6.66 C
2000 01-09-2008 16:14:01 23.4 C 35 % 7.08 C
Sensor: Nr:Datum:Temp:Feuchte:Taupunkt:
Aussen-T/F 2001 01-09-2008 16:26:02 23.2 C 34 % 6.48 C
2002 01-09-2008 16:38:01 23.3 C 33 % 6.14 C
2003 01-09-2008 16:50:02 23.3 C 33 % 6.14 C
2004 01-09-2008 17:02:01 23.2 C 33 % 6.05 C
2005 01-09-2008 17:14:01 23.1 C 33 % 5.96 C
2006 01-09-2008 17:26:02 22.9 C 34 % 6.22 C
2007 01-09-2008 17:38:01 22.8 C 35 % 6.55 C
2008 01-09-2008 17:50:01 22.5 C 35 % 6.29 C
2009 01-09-2008 18:02:01 22.5 C 35 % 6.29 C
2010 01-09-2008 18:14:01 22.7 C 35 % 6.46 C
2011 01-09-2008 18:26:02 22.6 C 34 % 5.96 C
2012 01-09-2008 18:38:01 22 C 35 % 5.85 C
2013 01-09-2008 18:50:01 21.9 C 38 % 6.95 C
2014 01-09-2008 19:02:02 21.6 C 38 % 6.69 C
2015 01-09-2008 19:14:03 21.4 C 39 % 6.89 C
2016 01-09-2008 19:26:01 21.3 C 41 % 7.53 C
2017 01-09-2008 19:38:02 21 C 42 % 7.61 C
2018 01-09-2008 19:50:02 20.6 C 44 % 7.93 C
2019 01-09-2008 20:02:02 20 C 46 % 8.04 C
2020 01-09-2008 20:14:02 19.6 C 47 % 7.99 C
2021 01-09-2008 20:26:02 19.5 C 48 % 8.21 C
2022 01-09-2008 20:38:02 19.4 C 49 % 8.42 C
2023 01-09-2008 20:50:02 19.4 C 49 % 8.42 C
2024 01-09-2008 21:02:02 19.3 C 50 % 8.63 C
2025 01-09-2008 21:14:02 18.9 C 51 % 8.55 C
Sensor: Nr:Datum:Temp:Feuchte:Taupunkt:
Aussen-T/F 2026 01-09-2008 21:26:02 18.6 C 54 % 9.12 C
2027 01-09-2008 21:38:02 18.2 C 54 % 8.75 C
2028 01-09-2008 21:50:02 18 C 55 % 8.83 C
2029 01-09-2008 22:02:02 17.9 C 56 % 9.01 C
2030 01-09-2008 22:14:02 17.7 C 57 % 9.08 C
2031 01-09-2008 22:27:03 17.5 C 58 % 9.15 C
2032 01-09-2008 22:39:03 17.3 C 59 % 9.22 C
2033 01-09-2008 22:51:03 17.3 C 59 % 9.22 C
2034 01-09-2008 23:03:03 17.2 C 60 % 9.37 C
2035 01-09-2008 23:15:03 17 C 61 % 9.43 C
2036 01-09-2008 23:27:03 17 C 61 % 9.43 C
2037 01-09-2008 23:39:03 16.9 C 63 % 9.82 C
2038 01-09-2008 23:51:03 16.8 C 64 % 9.96 C
2039 02-09-2008 00:03:03 16.7 C 64 % 9.86 C
2040 02-09-2008 00:15:03 16.6 C 65 % 10 C
2041 02-09-2008 00:27:03 16.6 C 65 % 10 C
2042 02-09-2008 00:39:03 16.6 C 65 % 10 C
2043 02-09-2008 00:51:03 16.4 C 66 % 10.04 C
2044 02-09-2008 01:03:04 16 C 68 % 10.1 C
2045 02-09-2008 01:15:04 15.9 C 70 % 10.44 C
2046 02-09-2008 01:27:04 15.7 C 71 % 10.46 C
2047 02-09-2008 01:39:04 15.6 C 71 % 10.37 C
2048 02-09-2008 01:51:04 15.7 C 71 % 10.46 C
2049 02-09-2008 02:03:04 15.6 C 71 % 10.37 C
2050 02-09-2008 02:15:04 15.4 C 71 % 10.17 C
Sensor: Nr:Datum:Temp:Feuchte:Taupunkt:
Aussen-T/F 2051 02-09-2008 02:27:04 15.1 C 72 % 10.09 C
2052 02-09-2008 02:39:04 14.9 C 74 % 10.31 C
2053 02-09-2008 02:51:04 14.7 C 75 % 10.32 C
2054 02-09-2008 03:03:04 14.2 C 75 % 9.84 C
2055 02-09-2008 03:15:04 14.3 C 76 % 10.13 C
2056 02-09-2008 03:27:04 14.2 C 77 % 10.23 C
2057 02-09-2008 03:39:04 14 C 78 % 10.23 C
2058 02-09-2008 03:51:04 14 C 79 % 10.42 C
2059 02-09-2008 04:03:04 14 C 79 % 10.42 C
2060 02-09-2008 04:15:04 13.9 C 79 % 10.32 C
2061 02-09-2008 04:27:04 13.8 C 79 % 10.22 C
2062 02-09-2008 04:39:04 13.5 C 80 % 10.12 C
2063 02-09-2008 04:51:04 13.4 C 80 % 10.02 C
2064 02-09-2008 05:03:05 13.4 C 81 % 10.21 C
2065 02-09-2008 05:15:05 13.3 C 81 % 10.11 C
2066 02-09-2008 05:27:05 13.3 C 81 % 10.11 C
2067 02-09-2008 05:39:05 13.2 C 82 % 10.2 C
2068 02-09-2008 05:51:05 13 C 82 % 10 C
2069 02-09-2008 06:03:05 12.9 C 83 % 10.09 C
2070 02-09-2008 06:15:05 12.8 C 83 % 9.99 C
2071 02-09-2008 06:27:05 12.6 C 83 % 9.79 C
2072 02-09-2008 06:39:05 12.5 C 84 % 9.87 C
2073 02-09-2008 06:51:05 12.4 C 84 % 9.78 C
2074 02-09-2008 07:03:02 12.4 C 84 % 9.78 C
2075 02-09-2008 07:15:02 12.4 C 84 % 9.78 C
Sensor: Nr:Datum:Temp:Feuchte:Taupunkt:
Aussen-T/F 2076 02-09-2008 07:27:02 12.5 C 84 % 9.87 C
2077 02-09-2008 07:39:02 12.6 C 84 % 9.97 C
2078 02-09-2008 07:51:01 12.7 C 84 % 10.07 C
2079 02-09-2008 08:03:02 12.8 C 85 % 10.34 C
2080 02-09-2008 08:15:01 13.2 C 84 % 10.56 C
2081 02-09-2008 08:27:01 14 C 83 % 11.16 C
2082 02-09-2008 08:39:01 14.6 C 82 % 11.56 C
2083 02-09-2008 08:51:01 14.8 C 79 % 11.2 C
2084 02-09-2008 09:03:01 14.6 C 77 % 10.62 C
2085 02-09-2008 09:15:02 14.8 C 78 % 11 C
2086 02-09-2008 09:27:02 15.4 C 76 % 11.19 C
2087 02-09-2008 09:39:01 16.4 C 71 % 11.13 C
2088 02-09-2008 09:51:02 17.2 C 67 % 11.02 C
2089 02-09-2008 10:03:02 17.8 C 66 % 11.37 C
2090 02-09-2008 10:15:02 18.3 C 64 % 11.38 C
2091 02-09-2008 10:27:02 18.6 C 62 % 11.18 C
2092 02-09-2008 10:39:02 19 C 62 % 11.56 C
2093 02-09-2008 10:51:02 19.5 C 60 % 11.53 C
2094 02-09-2008 11:03:03 20 C 56 % 10.96 C
2095 02-09-2008 11:15:02 20.3 C 52 % 10.13 C
2096 02-09-2008 11:27:02 20.8 C 50 % 10 C
2097 02-09-2008 11:39:03 21.6 C 47 % 9.81 C
2098 02-09-2008 11:51:02 21.9 C 46 % 9.77 C
2099 02-09-2008 12:03:02 21.9 C 46 % 9.77 C
2100 02-09-2008 12:15:02 22 C 44 % 9.2 C
Sensor: Nr:Datum:Temp:Feuchte:Taupunkt:
Aussen-T/F 2101 02-09-2008 12:27:02 22.7 C 42 % 9.14 C
2102 02-09-2008 12:39:01 23 C 40 % 8.68 C
2103 02-09-2008 12:51:02 23.4 C 40 % 9.04 C
2104 02-09-2008 13:03:02 23.7 C 38 % 8.55 C
2105 02-09-2008 13:15:02 23.5 C 36 % 7.58 C
2106 02-09-2008 13:27:02 23.4 C 36 % 7.49 C
2107 02-09-2008 13:39:02 23.6 C 36 % 7.67 C
2108 02-09-2008 13:51:02 23.6 C 35 % 7.25 C
2109 02-09-2008 14:03:02 24.8 C 34 % 7.88 C
2110 02-09-2008 14:15:02 24.5 C 33 % 7.18 C
2111 02-09-2008 14:27:02 25.1 C 31 % 6.79 C
2112 02-09-2008 14:39:02 24.8 C 32 % 7 C
2113 02-09-2008 14:51:02 25.2 C 31 % 6.88 C
2114 02-09-2008 15:03:02 24.7 C 32 % 6.91 C
2115 02-09-2008 15:15:01 25.5 C 31 % 7.14 C
2116 02-09-2008 15:27:01 25.5 C 30 % 6.66 C
2117 02-09-2008 15:39:02 25.7 C 31 % 7.31 C
2118 02-09-2008 15:51:02 24.9 C 32 % 7.08 C
2119 02-09-2008 16:03:02 24.8 C 31 % 6.54 C
2120 02-09-2008 16:15:02 24.6 C 32 % 6.82 C
2121 02-09-2008 16:27:03 24.4 C 32 % 6.65 C
2122 02-09-2008 16:39:02 24.5 C 32 % 6.74 C
2123 02-09-2008 16:51:02 24.1 C 33 % 6.84 C
2124 02-09-2008 17:03:02 24 C 33 % 6.75 C
2125 02-09-2008 17:15:02 24 C 34 % 7.18 C
Sensor: Nr:Datum:Temp:Feuchte:Taupunkt:
Aussen-T/F 2126 02-09-2008 17:27:02 24.1 C 34 % 7.27 C
2127 02-09-2008 17:39:01 25.1 C 33 % 7.71 C
2128 02-09-2008 17:51:01 24.8 C 34 % 7.88 C
2129 02-09-2008 18:03:02 24.3 C 35 % 7.87 C
2130 02-09-2008 18:15:02 24.1 C 36 % 8.11 C
2131 02-09-2008 18:27:02 23.9 C 37 % 8.33 C
2132 02-09-2008 18:39:02 23.7 C 38 % 8.55 C
2133 02-09-2008 18:51:01 23.6 C 37 % 8.07 C
2134 02-09-2008 19:03:02 23.9 C 37 % 8.33 C
2135 02-09-2008 19:15:01 23.7 C 38 % 8.55 C
2136 02-09-2008 19:27:01 23.3 C 38 % 8.19 C
2137 02-09-2008 19:39:02 22.8 C 40 % 8.5 C
2138 02-09-2008 19:51:02 22.5 C 41 % 8.6 C
2139 02-09-2008 20:03:02 22.3 C 42 % 8.78 C
2140 02-09-2008 20:15:02 22.1 C 42 % 8.6 C
2141 02-09-2008 20:27:02 22 C 42 % 8.51 C
2142 02-09-2008 20:39:02 21.8 C 45 % 9.35 C
2143 02-09-2008 20:51:01 21.6 C 45 % 9.17 C
2144 02-09-2008 21:03:02 21.4 C 46 % 9.31 C
2145 02-09-2008 21:15:01 21.2 C 47 % 9.45 C
2146 02-09-2008 21:27:01 21.1 C 48 % 9.67 C
2147 02-09-2008 21:39:02 20.9 C 49 % 9.79 C
2148 02-09-2008 21:51:02 20.8 C 50 % 10 C
2149 02-09-2008 22:03:01 20.7 C 50 % 9.91 C
2150 02-09-2008 22:16:05 20.2 C 52 % 10.04 C
Sensor: Nr:Datum:Temp:Feuchte:Taupunkt:
Aussen-T/F 2151 02-09-2008 22:28:05 20 C 52 % 9.85 C
2152 02-09-2008 22:40:05 20 C 53 % 10.14 C
2153 02-09-2008 22:52:05 20.3 C 52 % 10.13 C
2154 02-09-2008 23:04:05 20.2 C 53 % 10.32 C
2155 02-09-2008 23:16:05 20.2 C 53 % 10.32 C
2156 02-09-2008 23:28:05 20.1 C 54 % 10.51 C
2157 02-09-2008 23:40:05 20.2 C 54 % 10.6 C
2158 02-09-2008 23:52:05 20.4 C 53 % 10.51 C
2159 03-09-2008 00:04:05 20.7 C 52 % 10.5 C
2160 03-09-2008 00:16:05 20.8 C 52 % 10.59 C
2161 03-09-2008 00:28:05 20.4 C 55 % 11.06 C
2162 03-09-2008 00:40:05 18.4 C 71 % 13.05 C
2163 03-09-2008 00:52:06 18 C 77 % 13.91 C
2164 03-09-2008 01:04:06 17.8 C 81 % 14.5 C
2165 03-09-2008 01:16:06 18 C 81 % 14.69 C
2166 03-09-2008 01:28:06 18.4 C 80 % 14.89 C
2167 03-09-2008 01:40:06 18.5 C 79 % 14.79 C
2168 03-09-2008 01:52:06 18.6 C 78 % 14.69 C
2169 03-09-2008 02:04:06 18.6 C 77 % 14.49 C
2170 03-09-2008 02:16:06 18.4 C 77 % 14.3 C
2171 03-09-2008 02:28:06 18.4 C 76 % 14.1 C
2172 03-09-2008 02:40:06 18.3 C 76 % 14 C
2173 03-09-2008 02:52:06 18.3 C 75 % 13.79 C
2174 03-09-2008 03:04:06 18.5 C 75 % 13.99 C
2175 03-09-2008 03:16:06 18.6 C 74 % 13.88 C
Sensor: Nr:Datum:Temp:Feuchte:Taupunkt:
Aussen-T/F 2176 03-09-2008 03:28:06 18.5 C 74 % 13.78 C
2177 03-09-2008 03:40:06 17.5 C 83 % 14.58 C
2178 03-09-2008 03:52:06 17 C 85 % 14.46 C
2179 03-09-2008 04:04:06 16.6 C 87 % 14.43 C
2180 03-09-2008 04:16:06 16.4 C 89 % 14.58 C
2181 03-09-2008 04:28:06 16.2 C 89 % 14.39 C
2182 03-09-2008 04:40:06 16.2 C 90 % 14.56 C
2183 03-09-2008 04:52:06 16 C 90 % 14.36 C
2184 03-09-2008 05:04:07 15.9 C 91 % 14.43 C
2185 03-09-2008 05:16:07 15.9 C 92 % 14.6 C
2186 03-09-2008 05:28:07 15.8 C 92 % 14.5 C
2187 03-09-2008 05:40:07 15.8 C 92 % 14.5 C
2188 03-09-2008 05:52:07 15.7 C 92 % 14.4 C
2189 03-09-2008 06:04:02 15.6 C 93 % 14.47 C
2190 03-09-2008 06:16:02 15.5 C 93 % 14.37 C
2191 03-09-2008 06:28:02 15.5 C 93 % 14.37 C
2192 03-09-2008 06:40:02 15.5 C 93 % 14.37 C
2193 03-09-2008 06:52:02 15.4 C 93 % 14.27 C
2194 03-09-2008 07:04:02 15.1 C 92 % 13.81 C
2195 03-09-2008 07:16:02 14.8 C 91 % 13.35 C
2196 03-09-2008 07:28:02 14.8 C 91 % 13.35 C
2197 03-09-2008 07:40:02 14.9 C 91 % 13.44 C
2198 03-09-2008 07:52:02 14.8 C 90 % 13.18 C
2199 03-09-2008 08:04:02 15 C 85 % 12.5 C
2200 03-09-2008 08:16:02 15.1 C 83 % 12.24 C
Sensor: Nr:Datum:Temp:Feuchte:Taupunkt:
Aussen-T/F 2201 03-09-2008 08:28:02 15 C 82 % 11.95 C
2202 03-09-2008 08:40:02 15.1 C 78 % 11.3 C
2203 03-09-2008 08:52:01 15.2 C 77 % 11.2 C
2204 03-09-2008 09:04:02 15.6 C 77 % 11.59 C
2205 03-09-2008 09:16:01 15.9 C 75 % 11.48 C
2206 03-09-2008 09:28:01 15.8 C 73 % 10.97 C
2207 03-09-2008 09:40:02 16.1 C 73 % 11.26 C
2208 03-09-2008 09:52:01 16.1 C 70 % 10.63 C
2209 03-09-2008 10:04:01 16 C 68 % 10.1 C
2210 03-09-2008 10:16:02 16.2 C 67 % 10.07 C
2211 03-09-2008 10:28:02 16.6 C 64 % 9.77 C
2212 03-09-2008 10:40:01 16.7 C 65 % 10.09 C
2213 03-09-2008 10:52:01 16.6 C 63 % 9.53 C
2214 03-09-2008 11:04:02 16.8 C 63 % 9.72 C
2215 03-09-2008 11:16:01 16.6 C 63 % 9.53 C
2216 03-09-2008 11:28:01 16.8 C 62 % 9.49 C
2217 03-09-2008 11:40:02 16.6 C 63 % 9.53 C
2218 03-09-2008 11:52:02 16.5 C 61 % 8.96 C
2219 03-09-2008 12:04:02 16.7 C 61 % 9.15 C
2220 03-09-2008 12:16:02 16.9 C 61 % 9.34 C
2221 03-09-2008 12:28:02 17 C 66 % 10.61 C
2222 03-09-2008 12:40:02 17.2 C 64 % 10.34 C
2223 03-09-2008 12:52:01 17.5 C 58 % 9.15 C
2224 03-09-2008 13:04:02 17.7 C 55 % 8.55 C
2225 03-09-2008 13:16:01 17.4 C 57 % 8.8 C
Sensor: Nr:Datum:Temp:Feuchte:Taupunkt:
Aussen-T/F 2226 03-09-2008 13:28:01 17.3 C 56 % 8.45 C
2227 03-09-2008 13:40:02 17 C 58 % 8.69 C
2228 03-09-2008 13:52:02 15.9 C 69 % 10.23 C
2229 03-09-2008 14:04:02 14.9 C 78 % 11.1 C
2230 03-09-2008 14:16:02 14.9 C 81 % 11.67 C
2231 03-09-2008 14:28:03 14.4 C 81 % 11.18 C
2232 03-09-2008 14:40:02 13.6 C 80 % 10.22 C
2233 03-09-2008 14:52:02 13.6 C 82 % 10.59 C
2234 03-09-2008 15:04:02 13.8 C 84 % 11.15 C
2235 03-09-2008 15:16:02 13.9 C 85 % 11.42 C
2236 03-09-2008 15:28:02 13.8 C 86 % 11.5 C
2237 03-09-2008 15:40:02 13.8 C 85 % 11.32 C
2238 03-09-2008 15:52:01 13.7 C 86 % 11.4 C
2239 03-09-2008 16:04:02 13.7 C 86 % 11.4 C
2240 03-09-2008 16:16:02 13.5 C 86 % 11.21 C
2241 03-09-2008 16:28:02 13.7 C 87 % 11.58 C
2242 03-09-2008 16:40:02 14 C 87 % 11.87 C
2243 03-09-2008 16:52:02 14 C 87 % 11.87 C
2244 03-09-2008 17:04:02 13.6 C 88 % 11.65 C
2245 03-09-2008 17:16:02 13.5 C 88 % 11.55 C
2246 03-09-2008 17:28:02 14 C 88 % 12.05 C
2247 03-09-2008 17:40:02 13.9 C 89 % 12.12 C
2248 03-09-2008 17:52:01 14.1 C 88 % 12.14 C
2249 03-09-2008 18:04:02 13.9 C 89 % 12.12 C
2250 03-09-2008 18:16:01 13.7 C 89 % 11.92 C
Sensor: Nr:Datum:Temp:Feuchte:Taupunkt:
Aussen-T/F 2251 03-09-2008 18:28:01 13.7 C 89 % 11.92 C
2252 03-09-2008 18:40:02 13.5 C 89 % 11.72 C
2253 03-09-2008 18:52:02 13.4 C 89 % 11.63 C
2254 03-09-2008 19:04:02 13.3 C 89 % 11.53 C
2255 03-09-2008 19:16:02 13 C 88 % 11.06 C
2256 03-09-2008 19:28:02 12.8 C 88 % 10.86 C
2257 03-09-2008 19:40:02 12.8 C 89 % 11.03 C
2258 03-09-2008 19:52:02 12.7 C 88 % 10.77 C
2259 03-09-2008 20:04:01 12.8 C 89 % 11.03 C
2260 03-09-2008 20:16:02 12.7 C 88 % 10.77 C
2261 03-09-2008 20:28:02 12.5 C 87 % 10.4 C
2262 03-09-2008 20:40:02 12.4 C 86 % 10.13 C
2263 03-09-2008 20:52:02 12.4 C 86 % 10.13 C
2264 03-09-2008 21:04:02 12.4 C 86 % 10.13 C
2265 03-09-2008 21:16:01 12.2 C 86 % 9.93 C
2266 03-09-2008 21:28:01 12.1 C 86 % 9.83 C
2267 03-09-2008 21:40:02 12.1 C 86 % 9.83 C
2268 03-09-2008 21:52:02 12.1 C 85 % 9.66 C
2269 03-09-2008 22:04:02 12 C 85 % 9.56 C
2270 03-09-2008 22:16:02 11.8 C 85 % 9.36 C
2271 03-09-2008 22:28:02 11.7 C 85 % 9.27 C
2272 03-09-2008 22:41:02 11.6 C 84 % 8.99 C
2273 03-09-2008 22:53:02 11.5 C 84 % 8.89 C
2274 03-09-2008 23:05:02 11.4 C 85 % 8.97 C
2275 03-09-2008 23:17:02 11.3 C 86 % 9.05 C
Sensor: Nr:Datum:Temp:Feuchte:Taupunkt:
Aussen-T/F 2276 03-09-2008 23:29:02 11.3 C 86 % 9.05 C
2277 03-09-2008 23:41:02 11.4 C 86 % 9.14 C
2278 03-09-2008 23:53:02 11.4 C 85 % 8.97 C
2279 04-09-2008 00:05:02 11.2 C 84 % 8.6 C
2280 04-09-2008 00:17:02 11.1 C 84 % 8.5 C
2281 04-09-2008 00:29:02 11 C 85 % 8.58 C
2282 04-09-2008 00:41:02 10.8 C 85 % 8.38 C
2283 04-09-2008 00:53:02 10.5 C 86 % 8.26 C
2284 04-09-2008 01:05:02 10.1 C 86 % 7.87 C
2285 04-09-2008 01:17:02 10 C 87 % 7.94 C
2286 04-09-2008 01:29:03 10.1 C 88 % 8.21 C
2287 04-09-2008 01:41:03 10.1 C 88 % 8.21 C
2288 04-09-2008 01:53:03 10.4 C 89 % 8.67 C
2289 04-09-2008 02:05:03 10.4 C 88 % 8.5 C
2290 04-09-2008 02:17:03 10.4 C 88 % 8.5 C
2291 04-09-2008 02:29:03 10.3 C 87 % 8.23 C
2292 04-09-2008 02:41:03 10.1 C 87 % 8.04 C
2293 04-09-2008 02:53:03 10 C 87 % 7.94 C
2294 04-09-2008 03:05:03 9.7 C 89 % 7.98 C
2295 04-09-2008 03:17:03 9.6 C 89 % 7.88 C
2296 04-09-2008 03:29:03 9.5 C 89 % 7.78 C
2297 04-09-2008 03:41:03 9.5 C 90 % 7.94 C
2298 04-09-2008 03:53:03 9.4 C 90 % 7.85 C
2299 04-09-2008 04:05:03 9.4 C 90 % 7.85 C
2300 04-09-2008 04:17:03 9.4 C 90 % 7.85 C
Sensor: Nr:Datum:Temp:Feuchte:Taupunkt:
Aussen-T/F 2301 04-09-2008 04:29:03 9.4 C 90 % 7.85 C
2302 04-09-2008 04:41:03 9.3 C 90 % 7.75 C
2303 04-09-2008 04:53:03 9.2 C 90 % 7.65 C
2304 04-09-2008 05:05:03 9.2 C 91 % 7.81 C
2305 04-09-2008 05:17:03 9.2 C 91 % 7.81 C
2306 04-09-2008 05:29:04 9.1 C 91 % 7.71 C
2307 04-09-2008 05:41:04 9 C 91 % 7.61 C
2308 04-09-2008 05:53:04 8.9 C 92 % 7.67 C
2309 04-09-2008 06:05:04 8.7 C 92 % 7.47 C
2310 04-09-2008 06:17:04 8.6 C 92 % 7.38 C
2311 04-09-2008 06:29:04 8.5 C 92 % 7.28 C
2312 04-09-2008 06:41:04 8.6 C 92 % 7.38 C
2313 04-09-2008 06:53:04 8.8 C 93 % 7.73 C
2314 04-09-2008 07:05:02 9.1 C 92 % 7.87 C
2315 04-09-2008 07:17:01 9.3 C 92 % 8.07 C
2316 04-09-2008 07:29:01 9.4 C 92 % 8.17 C
2317 04-09-2008 07:41:02 9.5 C 92 % 8.27 C
2318 04-09-2008 07:53:02 9.5 C 91 % 8.11 C
2319 04-09-2008 08:05:02 9.5 C 91 % 8.11 C
2320 04-09-2008 08:17:02 9.8 C 91 % 8.4 C
2321 04-09-2008 08:29:02 9.9 C 91 % 8.5 C
2322 04-09-2008 08:41:02 10.1 C 89 % 8.37 C
2323 04-09-2008 08:53:01 10.4 C 89 % 8.67 C
2324 04-09-2008 09:05:02 10.6 C 89 % 8.86 C
2325 04-09-2008 09:17:01 10.8 C 89 % 9.06 C
Sensor: Nr:Datum:Temp:Feuchte:Taupunkt:
Aussen-T/F 2326 04-09-2008 09:29:01 11.2 C 88 % 9.29 C
2327 04-09-2008 09:41:02 12 C 85 % 9.56 C
2328 04-09-2008 09:53:02 12.6 C 81 % 9.43 C
2329 04-09-2008 10:05:02 13.5 C 73 % 8.76 C
2330 04-09-2008 10:17:02 14 C 68 % 8.19 C
2331 04-09-2008 10:29:02 14.5 C 66 % 8.23 C
2332 04-09-2008 10:41:02 14.8 C 64 % 8.06 C
2333 04-09-2008 10:53:02 14.7 C 63 % 7.74 C
2334 04-09-2008 11:05:03 15.2 C 60 % 7.5 C
2335 04-09-2008 11:17:02 14.5 C 61 % 7.08 C
2336 04-09-2008 11:29:02 14.5 C 61 % 7.08 C
2337 04-09-2008 11:41:03 14.7 C 61 % 7.27 C
2338 04-09-2008 11:53:02 15.6 C 57 % 7.12 C
2339 04-09-2008 12:05:02 16.2 C 54 % 6.89 C
2340 04-09-2008 12:17:02 16.4 C 54 % 7.08 C
2341 04-09-2008 12:29:02 16.6 C 54 % 7.26 C
2342 04-09-2008 12:41:02 17.1 C 51 % 6.89 C
2343 04-09-2008 12:53:02 16.8 C 53 % 7.18 C
2344 04-09-2008 13:05:01 17.2 C 50 % 6.7 C
2345 04-09-2008 13:17:02 17.6 C 50 % 7.06 C
2346 04-09-2008 13:29:03 17.7 C 48 % 6.56 C
2347 04-09-2008 13:41:01 18 C 46 % 6.22 C
2348 04-09-2008 13:53:03 17.2 C 47 % 5.8 C
2349 04-09-2008 14:05:02 17.1 C 47 % 5.71 C
2350 04-09-2008 14:17:02 17.2 C 46 % 5.49 C
Sensor: Nr:Datum:Temp:Feuchte:Taupunkt:
Aussen-T/F 2351 04-09-2008 14:29:02 17.2 C 45 % 5.18 C
2352 04-09-2008 14:41:02 17.2 C 45 % 5.18 C
2353 04-09-2008 14:53:03 17.1 C 45 % 5.08 C
2354 04-09-2008 15:05:02 17.5 C 46 % 5.76 C
2355 04-09-2008 15:17:02 17.6 C 45 % 5.54 C
2356 04-09-2008 15:29:02 17.4 C 44 % 5.03 C
2357 04-09-2008 15:41:02 18 C 42 % 4.91 C
2358 04-09-2008 15:53:02 19 C 40 % 5.11 C
2359 04-09-2008 16:05:02 19.9 C 38 % 5.18 C
2360 04-09-2008 16:17:02 18.8 C 39 % 4.57 C
2361 04-09-2008 16:29:02 18.6 C 38 % 4.02 C
2362 04-09-2008 16:41:03 19.2 C 38 % 4.55 C
2363 04-09-2008 16:53:02 19 C 36 % 3.61 C
2364 04-09-2008 17:05:02 19.8 C 34 % 3.5 C
2365 04-09-2008 17:17:02 20 C 34 % 3.68 C
2366 04-09-2008 17:29:02 19.8 C 34 % 3.5 C
2367 04-09-2008 17:41:02 19.6 C 35 % 3.74 C
2368 04-09-2008 17:53:02 19.3 C 35 % 3.47 C
2369 04-09-2008 18:05:01 19.3 C 37 % 4.26 C
2370 04-09-2008 18:17:01 19.1 C 36 % 3.7 C
2371 04-09-2008 18:29:01 18.8 C 38 % 4.2 C
2372 04-09-2008 18:41:01 18.3 C 38 % 3.75 C
2373 04-09-2008 18:53:02 17.8 C 40 % 4.03 C
2374 04-09-2008 19:05:02 17.7 C 42 % 4.64 C
2375 04-09-2008 19:17:02 17.3 C 43 % 4.62 C
Sensor: Nr:Datum:Temp:Feuchte:Taupunkt:
Aussen-T/F 2376 04-09-2008 19:29:02 16.8 C 46 % 5.13 C
2377 04-09-2008 19:41:02 16.5 C 49 % 5.76 C
2378 04-09-2008 19:53:03 16.1 C 51 % 5.97 C
2379 04-09-2008 20:05:02 15.6 C 55 % 6.6 C
2380 04-09-2008 20:17:02 15.2 C 57 % 6.75 C
2381 04-09-2008 20:29:02 14.9 C 59 % 6.97 C
2382 04-09-2008 20:41:02 14.7 C 58 % 6.53 C
2383 04-09-2008 20:53:02 14.3 C 58 % 6.16 C
2384 04-09-2008 21:05:02 14.3 C 58 % 6.16 C
2385 04-09-2008 21:17:02 14.4 C 58 % 6.25 C
2386 04-09-2008 21:29:02 14.7 C 54 % 5.5 C
2387 04-09-2008 21:41:02 14.7 C 55 % 5.76 C
2388 04-09-2008 21:54:03 14.4 C 57 % 6 C
2389 04-09-2008 22:06:03 14.4 C 59 % 6.5 C
2390 04-09-2008 22:18:03 14.3 C 60 % 6.65 C
2391 04-09-2008 22:30:03 14.2 C 62 % 7.03 C
2392 04-09-2008 22:42:03 14 C 64 % 7.31 C
2393 04-09-2008 22:54:03 14 C 65 % 7.53 C
2394 04-09-2008 23:06:03 13.9 C 67 % 7.88 C
2395 04-09-2008 23:18:03 13.9 C 68 % 8.1 C
2396 04-09-2008 23:30:03 13.8 C 70 % 8.43 C
2397 04-09-2008 23:42:03 13.8 C 70 % 8.43 C
2398 04-09-2008 23:54:04 13.8 C 70 % 8.43 C
2399 05-09-2008 00:06:04 13.8 C 70 % 8.43 C
2400 05-09-2008 00:18:04 13.7 C 70 % 8.33 C
Sensor: Nr:Datum:Temp:Feuchte:Taupunkt:
Aussen-T/F 2401 05-09-2008 00:30:04 13.6 C 71 % 8.45 C
2402 05-09-2008 00:42:04 13.6 C 72 % 8.65 C
2403 05-09-2008 00:54:04 13.3 C 74 % 8.77 C
2404 05-09-2008 01:06:04 13.2 C 77 % 9.26 C
2405 05-09-2008 01:18:04 13.2 C 78 % 9.45 C
2406 05-09-2008 01:30:04 13.3 C 78 % 9.55 C
2407 05-09-2008 01:42:04 13.3 C 78 % 9.55 C
2408 05-09-2008 01:54:04 13.2 C 77 % 9.26 C
2409 05-09-2008 02:06:04 13.2 C 77 % 9.26 C
2410 05-09-2008 02:18:04 13.3 C 77 % 9.36 C
2411 05-09-2008 02:30:04 13.2 C 77 % 9.26 C
2412 05-09-2008 02:42:04 13.2 C 78 % 9.45 C
2413 05-09-2008 02:54:04 13 C 79 % 9.45 C
2414 05-09-2008 03:06:04 13 C 81 % 9.82 C
2415 05-09-2008 03:18:04 13 C 81 % 9.82 C
2416 05-09-2008 03:30:04 12.8 C 83 % 9.99 C
2417 05-09-2008 03:42:04 12.7 C 84 % 10.07 C
2418 05-09-2008 03:54:04 12.7 C 85 % 10.25 C
2419 05-09-2008 04:06:05 12.8 C 85 % 10.34 C
2420 05-09-2008 04:18:05 12.7 C 85 % 10.25 C
2421 05-09-2008 04:30:05 12.5 C 85 % 10.05 C
2422 05-09-2008 04:42:05 12.3 C 85 % 9.85 C
2423 05-09-2008 04:54:05 12.1 C 86 % 9.83 C
2424 05-09-2008 05:06:05 12.1 C 86 % 9.83 C
2425 05-09-2008 05:18:05 12.1 C 86 % 9.83 C
Sensor: Nr:Datum:Temp:Feuchte:Taupunkt:
Aussen-T/F 2426 05-09-2008 05:30:05 12.3 C 87 % 10.2 C
2427 05-09-2008 05:42:05 12.3 C 87 % 10.2 C
2428 05-09-2008 05:54:05 12.4 C 85 % 9.95 C
2429 05-09-2008 06:06:05 12.3 C 85 % 9.85 C
2430 05-09-2008 06:18:05 12.4 C 85 % 9.95 C
2431 05-09-2008 06:30:05 12.5 C 85 % 10.05 C
2432 05-09-2008 06:42:05 12.8 C 86 % 10.52 C
2433 05-09-2008 06:54:05 13 C 84 % 10.36 C
2434 05-09-2008 07:06:04 13.1 C 83 % 10.28 C
2435 05-09-2008 07:18:04 13 C 83 % 10.18 C
2436 05-09-2008 07:30:04 13 C 83 % 10.18 C
2437 05-09-2008 07:42:04 13.4 C 83 % 10.57 C
2438 05-09-2008 07:54:03 13.4 C 82 % 10.39 C
2439 05-09-2008 08:06:02 13.5 C 82 % 10.49 C
2440 05-09-2008 08:18:02 13.6 C 81 % 10.4 C
2441 05-09-2008 08:30:03 13.5 C 82 % 10.49 C
2442 05-09-2008 08:42:02 13.4 C 82 % 10.39 C
2443 05-09-2008 08:54:02 13.4 C 83 % 10.57 C
2444 05-09-2008 09:06:02 13.7 C 84 % 11.05 C
2445 05-09-2008 09:18:02 14.3 C 83 % 11.45 C
2446 05-09-2008 09:30:02 15.2 C 77 % 11.2 C
2447 05-09-2008 09:42:03 15.8 C 76 % 11.58 C
2448 05-09-2008 09:54:02 16.4 C 72 % 11.34 C
2449 05-09-2008 10:06:03 16.7 C 70 % 11.21 C
2450 05-09-2008 10:18:02 17.2 C 67 % 11.02 C
Sensor: Nr:Datum:Temp:Feuchte:Taupunkt:
Aussen-T/F 2451 05-09-2008 10:30:02 17.6 C 65 % 10.95 C
2452 05-09-2008 10:42:02 17.8 C 64 % 10.9 C
2453 05-09-2008 10:54:02 18.1 C 62 % 10.71 C
2454 05-09-2008 11:06:02 18.3 C 60 % 10.41 C
2455 05-09-2008 11:18:01 18.3 C 61 % 10.66 C
2456 05-09-2008 11:30:01 18.5 C 61 % 10.84 C
2457 05-09-2008 11:42:02 19.4 C 59 % 11.19 C
2458 05-09-2008 11:54:02 19.8 C 56 % 10.78 C
2459 05-09-2008 12:06:03 20.1 C 55 % 10.78 C
2460 05-09-2008 12:18:02 19.9 C 56 % 10.87 C
2461 05-09-2008 12:30:02 21.1 C 52 % 10.87 C
2462 05-09-2008 12:42:02 21.4 C 51 % 10.85 C
2463 05-09-2008 12:54:02 21.2 C 51 % 10.67 C
2464 05-09-2008 13:06:01 21.2 C 51 % 10.67 C
2465 05-09-2008 13:18:02 22.1 C 49 % 10.89 C
2466 05-09-2008 13:30:03 22.5 C 49 % 11.26 C
2467 05-09-2008 13:42:01 22.5 C 49 % 11.26 C
2468 05-09-2008 13:54:02 21.9 C 51 % 11.31 C
2469 05-09-2008 14:06:01 22.3 C 49 % 11.08 C
2470 05-09-2008 14:18:02 22.2 C 50 % 11.29 C
2471 05-09-2008 14:30:02 22.1 C 51 % 11.5 C
2472 05-09-2008 14:42:01 21.9 C 52 % 11.61 C
2473 05-09-2008 14:54:02 21.6 C 54 % 11.9 C
2474 05-09-2008 15:06:02 20.9 C 56 % 11.8 C
2475 05-09-2008 15:18:02 20.8 C 58 % 12.24 C
Sensor: Nr:Datum:Temp:Feuchte:Taupunkt:
Aussen-T/F 2476 05-09-2008 15:30:02 20.8 C 58 % 12.24 C
2477 05-09-2008 15:42:02 20.9 C 58 % 12.33 C
2478 05-09-2008 15:54:01 21.2 C 57 % 12.35 C
2479 05-09-2008 16:06:02 21.7 C 56 % 12.54 C
2480 05-09-2008 16:18:01 22.1 C 53 % 12.08 C
2481 05-09-2008 16:30:01 22 C 54 % 12.27 C
2482 05-09-2008 16:42:02 22.1 C 54 % 12.36 C
2483 05-09-2008 16:54:02 22.6 C 53 % 12.54 C
2484 05-09-2008 17:06:01 22.5 C 55 % 13.01 C
2485 05-09-2008 17:18:02 21.8 C 56 % 12.64 C
2486 05-09-2008 17:30:02 21.9 C 56 % 12.73 C
2487 05-09-2008 17:42:02 21.7 C 55 % 12.27 C
2488 05-09-2008 17:54:03 21.6 C 55 % 12.18 C
2489 05-09-2008 18:06:02 21.6 C 56 % 12.45 C
2490 05-09-2008 18:18:03 21.6 C 57 % 12.72 C
2491 05-09-2008 18:30:03 21.5 C 58 % 12.89 C
2492 05-09-2008 18:42:02 21.4 C 58 % 12.8 C
2493 05-09-2008 18:54:02 21.5 C 59 % 13.15 C
2494 05-09-2008 19:06:02 21.5 C 59 % 13.15 C
2495 05-09-2008 19:18:02 21 C 62 % 13.44 C
2496 05-09-2008 19:30:02 20 C 69 % 14.14 C
2497 05-09-2008 19:42:02 19.5 C 73 % 14.53 C
2498 05-09-2008 19:54:01 18.1 C 74 % 13.4 C
2499 05-09-2008 20:06:02 17.2 C 83 % 14.29 C
2500 05-09-2008 20:18:01 17 C 85 % 14.46 C
Sensor: Nr:Datum:Temp:Feuchte:Taupunkt:
Aussen-T/F 2501 05-09-2008 20:30:01 16.9 C 88 % 14.9 C
2502 05-09-2008 20:42:02 16.9 C 89 % 15.08 C
2503 05-09-2008 20:54:02 16.9 C 90 % 15.25 C
2504 05-09-2008 21:06:02 16.9 C 90 % 15.25 C
2505 05-09-2008 21:18:02 16.9 C 91 % 15.42 C
2506 05-09-2008 21:30:02 17 C 91 % 15.52 C
2507 05-09-2008 21:42:02 17 C 91 % 15.52 C
2508 05-09-2008 21:54:02 17.1 C 92 % 15.79 C
2509 05-09-2008 22:06:02 17.1 C 92 % 15.79 C
2510 05-09-2008 22:19:02 17.1 C 92 % 15.79 C
2511 05-09-2008 22:31:02 17.2 C 93 % 16.06 C
2512 05-09-2008 22:43:02 17.2 C 93 % 16.06 C
2513 05-09-2008 22:55:02 17.1 C 93 % 15.96 C
2514 05-09-2008 23:07:02 17 C 93 % 15.86 C
2515 05-09-2008 23:19:02 16.9 C 94 % 15.93 C
2516 05-09-2008 23:31:02 16.8 C 94 % 15.83 C
2517 05-09-2008 23:43:03 16.8 C 94 % 15.83 C
2518 05-09-2008 23:55:03 16.7 C 94 % 15.73 C
2519 06-09-2008 00:07:03 16.5 C 94 % 15.53 C
2520 06-09-2008 00:19:03 16.4 C 94 % 15.43 C
2521 06-09-2008 00:31:03 16.4 C 94 % 15.43 C
2522 06-09-2008 00:43:03 16.4 C 94 % 15.43 C
2523 06-09-2008 00:55:03 16.4 C 95 % 15.6 C
2524 06-09-2008 01:07:03 16.1 C 94 % 15.13 C
2525 06-09-2008 01:19:03 16 C 94 % 15.03 C
Sensor: Nr:Datum:Temp:Feuchte:Taupunkt:
Aussen-T/F 2526 06-09-2008 01:31:03 15.9 C 95 % 15.1 C
2527 06-09-2008 01:43:03 15.7 C 95 % 14.9 C
2528 06-09-2008 01:55:03 15.6 C 95 % 14.8 C
2529 06-09-2008 02:07:03 15.6 C 95 % 14.8 C
2530 06-09-2008 02:19:03 15.7 C 95 % 14.9 C
2531 06-09-2008 02:31:03 15.7 C 95 % 14.9 C
2532 06-09-2008 02:43:03 15.7 C 95 % 14.9 C
2533 06-09-2008 02:55:03 15.7 C 95 % 14.9 C
2534 06-09-2008 03:07:03 15.6 C 94 % 14.64 C
2535 06-09-2008 03:19:03 15.6 C 94 % 14.64 C
2536 06-09-2008 03:31:04 15.6 C 94 % 14.64 C
2537 06-09-2008 03:43:04 15.6 C 94 % 14.64 C
2538 06-09-2008 03:55:04 15.5 C 95 % 14.7 C
2539 06-09-2008 04:07:04 15.5 C 95 % 14.7 C
2540 06-09-2008 04:19:04 15.5 C 95 % 14.7 C
2541 06-09-2008 04:31:04 15.4 C 95 % 14.6 C
2542 06-09-2008 04:43:04 15.4 C 95 % 14.6 C
2543 06-09-2008 04:55:04 15.2 C 95 % 14.4 C
2544 06-09-2008 05:07:04 15.2 C 95 % 14.4 C
2545 06-09-2008 05:19:04 15.2 C 95 % 14.4 C
2546 06-09-2008 05:31:04 15.3 C 95 % 14.5 C
2547 06-09-2008 05:43:04 15.3 C 95 % 14.5 C
2548 06-09-2008 05:55:04 15.4 C 95 % 14.6 C
2549 06-09-2008 06:07:04 15.6 C 95 % 14.8 C
2550 06-09-2008 06:19:04 15.7 C 95 % 14.9 C
Sensor: Nr:Datum:Temp:Feuchte:Taupunkt:
Aussen-T/F 2551 06-09-2008 06:31:04 15.8 C 95 % 15 C
2552 06-09-2008 06:43:04 15.8 C 95 % 15 C
2553 06-09-2008 06:55:04 15.7 C 95 % 14.9 C
2554 06-09-2008 07:07:04 15.8 C 95 % 15 C
2555 06-09-2008 07:19:05 15.7 C 95 % 14.9 C
2556 06-09-2008 07:31:05 16 C 94 % 15.03 C
2557 06-09-2008 07:43:05 16.2 C 93 % 15.07 C
2558 06-09-2008 07:55:05 16.3 C 91 % 14.83 C
2559 06-09-2008 08:07:02 16.3 C 89 % 14.48 C
2560 06-09-2008 08:19:02 16.3 C 89 % 14.48 C
2561 06-09-2008 08:31:02 16.6 C 89 % 14.78 C
2562 06-09-2008 08:43:02 17 C 86 % 14.64 C
2563 06-09-2008 08:55:02 17.1 C 84 % 14.38 C
2564 06-09-2008 09:07:03 17.4 C 84 % 14.67 C
2565 06-09-2008 09:19:02 18 C 79 % 14.31 C
2566 06-09-2008 09:31:02 18.5 C 76 % 14.19 C
2567 06-09-2008 09:43:02 18.5 C 74 % 13.78 C
2568 06-09-2008 09:55:02 19.1 C 70 % 13.5 C
2569 06-09-2008 10:07:02 19.5 C 67 % 13.21 C
2570 06-09-2008 10:19:02 19.6 C 65 % 12.84 C
2571 06-09-2008 10:31:02 20.2 C 62 % 12.69 C
2572 06-09-2008 10:43:02 20 C 61 % 12.26 C
2573 06-09-2008 10:55:02 20.3 C 61 % 12.54 C
2574 06-09-2008 11:07:01 20.4 C 60 % 12.38 C
2575 06-09-2008 11:19:01 20.9 C 58 % 12.33 C
Sensor: Nr:Datum:Temp:Feuchte:Taupunkt:
Aussen-T/F 2576 06-09-2008 11:31:02 20.9 C 57 % 12.07 C
2577 06-09-2008 11:43:02 21.3 C 55 % 11.9 C
2578 06-09-2008 11:55:02 21.7 C 54 % 11.99 C
2579 06-09-2008 12:07:02 21.2 C 54 % 11.53 C
2580 06-09-2008 12:19:02 21.3 C 55 % 11.9 C
2581 06-09-2008 12:31:02 21 C 54 % 11.34 C
2582 06-09-2008 12:43:02 20.8 C 56 % 11.71 C
2583 06-09-2008 12:55:02 20.8 C 57 % 11.97 C
2584 06-09-2008 13:07:02 20.8 C 57 % 11.97 C
2585 06-09-2008 13:19:02 20.8 C 53 % 10.88 C
2586 06-09-2008 13:31:02 20.9 C 52 % 10.68 C
2587 06-09-2008 13:43:02 20.8 C 53 % 10.88 C
2588 06-09-2008 13:55:01 20.6 C 54 % 10.97 C
2589 06-09-2008 14:07:02 20.3 C 54 % 10.69 C
2590 06-09-2008 14:19:02 20.4 C 53 % 10.51 C
2591 06-09-2008 14:31:02 20.2 C 56 % 11.15 C
2592 06-09-2008 14:43:02 20 C 57 % 11.23 C
2593 06-09-2008 14:55:02 19.8 C 56 % 10.78 C
2594 06-09-2008 15:07:02 19.8 C 51 % 9.38 C
2595 06-09-2008 15:19:02 19.7 C 49 % 8.7 C
2596 06-09-2008 15:31:02 19.8 C 47 % 8.17 C
2597 06-09-2008 15:43:03 19.8 C 47 % 8.17 C
2598 06-09-2008 15:55:01 19.5 C 48 % 8.21 C
2599 06-09-2008 16:07:02 19.4 C 49 % 8.42 C
2600 06-09-2008 16:19:01 19.3 C 53 % 9.49 C
Sensor: Nr:Datum:Temp:Feuchte:Taupunkt:
Aussen-T/F 2601 06-09-2008 16:31:02 19.3 C 53 % 9.49 C
2602 06-09-2008 16:43:02 19.2 C 56 % 10.22 C
2603 06-09-2008 16:55:02 19.2 C 58 % 10.74 C
2604 06-09-2008 17:07:02 19 C 59 % 10.81 C
2605 06-09-2008 17:19:02 18.1 C 69 % 12.33 C
2606 06-09-2008 17:31:02 17.9 C 74 % 13.2 C
2607 06-09-2008 17:43:02 18 C 71 % 12.67 C
2608 06-09-2008 17:55:02 18.1 C 72 % 12.98 C
2609 06-09-2008 18:07:01 18.3 C 70 % 12.74 C
2610 06-09-2008 18:19:02 18.5 C 68 % 12.49 C
2611 06-09-2008 18:31:01 18.5 C 68 % 12.49 C
2612 06-09-2008 18:43:01 18.4 C 69 % 12.61 C
2613 06-09-2008 18:55:03 18 C 70 % 12.45 C
2614 06-09-2008 19:07:02 17.9 C 72 % 12.78 C
2615 06-09-2008 19:19:02 17.7 C 73 % 12.8 C
2616 06-09-2008 19:31:02 17.5 C 74 % 12.82 C
2617 06-09-2008 19:43:02 17.4 C 73 % 12.51 C
2618 06-09-2008 19:55:02 17.5 C 73 % 12.61 C
2619 06-09-2008 20:07:02 17.2 C 75 % 12.73 C
2620 06-09-2008 20:19:02 17.1 C 75 % 12.64 C
2621 06-09-2008 20:31:02 16.9 C 76 % 12.65 C
2622 06-09-2008 20:43:02 16.8 C 76 % 12.55 C
2623 06-09-2008 20:55:02 16.8 C 74 % 12.14 C
2624 06-09-2008 21:07:02 16.7 C 72 % 11.63 C
2625 06-09-2008 21:19:02 16.6 C 73 % 11.74 C
Sensor: Nr:Datum:Temp:Feuchte:Taupunkt:
Aussen-T/F 2626 06-09-2008 21:31:02 16.4 C 74 % 11.76 C
2627 06-09-2008 21:43:02 16.2 C 75 % 11.77 C
2628 06-09-2008 21:55:01 16 C 77 % 11.97 C
2629 06-09-2008 22:07:01 15.9 C 78 % 12.07 C
2630 06-09-2008 22:20:02 15.9 C 78 % 12.07 C
2631 06-09-2008 22:32:02 15.7 C 79 % 12.07 C
2632 06-09-2008 22:44:02 15.6 C 79 % 11.97 C
2633 06-09-2008 22:56:02 15.5 C 79 % 11.88 C
2634 06-09-2008 23:08:02 15.4 C 79 % 11.78 C
2635 06-09-2008 23:20:02 15.4 C 80 % 11.97 C
2636 06-09-2008 23:32:02 15.4 C 79 % 11.78 C
2637 06-09-2008 23:44:02 15.6 C 79 % 11.97 C
2638 06-09-2008 23:56:02 15.6 C 79 % 11.97 C
2639 07-09-2008 00:08:02 15.3 C 78 % 11.49 C
2640 07-09-2008 00:20:02 15.2 C 79 % 11.59 C
2641 07-09-2008 00:32:02 15.2 C 79 % 11.59 C
2642 07-09-2008 00:44:02 15.3 C 79 % 11.68 C
2643 07-09-2008 00:56:02 15.3 C 79 % 11.68 C
2644 07-09-2008 01:08:02 15.3 C 79 % 11.68 C
2645 07-09-2008 01:20:02 15.2 C 79 % 11.59 C
2646 07-09-2008 01:32:03 15.3 C 78 % 11.49 C
2647 07-09-2008 01:44:03 15.3 C 77 % 11.3 C
2648 07-09-2008 01:56:03 15.2 C 77 % 11.2 C
2649 07-09-2008 02:08:03 15.3 C 77 % 11.3 C
2650 07-09-2008 02:20:03 15.3 C 76 % 11.1 C
Sensor: Nr:Datum:Temp:Feuchte:Taupunkt:
Aussen-T/F 2651 07-09-2008 02:32:03 15.1 C 76 % 10.9 C
2652 07-09-2008 02:44:03 15 C 77 % 11 C
2653 07-09-2008 02:56:03 14.7 C 78 % 10.91 C
2654 07-09-2008 03:08:03 14.4 C 78 % 10.62 C
2655 07-09-2008 03:20:03 14.3 C 79 % 10.71 C
2656 07-09-2008 03:32:03 14.4 C 79 % 10.81 C
2657 07-09-2008 03:44:03 14.3 C 78 % 10.52 C
2658 07-09-2008 03:56:03 14.1 C 78 % 10.33 C
2659 07-09-2008 04:08:03 14.1 C 79 % 10.52 C
2660 07-09-2008 04:20:03 14.1 C 78 % 10.33 C
2661 07-09-2008 04:32:03 13.8 C 80 % 10.41 C
2662 07-09-2008 04:44:03 14.1 C 79 % 10.52 C
2663 07-09-2008 04:56:03 14.2 C 79 % 10.61 C
2664 07-09-2008 05:08:03 13.9 C 79 % 10.32 C
2665 07-09-2008 05:20:04 13.7 C 80 % 10.32 C
2666 07-09-2008 05:32:04 13.5 C 81 % 10.31 C
2667 07-09-2008 05:44:04 13.2 C 82 % 10.2 C
2668 07-09-2008 05:56:04 13.1 C 83 % 10.28 C
2669 07-09-2008 06:08:04 13.1 C 83 % 10.28 C
2670 07-09-2008 06:20:04 13.1 C 83 % 10.28 C
2671 07-09-2008 06:32:04 13.2 C 82 % 10.2 C
2672 07-09-2008 06:44:04 13.5 C 82 % 10.49 C
2673 07-09-2008 06:56:04 13.7 C 80 % 10.32 C
2674 07-09-2008 07:08:04 13.8 C 78 % 10.03 C
2675 07-09-2008 07:20:04 13.8 C 77 % 9.84 C
Sensor: Nr:Datum:Temp:Feuchte:Taupunkt:
Aussen-T/F 2676 07-09-2008 07:32:04 13.8 C 77 % 9.84 C
2677 07-09-2008 07:44:04 14.1 C 75 % 9.74 C
2678 07-09-2008 07:56:04 14.3 C 73 % 9.53 C
2679 07-09-2008 08:08:04 14.3 C 74 % 9.73 C
2680 07-09-2008 08:20:04 14.5 C 74 % 9.93 C
2681 07-09-2008 08:32:04 14.6 C 74 % 10.02 C
2682 07-09-2008 08:44:04 14.7 C 72 % 9.71 C
2683 07-09-2008 08:56:04 15.3 C 71 % 10.08 C
2684 07-09-2008 09:08:01 15.8 C 70 % 10.34 C
2685 07-09-2008 09:20:02 16.1 C 62 % 8.82 C
2686 07-09-2008 09:32:02 16.1 C 62 % 8.82 C
2687 07-09-2008 09:44:02 15.9 C 62 % 8.64 C
2688 07-09-2008 09:56:03 16.3 C 61 % 8.77 C
2689 07-09-2008 10:08:02 17.3 C 57 % 8.71 C
2690 07-09-2008 10:20:03 18.2 C 54 % 8.75 C
2691 07-09-2008 10:32:02 18.2 C 53 % 8.47 C
2692 07-09-2008 10:44:02 17.9 C 55 % 8.74 C
2693 07-09-2008 10:56:03 17.6 C 56 % 8.73 C
2694 07-09-2008 11:08:02 17.1 C 60 % 9.28 C
2695 07-09-2008 11:20:03 16.9 C 60 % 9.09 C
2696 07-09-2008 11:32:02 17.6 C 56 % 8.73 C
2697 07-09-2008 11:44:02 17.9 C 54 % 8.47 C
2698 07-09-2008 11:56:01 18.2 C 52 % 8.19 C
2699 07-09-2008 12:08:02 18.3 C 50 % 7.71 C
2700 07-09-2008 12:20:01 18.6 C 51 % 8.27 C
Sensor: Nr:Datum:Temp:Feuchte:Taupunkt:
Aussen-T/F 2701 07-09-2008 12:32:01 18.7 C 52 % 8.65 C
2702 07-09-2008 12:44:01 19.1 C 49 % 8.15 C
2703 07-09-2008 12:56:01 19.4 C 50 % 8.72 C
2704 07-09-2008 13:08:02 19 C 50 % 8.35 C
2705 07-09-2008 13:20:01 19.1 C 51 % 8.73 C
2706 07-09-2008 13:32:02 19.3 C 50 % 8.63 C
2707 07-09-2008 13:44:02 20 C 48 % 8.67 C
2708 07-09-2008 13:56:02 20.7 C 47 % 8.99 C
2709 07-09-2008 14:08:02 20 C 47 % 8.35 C
2710 07-09-2008 14:20:02 20.4 C 47 % 8.72 C
2711 07-09-2008 14:32:02 20.6 C 45 % 8.26 C
2712 07-09-2008 14:44:02 20.6 C 46 % 8.58 C
2713 07-09-2008 14:56:02 20 C 47 % 8.35 C
2714 07-09-2008 15:08:01 19.2 C 50 % 8.53 C
2715 07-09-2008 15:20:02 18.9 C 54 % 9.4 C
2716 07-09-2008 15:32:02 19.3 C 54 % 9.77 C
2717 07-09-2008 15:44:02 20.3 C 48 % 8.94 C
2718 07-09-2008 15:56:03 20 C 49 % 8.97 C
2719 07-09-2008 16:08:02 18.4 C 58 % 9.99 C
2720 07-09-2008 16:20:02 16.7 C 78 % 12.85 C
2721 07-09-2008 16:32:02 17.8 C 79 % 14.11 C
2722 07-09-2008 16:44:02 18.7 C 72 % 13.55 C
2723 07-09-2008 16:56:03 19.5 C 64 % 12.51 C
2724 07-09-2008 17:08:02 19.3 C 59 % 11.09 C
2725 07-09-2008 17:20:02 19 C 59 % 10.81 C
Sensor: Nr:Datum:Temp:Feuchte:Taupunkt:
Aussen-T/F 2726 07-09-2008 17:32:02 19.6 C 55 % 10.32 C
2727 07-09-2008 17:44:02 20.8 C 50 % 10 C
2728 07-09-2008 17:56:02 21 C 46 % 8.95 C
2729 07-09-2008 18:08:02 21.3 C 46 % 9.22 C
2730 07-09-2008 18:20:02 21.4 C 46 % 9.31 C
2731 07-09-2008 18:32:01 21.7 C 47 % 9.9 C
2732 07-09-2008 18:44:01 20.6 C 46 % 8.58 C
2733 07-09-2008 18:56:02 20.7 C 46 % 8.67 C
2734 07-09-2008 19:08:02 20.1 C 46 % 8.13 C
2735 07-09-2008 19:20:02 19.4 C 49 % 8.42 C
2736 07-09-2008 19:32:02 19 C 56 % 10.03 C
2737 07-09-2008 19:44:02 18.7 C 57 % 10.02 C
2738 07-09-2008 19:56:02 18.4 C 60 % 10.5 C
2739 07-09-2008 20:08:01 18.2 C 59 % 10.06 C
2740 07-09-2008 20:20:01 18 C 60 % 10.13 C
2741 07-09-2008 20:32:02 17.8 C 61 % 10.18 C
2742 07-09-2008 20:44:02 17.6 C 60 % 9.75 C
2743 07-09-2008 20:56:02 17.4 C 61 % 9.81 C
2744 07-09-2008 21:08:02 17.2 C 61 % 9.62 C
2745 07-09-2008 21:20:02 16.9 C 63 % 9.82 C
2746 07-09-2008 21:32:02 16.7 C 66 % 10.32 C
2747 07-09-2008 21:44:02 16.7 C 66 % 10.32 C
2748 07-09-2008 21:56:02 16.4 C 67 % 10.26 C
2749 07-09-2008 22:09:02 16.3 C 68 % 10.39 C
2750 07-09-2008 22:21:02 16.3 C 68 % 10.39 C
Sensor: Nr:Datum:Temp:Feuchte:Taupunkt:
Aussen-T/F 2751 07-09-2008 22:33:02 16.1 C 69 % 10.42 C
2752 07-09-2008 22:45:02 16 C 70 % 10.54 C
2753 07-09-2008 22:57:02 15.9 C 71 % 10.65 C
2754 07-09-2008 23:09:02 15.8 C 71 % 10.56 C
2755 07-09-2008 23:21:03 15.8 C 72 % 10.77 C
2756 07-09-2008 23:33:03 15.9 C 71 % 10.65 C
2757 07-09-2008 23:45:03 15.8 C 71 % 10.56 C
2758 07-09-2008 23:57:03 15.8 C 71 % 10.56 C
2759 08-09-2008 00:09:03 15.8 C 71 % 10.56 C
2760 08-09-2008 00:21:03 15.7 C 71 % 10.46 C
2761 08-09-2008 00:33:03 15.5 C 71 % 10.27 C
2762 08-09-2008 00:45:03 15.6 C 71 % 10.37 C
2763 08-09-2008 00:57:03 15.6 C 71 % 10.37 C
2764 08-09-2008 01:09:03 15.5 C 71 % 10.27 C
2765 08-09-2008 01:21:03 15.6 C 71 % 10.37 C
2766 08-09-2008 01:33:03 15.5 C 71 % 10.27 C
2767 08-09-2008 01:45:03 15.2 C 72 % 10.19 C
2768 08-09-2008 01:57:03 15.1 C 73 % 10.3 C
2769 08-09-2008 02:09:03 14.9 C 75 % 10.51 C
2770 08-09-2008 02:21:03 14.9 C 75 % 10.51 C
2771 08-09-2008 02:33:03 15.1 C 74 % 10.5 C
2772 08-09-2008 02:45:03 15 C 73 % 10.2 C
2773 08-09-2008 02:57:03 14.8 C 74 % 10.22 C
2774 08-09-2008 03:09:04 14.4 C 75 % 10.03 C
2775 08-09-2008 03:21:04 14.3 C 76 % 10.13 C
Sensor: Nr:Datum:Temp:Feuchte:Taupunkt:
Aussen-T/F 2776 08-09-2008 03:33:04 14.2 C 77 % 10.23 C
2777 08-09-2008 03:45:04 14.3 C 76 % 10.13 C
2778 08-09-2008 03:57:04 14.2 C 77 % 10.23 C
2779 08-09-2008 04:09:04 14.1 C 78 % 10.33 C
2780 08-09-2008 04:21:04 14.2 C 78 % 10.42 C
2781 08-09-2008 04:33:04 14.4 C 76 % 10.23 C
2782 08-09-2008 04:45:04 14.5 C 75 % 10.13 C
2783 08-09-2008 04:57:04 14.5 C 75 % 10.13 C
2784 08-09-2008 05:09:04 14.4 C 75 % 10.03 C
2785 08-09-2008 05:21:04 14.1 C 74 % 9.54 C
2786 08-09-2008 05:33:04 14.1 C 73 % 9.34 C
2787 08-09-2008 05:45:04 14 C 73 % 9.24 C
2788 08-09-2008 05:57:04 13.9 C 75 % 9.55 C
2789 08-09-2008 06:09:04 13.5 C 76 % 9.36 C
2790 08-09-2008 06:21:04 13.2 C 78 % 9.45 C
2791 08-09-2008 06:33:04 13.1 C 79 % 9.54 C
2792 08-09-2008 06:45:04 13 C 80 % 9.63 C
2793 08-09-2008 06:57:05 12.8 C 81 % 9.62 C
2794 08-09-2008 07:09:02 12.8 C 82 % 9.81 C
2795 08-09-2008 07:21:02 12.8 C 83 % 9.99 C
2796 08-09-2008 07:33:02 13.1 C 82 % 10.1 C
2797 08-09-2008 07:45:02 13.7 C 82 % 10.69 C
2798 08-09-2008 07:57:02 14.2 C 79 % 10.61 C
2799 08-09-2008 08:09:02 14.4 C 77 % 10.42 C
2800 08-09-2008 08:21:02 14.5 C 77 % 10.52 C
Sensor: Nr:Datum:Temp:Feuchte:Taupunkt:
Aussen-T/F 2801 08-09-2008 08:33:02 14.7 C 76 % 10.52 C
2802 08-09-2008 08:45:02 14.8 C 76 % 10.61 C
2803 08-09-2008 08:57:02 14.9 C 75 % 10.51 C
2804 08-09-2008 09:09:02 15.2 C 74 % 10.6 C
2805 08-09-2008 09:21:03 15.3 C 73 % 10.49 C
2806 08-09-2008 09:33:02 15.5 C 71 % 10.27 C
2807 08-09-2008 09:45:02 15.8 C 69 % 10.13 C
2808 08-09-2008 09:57:02 16.1 C 67 % 9.98 C
2809 08-09-2008 10:09:02 16.3 C 66 % 9.94 C
2810 08-09-2008 10:21:02 16.6 C 64 % 9.77 C
2811 08-09-2008 10:33:02 16.9 C 63 % 9.82 C
2812 08-09-2008 10:45:02 17.1 C 60 % 9.28 C
2813 08-09-2008 10:57:02 17.3 C 57 % 8.71 C
2814 08-09-2008 11:09:02 17.6 C 56 % 8.73 C
2815 08-09-2008 11:21:02 17.6 C 57 % 8.99 C
2816 08-09-2008 11:33:02 17.3 C 57 % 8.71 C
2817 08-09-2008 11:45:01 18.2 C 53 % 8.47 C
2818 08-09-2008 11:57:01 18.7 C 50 % 8.08 C
2819 08-09-2008 12:09:02 18.9 C 49 % 7.96 C
2820 08-09-2008 12:21:01 19.4 C 47 % 7.81 C
2821 08-09-2008 12:33:02 19.7 C 45 % 7.44 C
2822 08-09-2008 12:45:02 19.8 C 44 % 7.21 C
2823 08-09-2008 12:57:02 19.6 C 44 % 7.03 C
2824 08-09-2008 13:09:01 20.7 C 42 % 7.34 C
2825 08-09-2008 13:21:02 20.8 C 41 % 7.08 C
Sensor: Nr:Datum:Temp:Feuchte:Taupunkt:
Aussen-T/F 2826 08-09-2008 13:33:01 20.5 C 41 % 6.81 C
2827 08-09-2008 13:45:02 20.7 C 41 % 6.99 C
2828 08-09-2008 13:57:02 21.6 C 39 % 7.06 C
2829 08-09-2008 14:09:01 22 C 35 % 5.85 C
2830 08-09-2008 14:21:02 21.9 C 37 % 6.56 C
2831 08-09-2008 14:33:01 22.1 C 35 % 5.94 C
2832 08-09-2008 14:45:01 22.3 C 34 % 5.69 C
2833 08-09-2008 14:57:01 23 C 32 % 5.43 C
2834 08-09-2008 15:09:02 23.2 C 31 % 5.15 C
2835 08-09-2008 15:21:01 23.7 C 31 % 5.58 C
2836 08-09-2008 15:33:01 23.7 C 30 % 5.11 C
2837 08-09-2008 15:49:01 23.1 C 31 % 5.06 C
2838 08-09-2008 16:01:07 24 C 30 % 5.37 C
2839 08-09-2008 16:13:02 24.1 C 27 % 3.95 C
2840 08-09-2008 16:25:01 23.8 C 29 % 4.71 C
2841 08-09-2008 16:37:02 23.7 C 30 % 5.11 C
2842 08-09-2008 16:49:02 24 C 27 % 3.87 C
2843 08-09-2008 17:01:02 23.3 C 30 % 4.77 C
2844 08-09-2008 17:13:02 24.1 C 28 % 4.47 C
2845 08-09-2008 17:20:03 24.1 C 20 % -0.24 C
2846 08-09-2008 17:25:03 24.3 C 27 % 4.12 C
2847 08-09-2008 17:30:03 24.2 C 27 % 4.04 C
2848 08-09-2008 17:35:03 24.2 C 26 % 3.5 C
2849 08-09-2008 17:40:03 23.8 C 27 % 3.7 C
2850 08-09-2008 17:45:02 23.4 C 29 % 4.37 C
Sensor: Nr:Datum:Temp:Feuchte:Taupunkt:
Aussen-T/F 2851 08-09-2008 17:50:02 23.2 C 30 % 4.68 C
2852 08-09-2008 17:55:02 22.9 C 31 % 4.89 C
2853 08-09-2008 18:00:02 23.5 C 31 % 5.41 C
2854 08-09-2008 18:05:01 24.2 C 29 % 5.06 C
2855 08-09-2008 18:10:01 23.7 C 30 % 5.11 C
2856 08-09-2008 18:15:02 23.2 C 30 % 4.68 C
2857 08-09-2008 18:20:02 22.9 C 32 % 5.35 C
2858 08-09-2008 18:25:02 23.3 C 31 % 5.24 C
2859 08-09-2008 18:30:02 22.9 C 31 % 4.89 C
2860 08-09-2008 18:35:01 23 C 31 % 4.98 C
2861 08-09-2008 18:40:01 23.2 C 31 % 5.15 C
2862 08-09-2008 18:45:01 23 C 31 % 4.98 C
2863 08-09-2008 18:50:01 23 C 32 % 5.43 C
2864 08-09-2008 18:55:01 22.6 C 33 % 5.53 C
2865 08-09-2008 19:00:01 22.5 C 35 % 6.29 C
2866 08-09-2008 19:05:02 22.6 C 37 % 7.18 C
2867 08-09-2008 19:10:02 22.7 C 35 % 6.46 C
2868 08-09-2008 19:15:02 22.4 C 36 % 6.61 C
2869 08-09-2008 19:20:02 22.3 C 36 % 6.52 C
2870 08-09-2008 19:25:02 22.1 C 37 % 6.74 C
2871 08-09-2008 19:30:02 21.7 C 38 % 6.77 C
2872 08-09-2008 19:35:02 21.4 C 39 % 6.89 C
2873 08-09-2008 19:40:02 20.7 C 41 % 6.99 C
2874 08-09-2008 19:45:02 20.1 C 42 % 6.8 C
2875 08-09-2008 19:50:02 19.9 C 43 % 6.96 C
Sensor: Nr:Datum:Temp:Feuchte:Taupunkt:
Aussen-T/F 2876 08-09-2008 19:55:02 19.6 C 44 % 7.03 C
2877 08-09-2008 20:00:02 19.1 C 45 % 6.9 C
2878 08-09-2008 20:05:01 18.9 C 45 % 6.72 C
2879 08-09-2008 20:10:01 18.8 C 47 % 7.26 C
2880 08-09-2008 20:15:02 18.6 C 46 % 6.77 C
2881 08-09-2008 20:20:02 18.5 C 48 % 7.29 C
2882 08-09-2008 20:25:02 18.4 C 49 % 7.5 C
2883 08-09-2008 20:30:02 18.2 C 48 % 7.02 C
2884 08-09-2008 20:35:01 17.9 C 49 % 7.05 C
2885 08-09-2008 20:40:01 17.8 C 50 % 7.25 C
2886 08-09-2008 20:45:01 17.7 C 52 % 7.73 C
2887 08-09-2008 20:50:01 17.5 C 53 % 7.82 C
2888 08-09-2008 20:55:01 17.4 C 53 % 7.73 C
2889 08-09-2008 21:00:01 17.4 C 53 % 7.73 C
2890 08-09-2008 21:05:02 17.4 C 54 % 8.01 C
2891 08-09-2008 21:10:02 17.3 C 53 % 7.64 C
2892 08-09-2008 21:16:03 17.2 C 53 % 7.55 C
2893 08-09-2008 21:21:03 17.4 C 54 % 8.01 C
2894 08-09-2008 21:26:03 16.9 C 56 % 8.07 C
2895 08-09-2008 21:31:03 16.9 C 56 % 8.07 C
2896 08-09-2008 21:36:03 16.6 C 58 % 8.31 C
2897 08-09-2008 21:41:03 16.5 C 57 % 7.96 C
2898 08-09-2008 21:46:03 16.5 C 58 % 8.22 C
2899 08-09-2008 21:51:03 16.4 C 60 % 8.62 C
2900 08-09-2008 21:56:03 16.2 C 60 % 8.43 C
Sensor: Nr:Datum:Temp:Feuchte:Taupunkt:
Aussen-T/F 2901 08-09-2008 22:01:03 16.1 C 60 % 8.34 C
2902 08-09-2008 22:06:03 15.9 C 61 % 8.4 C
2903 08-09-2008 22:11:03 15.8 C 62 % 8.54 C
2904 08-09-2008 22:16:04 15.6 C 62 % 8.35 C
2905 08-09-2008 22:21:04 15.5 C 62 % 8.26 C
2906 08-09-2008 22:26:04 15.5 C 62 % 8.26 C
2907 08-09-2008 22:31:04 15.4 C 62 % 8.16 C
2908 08-09-2008 22:36:04 15.3 C 62 % 8.07 C
2909 08-09-2008 22:41:04 15.4 C 63 % 8.4 C
2910 08-09-2008 22:46:04 15.3 C 63 % 8.31 C
2911 08-09-2008 22:51:04 15.2 C 63 % 8.21 C
2912 08-09-2008 22:56:04 15.1 C 64 % 8.35 C
2913 08-09-2008 23:01:04 15 C 64 % 8.25 C
2914 08-09-2008 23:06:04 14.9 C 66 % 8.61 C
2915 08-09-2008 23:11:04 14.8 C 66 % 8.52 C
2916 08-09-2008 23:16:04 14.7 C 67 % 8.64 C
2917 08-09-2008 23:21:04 14.7 C 67 % 8.64 C
2918 08-09-2008 23:26:04 14.7 C 67 % 8.64 C
2919 08-09-2008 23:31:04 14.7 C 67 % 8.64 C
2920 08-09-2008 23:36:04 14.7 C 67 % 8.64 C
2921 08-09-2008 23:41:04 14.5 C 67 % 8.45 C
2922 08-09-2008 23:46:04 14.3 C 68 % 8.48 C
2923 08-09-2008 23:51:04 14.2 C 68 % 8.39 C
2924 08-09-2008 23:56:05 14.2 C 69 % 8.6 C
2925 09-09-2008 00:01:05 14 C 69 % 8.41 C
Sensor: Nr:Datum:Temp:Feuchte:Taupunkt:
Aussen-T/F 2926 09-09-2008 00:06:05 13.9 C 71 % 8.73 C
2927 09-09-2008 00:11:05 13.8 C 72 % 8.85 C
2928 09-09-2008 00:16:05 13.7 C 72 % 8.75 C
2929 09-09-2008 00:21:05 13.6 C 73 % 8.86 C
2930 09-09-2008 00:26:05 13.6 C 73 % 8.86 C
2931 09-09-2008 00:31:05 13.5 C 73 % 8.76 C
2932 09-09-2008 00:36:05 13.5 C 73 % 8.76 C
2933 09-09-2008 00:41:05 13.4 C 74 % 8.87 C
2934 09-09-2008 00:46:05 13.3 C 74 % 8.77 C
2935 09-09-2008 00:51:05 13.2 C 74 % 8.67 C
2936 09-09-2008 00:56:05 13.1 C 74 % 8.58 C
2937 09-09-2008 01:01:05 13.1 C 74 % 8.58 C
2938 09-09-2008 01:06:05 13 C 75 % 8.68 C
2939 09-09-2008 01:11:05 12.9 C 76 % 8.78 C
2940 09-09-2008 01:16:05 12.8 C 76 % 8.68 C
2941 09-09-2008 01:21:05 12.7 C 76 % 8.58 C
2942 09-09-2008 01:26:05 12.7 C 77 % 8.78 C
2943 09-09-2008 01:31:06 12.7 C 77 % 8.78 C
2944 09-09-2008 01:36:06 12.6 C 77 % 8.68 C
2945 09-09-2008 01:41:06 12.6 C 77 % 8.68 C
2946 09-09-2008 01:46:06 12.5 C 77 % 8.58 C
2947 09-09-2008 01:51:06 12.5 C 77 % 8.58 C
2948 09-09-2008 01:56:06 12.4 C 77 % 8.49 C
2949 09-09-2008 02:01:06 12.4 C 78 % 8.68 C
2950 09-09-2008 02:06:06 12.3 C 79 % 8.77 C
Sensor: Nr:Datum:Temp:Feuchte:Taupunkt:
Aussen-T/F 2951 09-09-2008 02:11:06 12.3 C 79 % 8.77 C
2952 09-09-2008 02:16:06 12.2 C 79 % 8.67 C
2953 09-09-2008 02:21:06 12.3 C 79 % 8.77 C
2954 09-09-2008 02:26:06 12.1 C 79 % 8.57 C
2955 09-09-2008 02:31:06 12.4 C 79 % 8.86 C
2956 09-09-2008 02:36:06 12 C 79 % 8.48 C
2957 09-09-2008 02:41:06 12 C 79 % 8.48 C
2958 09-09-2008 02:46:06 11.8 C 80 % 8.47 C
2959 09-09-2008 02:51:06 11.8 C 80 % 8.47 C
2960 09-09-2008 02:56:06 11.7 C 80 % 8.37 C
2961 09-09-2008 03:01:06 11.7 C 80 % 8.37 C
2962 09-09-2008 03:06:06 11.7 C 80 % 8.37 C
2963 09-09-2008 03:11:07 11.7 C 80 % 8.37 C
2964 09-09-2008 03:16:07 11.7 C 80 % 8.37 C
2965 09-09-2008 03:21:07 11.6 C 81 % 8.45 C
2966 09-09-2008 03:26:07 11.5 C 81 % 8.36 C
2967 09-09-2008 03:31:07 11.4 C 82 % 8.44 C
2968 09-09-2008 03:36:07 11.4 C 82 % 8.44 C
2969 09-09-2008 03:41:07 11.3 C 82 % 8.34 C
2970 09-09-2008 03:46:07 11.2 C 82 % 8.25 C
2971 09-09-2008 03:51:07 11.2 C 82 % 8.25 C
2972 09-09-2008 03:56:07 11.2 C 82 % 8.25 C
2973 09-09-2008 04:01:07 11.2 C 82 % 8.25 C
2974 09-09-2008 04:06:07 11.1 C 82 % 8.15 C
2975 09-09-2008 04:11:07 11.1 C 82 % 8.15 C
Sensor: Nr:Datum:Temp:Feuchte:Taupunkt:
Aussen-T/F 2976 09-09-2008 04:16:07 11.1 C 82 % 8.15 C
2977 09-09-2008 04:21:07 11.1 C 82 % 8.15 C
2978 09-09-2008 04:26:07 11.1 C 82 % 8.15 C
2979 09-09-2008 04:31:07 11 C 83 % 8.23 C
2980 09-09-2008 04:36:07 11 C 83 % 8.23 C
2981 09-09-2008 04:41:07 10.9 C 83 % 8.13 C
2982 09-09-2008 04:46:08 10.8 C 83 % 8.03 C
2983 09-09-2008 04:51:08 10.8 C 83 % 8.03 C
2984 09-09-2008 04:56:08 10.7 C 83 % 7.93 C
2985 09-09-2008 05:01:08 10.7 C 83 % 7.93 C
2986 09-09-2008 05:06:08 10.6 C 83 % 7.84 C
2987 09-09-2008 05:11:08 10.6 C 83 % 7.84 C
2988 09-09-2008 05:16:08 10.6 C 83 % 7.84 C
2989 09-09-2008 05:21:08 10.5 C 83 % 7.74 C
2990 09-09-2008 05:26:08 10.4 C 83 % 7.64 C
2991 09-09-2008 05:31:08 10.4 C 83 % 7.64 C
2992 09-09-2008 05:36:08 10.3 C 83 % 7.54 C
2993 09-09-2008 05:41:08 10.3 C 83 % 7.54 C
2994 09-09-2008 05:46:08 10.2 C 83 % 7.45 C
2995 09-09-2008 05:51:08 10.2 C 83 % 7.45 C
2996 09-09-2008 05:56:08 10.2 C 84 % 7.62 C
2997 09-09-2008 06:01:08 10 C 84 % 7.43 C
2998 09-09-2008 06:06:08 10 C 84 % 7.43 C
2999 09-09-2008 06:11:08 10 C 84 % 7.43 C
3000 09-09-2008 06:16:08 10 C 84 % 7.43 C
Sensor: Nr:Datum:Temp:Feuchte:Taupunkt:
Aussen-T/F 3001 09-09-2008 06:21:09 10 C 84 % 7.43 C
3002 09-09-2008 06:26:09 10 C 84 % 7.43 C
3003 09-09-2008 06:31:09 10.1 C 85 % 7.7 C
3004 09-09-2008 06:36:09 10.1 C 85 % 7.7 C
3005 09-09-2008 06:41:09 10.1 C 86 % 7.87 C
3006 09-09-2008 06:46:09 10.1 C 86 % 7.87 C
3007 09-09-2008 06:51:09 10.1 C 86 % 7.87 C
3008 09-09-2008 06:56:09 10.2 C 86 % 7.97 C
3009 09-09-2008 07:01:02 10.3 C 86 % 8.06 C
3010 09-09-2008 07:06:02 10.2 C 86 % 7.97 C
3011 09-09-2008 07:11:02 10.1 C 86 % 7.87 C
3012 09-09-2008 07:16:02 10.1 C 86 % 7.87 C
3013 09-09-2008 07:21:02 10.2 C 86 % 7.97 C
3014 09-09-2008 07:26:02 10.1 C 86 % 7.87 C
3015 09-09-2008 07:31:02 10.1 C 86 % 7.87 C
3016 09-09-2008 07:36:02 10 C 86 % 7.77 C
3017 09-09-2008 07:41:02 10 C 86 % 7.77 C
3018 09-09-2008 07:46:02 10.1 C 87 % 8.04 C
3019 09-09-2008 07:51:02 10.2 C 87 % 8.14 C
3020 09-09-2008 07:56:02 10.2 C 87 % 8.14 C
3021 09-09-2008 08:01:01 10.3 C 87 % 8.23 C
3022 09-09-2008 08:06:01 10.3 C 87 % 8.23 C
3023 09-09-2008 08:11:01 10.3 C 87 % 8.23 C
3024 09-09-2008 08:16:02 10.3 C 87 % 8.23 C
3025 09-09-2008 08:21:02 10.4 C 87 % 8.33 C
Sensor: Nr:Datum:Temp:Feuchte:Taupunkt:
Aussen-T/F 3026 09-09-2008 08:26:02 10.5 C 87 % 8.43 C
3027 09-09-2008 08:31:02 10.6 C 87 % 8.53 C
3028 09-09-2008 08:36:02 10.6 C 86 % 8.36 C
3029 09-09-2008 08:41:02 10.7 C 86 % 8.46 C
3030 09-09-2008 08:46:01 10.7 C 87 % 8.63 C
3031 09-09-2008 08:51:01 10.8 C 86 % 8.56 C
3032 09-09-2008 08:56:01 10.9 C 86 % 8.65 C
3033 09-09-2008 09:01:02 11.2 C 85 % 8.77 C
3034 09-09-2008 09:06:02 11.3 C 85 % 8.87 C
3035 09-09-2008 09:11:02 11.4 C 84 % 8.8 C
3036 09-09-2008 09:16:02 11.6 C 84 % 8.99 C
3037 09-09-2008 09:21:02 11.7 C 83 % 8.91 C
3038 09-09-2008 09:26:02 11.7 C 82 % 8.73 C
3039 09-09-2008 09:31:02 11.9 C 82 % 8.93 C
3040 09-09-2008 09:36:02 12 C 81 % 8.84 C
3041 09-09-2008 09:41:02 12.3 C 81 % 9.14 C
3042 09-09-2008 09:46:02 12.5 C 80 % 9.15 C
3043 09-09-2008 09:51:02 12.7 C 80 % 9.34 C
3044 09-09-2008 09:56:02 12.7 C 79 % 9.16 C
3045 09-09-2008 10:01:02 12.5 C 79 % 8.96 C
3046 09-09-2008 10:06:02 12.4 C 80 % 9.05 C
3047 09-09-2008 10:11:02 12.4 C 80 % 9.05 C
3048 09-09-2008 10:16:02 12.5 C 81 % 9.33 C
3049 09-09-2008 10:21:02 12.7 C 82 % 9.71 C
3050 09-09-2008 10:26:02 12.7 C 82 % 9.71 C
Sensor: Nr:Datum:Temp:Feuchte:Taupunkt:
Aussen-T/F 3051 09-09-2008 10:31:02 12.9 C 82 % 9.9 C
3052 09-09-2008 10:36:02 13 C 81 % 9.82 C
3053 09-09-2008 10:41:02 13.1 C 80 % 9.73 C
3054 09-09-2008 10:46:02 13.4 C 80 % 10.02 C
3055 09-09-2008 10:51:02 13.8 C 80 % 10.41 C
3056 09-09-2008 10:56:02 14.2 C 79 % 10.61 C
3057 09-09-2008 11:01:02 14.5 C 79 % 10.91 C
3058 09-09-2008 11:06:02 14.9 C 78 % 11.1 C
3059 09-09-2008 11:11:02 15.2 C 77 % 11.2 C
3060 09-09-2008 11:16:02 15.5 C 76 % 11.29 C
3061 09-09-2008 11:21:02 15.9 C 75 % 11.48 C
3062 09-09-2008 11:26:02 16.4 C 73 % 11.55 C
3063 09-09-2008 11:31:02 16.6 C 72 % 11.54 C
3064 09-09-2008 11:36:02 17.1 C 69 % 11.37 C
3065 09-09-2008 11:41:02 17.5 C 69 % 11.75 C
3066 09-09-2008 11:46:02 17.6 C 69 % 11.85 C
3067 09-09-2008 11:51:02 17.8 C 69 % 12.04 C
3068 09-09-2008 11:56:02 18.2 C 67 % 11.98 C
3069 09-09-2008 12:01:02 18.5 C 67 % 12.26 C
3070 09-09-2008 12:06:02 18.6 C 67 % 12.36 C
3071 09-09-2008 12:11:02 19.1 C 64 % 12.14 C
3072 09-09-2008 12:16:02 19.5 C 63 % 12.27 C
3073 09-09-2008 12:21:02 19.7 C 63 % 12.46 C
3074 09-09-2008 12:26:02 19.8 C 62 % 12.31 C
3075 09-09-2008 12:31:02 20.4 C 56 % 11.33 C
Sensor: Nr:Datum:Temp:Feuchte:Taupunkt:
Aussen-T/F 3076 09-09-2008 12:36:02 20.7 C 59 % 12.41 C
3077 09-09-2008 12:41:02 21 C 57 % 12.16 C
3078 09-09-2008 12:46:02 21.2 C 56 % 12.08 C
3079 09-09-2008 12:51:02 21.3 C 56 % 12.17 C
3080 09-09-2008 12:56:02 21.7 C 48 % 10.22 C
3081 09-09-2008 13:01:02 22.3 C 46 % 10.13 C
3082 09-09-2008 13:06:02 22.5 C 47 % 10.63 C
3083 09-09-2008 13:11:02 22.5 C 45 % 9.98 C
3084 09-09-2008 13:16:02 23 C 41 % 9.05 C
3085 09-09-2008 13:21:02 23.3 C 40 % 8.95 C
3086 09-09-2008 13:26:02 23.6 C 42 % 9.94 C
3087 09-09-2008 13:31:02 23.7 C 40 % 9.31 C
3088 09-09-2008 13:36:02 24.1 C 35 % 7.69 C
3089 09-09-2008 13:41:02 24.2 C 36 % 8.2 C
3090 09-09-2008 13:46:02 24.4 C 34 % 7.53 C
3091 09-09-2008 13:51:02 24.6 C 35 % 8.13 C
3092 09-09-2008 13:56:02 25.1 C 32 % 7.26 C
3093 09-09-2008 14:01:02 25.2 C 32 % 7.34 C
3094 09-09-2008 14:06:02 25.6 C 31 % 7.23 C
3095 09-09-2008 14:11:02 25.6 C 29 % 6.26 C
3096 09-09-2008 14:16:02 25.8 C 30 % 6.92 C
3097 09-09-2008 14:21:02 26.1 C 29 % 6.69 C
3098 09-09-2008 14:26:02 26.5 C 31 % 8.01 C
3099 09-09-2008 14:31:02 26.6 C 29 % 7.12 C
3100 09-09-2008 14:36:02 26.8 C 27 % 6.25 C
Sensor: Nr:Datum:Temp:Feuchte:Taupunkt:
Aussen-T/F 3101 09-09-2008 14:41:02 27 C 25 % 5.31 C
3102 09-09-2008 14:46:02 27 C 26 % 5.87 C
3103 09-09-2008 14:51:02 27.1 C 26 % 5.96 C
3104 09-09-2008 14:56:02 27.3 C 26 % 6.13 C
3105 09-09-2008 15:01:01 27.4 C 25 % 5.65 C
3106 09-09-2008 15:06:01 27.5 C 25 % 5.73 C
3107 09-09-2008 15:11:01 27.8 C 25 % 5.98 C
3108 09-09-2008 15:16:02 28 C 22 % 4.32 C
3109 09-09-2008 15:21:02 28.2 C 22 % 4.48 C
3110 09-09-2008 15:26:02 28.1 C 22 % 4.4 C
3111 09-09-2008 15:31:01 27.8 C 21 % 3.49 C
3112 09-09-2008 15:36:01 27.6 C 21 % 3.33 C
3113 09-09-2008 15:41:01 27.9 C 22 % 4.23 C
3114 09-09-2008 15:46:02 28.4 C 21 % 3.99 C
3115 09-09-2008 15:51:02 28.9 C 22 % 5.06 C
3116 09-09-2008 15:56:02 29.2 C 24 % 6.57 C
3117 09-09-2008 16:01:02 29.2 C 21 % 4.64 C
3118 09-09-2008 16:06:02 29.3 C 21 % 4.73 C
3119 09-09-2008 16:11:02 29.4 C 21 % 4.81 C
3120 09-09-2008 16:16:02 29.6 C 22 % 5.64 C
3121 09-09-2008 16:21:02 29.5 C 23 % 6.2 C
3122 09-09-2008 16:26:02 29.7 C 22 % 5.73 C
3123 09-09-2008 16:31:02 29.9 C 22 % 5.89 C
3124 09-09-2008 16:36:02 30 C 21 % 5.3 C
3125 09-09-2008 16:41:02 30.1 C 21 % 5.39 C
Sensor: Nr:Datum:Temp:Feuchte:Taupunkt:
Aussen-T/F 3126 09-09-2008 16:46:02 30.3 C 20 % 4.85 C
3127 09-09-2008 16:51:02 30.1 C 20 % 4.69 C
3128 09-09-2008 16:56:02 30 C 20 % 4.61 C
3129 09-09-2008 17:01:01 29.5 C 20 % 4.2 C
3130 09-09-2008 17:06:01 29.5 C 20 % 4.2 C
3131 09-09-2008 17:11:01 30.1 C 21 % 5.39 C
3132 09-09-2008 17:16:02 30 C 20 % 4.61 C
3133 09-09-2008 17:21:02 30.1 C 20 % 4.69 C
3134 09-09-2008 17:26:02 30 C 20 % 4.61 C
3135 09-09-2008 17:31:01 30 C 20 % 4.61 C
3136 09-09-2008 17:36:01 30 C 20 % 4.61 C
3137 09-09-2008 17:41:02 30.1 C 20 % 4.69 C
3138 09-09-2008 17:46:02 30.3 C 20 % 4.85 C
3139 09-09-2008 17:51:02 30.3 C 20 % 4.85 C
3140 09-09-2008 17:56:02 30.1 C 20 % 4.69 C
3141 09-09-2008 18:01:02 30.2 C 22 % 6.14 C
3142 09-09-2008 18:06:02 30.2 C 20 % 4.77 C
3143 09-09-2008 18:11:02 30 C 20 % 4.61 C
3144 09-09-2008 18:16:02 29.9 C 20 % 4.52 C
3145 09-09-2008 18:21:02 29.7 C 21 % 5.06 C
3146 09-09-2008 18:26:02 29.4 C 20 % 4.11 C
3147 09-09-2008 18:31:01 29 C 21 % 4.48 C
3148 09-09-2008 18:36:01 28.8 C 22 % 4.98 C
3149 09-09-2008 18:41:01 28.5 C 24 % 5.98 C
3150 09-09-2008 18:46:02 28 C 25 % 6.15 C
Sensor: Nr:Datum:Temp:Feuchte:Taupunkt:
Aussen-T/F 3151 09-09-2008 18:51:02 27.4 C 25 % 5.65 C
3152 09-09-2008 18:56:02 27.2 C 26 % 6.04 C
3153 09-09-2008 19:01:02 27 C 26 % 5.87 C
3154 09-09-2008 19:06:02 25.9 C 30 % 7.01 C
3155 09-09-2008 19:11:02 25.5 C 29 % 6.17 C
3156 09-09-2008 19:16:01 24.9 C 30 % 6.15 C
3157 09-09-2008 19:21:01 24.6 C 30 % 5.89 C
3158 09-09-2008 19:26:01 24.3 C 31 % 6.1 C
3159 09-09-2008 19:31:02 23.9 C 33 % 6.66 C
3160 09-09-2008 19:36:02 23.3 C 33 % 6.14 C
3161 09-09-2008 19:41:03 22.9 C 35 % 6.64 C
3162 09-09-2008 19:46:02 22.6 C 35 % 6.38 C
3163 09-09-2008 19:51:02 22.5 C 36 % 6.7 C
3164 09-09-2008 19:56:02 22.1 C 38 % 7.13 C
3165 09-09-2008 20:01:03 22.1 C 38 % 7.13 C
3166 09-09-2008 20:06:03 21.7 C 39 % 7.15 C
3167 09-09-2008 20:11:03 21.5 C 38 % 6.6 C
3168 09-09-2008 20:16:02 21.4 C 39 % 6.89 C
3169 09-09-2008 20:21:02 21.1 C 38 % 6.24 C
3170 09-09-2008 20:26:03 20.8 C 41 % 7.08 C
3171 09-09-2008 20:31:02 20.7 C 41 % 6.99 C
3172 09-09-2008 20:36:02 20.4 C 41 % 6.72 C
3173 09-09-2008 20:41:02 20.4 C 41 % 6.72 C
3174 09-09-2008 20:46:02 20.3 C 42 % 6.98 C
3175 09-09-2008 20:51:02 20.2 C 43 % 7.23 C
Sensor: Nr:Datum:Temp:Feuchte:Taupunkt:
Aussen-T/F 3176 09-09-2008 20:56:02 20.2 C 43 % 7.23 C
3177 09-09-2008 21:01:02 20.1 C 44 % 7.48 C
3178 09-09-2008 21:06:02 20.1 C 44 % 7.48 C
3179 09-09-2008 21:11:02 20 C 44 % 7.39 C
3180 09-09-2008 21:16:01 19.9 C 45 % 7.63 C
3181 09-09-2008 21:21:01 19.9 C 44 % 7.3 C
3182 09-09-2008 21:26:01 19.9 C 45 % 7.63 C
3183 09-09-2008 21:31:02 19.7 C 46 % 7.77 C
3184 09-09-2008 21:36:03 20.1 C 46 % 8.13 C
3185 09-09-2008 21:41:03 19.8 C 48 % 8.48 C
3186 09-09-2008 21:46:02 19.7 C 48 % 8.39 C
3187 09-09-2008 21:51:02 19.8 C 48 % 8.48 C
3188 09-09-2008 21:56:02 19.8 C 48 % 8.48 C
3189 09-09-2008 22:01:03 20 C 47 % 8.35 C
3190 09-09-2008 22:06:03 20.1 C 46 % 8.13 C
3191 09-09-2008 22:11:03 20.1 C 46 % 8.13 C
3192 09-09-2008 22:16:02 20.1 C 47 % 8.45 C
3193 09-09-2008 22:21:02 20.1 C 48 % 8.76 C
3194 09-09-2008 22:26:03 19.9 C 50 % 9.18 C
3195 09-09-2008 22:32:03 19.8 C 50 % 9.09 C
3196 09-09-2008 22:37:03 19.7 C 48 % 8.39 C
3197 09-09-2008 22:42:03 19.9 C 50 % 9.18 C
3198 09-09-2008 22:47:03 19.9 C 50 % 9.18 C
3199 09-09-2008 22:52:04 19.9 C 51 % 9.47 C
3200 09-09-2008 22:57:04 19.8 C 51 % 9.38 C
Sensor: Nr:Datum:Temp:Feuchte:Taupunkt:
Aussen-T/F 3201 09-09-2008 23:02:04 19.8 C 52 % 9.67 C
3202 09-09-2008 23:07:04 19.8 C 52 % 9.67 C
3203 09-09-2008 23:12:04 19.8 C 52 % 9.67 C
3204 09-09-2008 23:17:04 19.8 C 52 % 9.67 C
3205 09-09-2008 23:22:04 19.8 C 54 % 10.23 C
3206 09-09-2008 23:27:04 19.8 C 53 % 9.95 C
3207 09-09-2008 23:32:04 19.8 C 52 % 9.67 C
3208 09-09-2008 23:37:04 19.8 C 53 % 9.95 C
3209 09-09-2008 23:42:04 19.7 C 53 % 9.86 C
3210 09-09-2008 23:47:04 19.7 C 54 % 10.14 C
3211 09-09-2008 23:52:04 19.7 C 54 % 10.14 C
3212 09-09-2008 23:57:04 19.7 C 54 % 10.14 C
3213 10-09-2008 00:02:04 19.5 C 54 % 9.95 C
3214 10-09-2008 00:07:04 19.5 C 53 % 9.67 C
3215 10-09-2008 00:12:04 19.6 C 54 % 10.05 C
3216 10-09-2008 00:17:04 19.4 C 56 % 10.4 C
3217 10-09-2008 00:22:04 19.2 C 57 % 10.48 C
3218 10-09-2008 00:27:04 18.9 C 62 % 11.47 C
3219 10-09-2008 00:32:04 18.9 C 62 % 11.47 C
3220 10-09-2008 00:37:05 18.8 C 61 % 11.13 C
3221 10-09-2008 00:42:05 18.8 C 60 % 10.88 C
3222 10-09-2008 00:47:05 18.9 C 59 % 10.72 C
3223 10-09-2008 00:52:05 18.9 C 60 % 10.97 C
3224 10-09-2008 00:57:05 18.8 C 60 % 10.88 C
3225 10-09-2008 01:02:05 18.7 C 59 % 10.53 C
Sensor: Nr:Datum:Temp:Feuchte:Taupunkt:
Aussen-T/F 3226 10-09-2008 01:07:05 18.5 C 61 % 10.84 C
3227 10-09-2008 01:12:05 18.4 C 62 % 10.99 C
3228 10-09-2008 01:17:05 18.2 C 62 % 10.81 C
3229 10-09-2008 01:22:05 18 C 63 % 10.86 C
3230 10-09-2008 01:27:05 17.9 C 65 % 11.23 C
3231 10-09-2008 01:32:05 17.8 C 65 % 11.14 C
3232 10-09-2008 01:37:05 17.9 C 65 % 11.23 C
3233 10-09-2008 01:42:05 18 C 64 % 11.09 C
3234 10-09-2008 01:47:05 18 C 64 % 11.09 C
3235 10-09-2008 01:52:05 18 C 64 % 11.09 C
3236 10-09-2008 01:57:05 18.1 C 63 % 10.95 C
3237 10-09-2008 02:02:05 18.1 C 63 % 10.95 C
3238 10-09-2008 02:07:05 18.1 C 62 % 10.71 C
3239 10-09-2008 02:12:05 17.9 C 63 % 10.76 C
3240 10-09-2008 02:17:06 17.8 C 64 % 10.9 C
3241 10-09-2008 02:22:06 17.7 C 64 % 10.81 C
3242 10-09-2008 02:27:06 17.5 C 64 % 10.62 C
3243 10-09-2008 02:32:06 17.4 C 64 % 10.53 C
3244 10-09-2008 02:37:06 17.3 C 65 % 10.66 C
3245 10-09-2008 02:42:06 17.2 C 66 % 10.8 C
3246 10-09-2008 02:47:06 17.2 C 66 % 10.8 C
3247 10-09-2008 02:52:06 17 C 66 % 10.61 C
3248 10-09-2008 02:57:06 16.9 C 68 % 10.96 C
3249 10-09-2008 03:02:06 16.9 C 68 % 10.96 C
3250 10-09-2008 03:07:06 16.9 C 68 % 10.96 C
Sensor: Nr:Datum:Temp:Feuchte:Taupunkt:
Aussen-T/F 3251 10-09-2008 03:12:06 16.7 C 69 % 10.99 C
3252 10-09-2008 03:17:06 16.6 C 69 % 10.89 C
3253 10-09-2008 03:22:06 16.6 C 69 % 10.89 C
3254 10-09-2008 03:27:06 16.6 C 69 % 10.89 C
3255 10-09-2008 03:32:06 16.4 C 70 % 10.92 C
3256 10-09-2008 03:37:06 16.4 C 70 % 10.92 C
3257 10-09-2008 03:42:06 16.3 C 70 % 10.82 C
3258 10-09-2008 03:47:06 16.2 C 70 % 10.73 C
3259 10-09-2008 03:52:06 16.2 C 71 % 10.94 C
3260 10-09-2008 03:57:06 16.2 C 71 % 10.94 C
3261 10-09-2008 04:02:07 16 C 72 % 10.96 C
3262 10-09-2008 04:07:07 15.9 C 74 % 11.28 C
3263 10-09-2008 04:12:07 15.9 C 74 % 11.28 C
3264 10-09-2008 04:17:07 15.9 C 74 % 11.28 C
3265 10-09-2008 04:22:07 15.8 C 74 % 11.18 C
3266 10-09-2008 04:27:07 15.8 C 74 % 11.18 C
3267 10-09-2008 04:32:07 15.8 C 74 % 11.18 C
3268 10-09-2008 04:37:07 15.8 C 74 % 11.18 C
3269 10-09-2008 04:42:07 15.8 C 75 % 11.38 C
3270 10-09-2008 04:47:07 15.8 C 75 % 11.38 C
3271 10-09-2008 04:52:07 15.7 C 76 % 11.48 C
3272 10-09-2008 04:57:07 15.7 C 76 % 11.48 C
3273 10-09-2008 05:02:07 15.6 C 76 % 11.39 C
3274 10-09-2008 05:07:07 15.6 C 76 % 11.39 C
3275 10-09-2008 05:12:07 15.6 C 77 % 11.59 C
Sensor: Nr:Datum:Temp:Feuchte:Taupunkt:
Aussen-T/F 3276 10-09-2008 05:17:07 15.5 C 78 % 11.68 C
3277 10-09-2008 05:22:07 15.5 C 78 % 11.68 C
3278 10-09-2008 05:27:07 15.5 C 78 % 11.68 C
3279 10-09-2008 05:32:07 15.5 C 80 % 12.07 C
3280 10-09-2008 05:37:07 15.6 C 81 % 12.35 C
3281 10-09-2008 05:42:07 15.8 C 82 % 12.74 C
3282 10-09-2008 05:47:08 15.8 C 82 % 12.74 C
3283 10-09-2008 05:52:08 16 C 81 % 12.74 C
3284 10-09-2008 05:57:08 16 C 80 % 12.55 C
3285 10-09-2008 06:02:08 15.9 C 80 % 12.46 C
3286 10-09-2008 06:07:08 16 C 79 % 12.36 C
3287 10-09-2008 06:12:08 16.1 C 79 % 12.46 C
3288 10-09-2008 06:17:08 16.1 C 78 % 12.27 C
3289 10-09-2008 06:22:08 16.1 C 78 % 12.27 C
3290 10-09-2008 06:27:08 15.9 C 78 % 12.07 C
3291 10-09-2008 06:32:08 15.7 C 79 % 12.07 C
3292 10-09-2008 06:37:08 15.7 C 79 % 12.07 C
3293 10-09-2008 06:42:08 15.6 C 79 % 11.97 C
3294 10-09-2008 06:47:02 15.6 C 80 % 12.16 C
3295 10-09-2008 06:52:02 15.6 C 80 % 12.16 C
3296 10-09-2008 06:57:02 15.8 C 81 % 12.55 C
3297 10-09-2008 07:02:02 15.8 C 81 % 12.55 C
3298 10-09-2008 07:07:02 15.7 C 81 % 12.45 C
3299 10-09-2008 07:12:02 15.7 C 81 % 12.45 C
3300 10-09-2008 07:17:02 15.8 C 81 % 12.55 C
Sensor: Nr:Datum:Temp:Feuchte:Taupunkt:
Aussen-T/F 3301 10-09-2008 07:22:02 15.8 C 81 % 12.55 C
3302 10-09-2008 07:27:02 15.8 C 81 % 12.55 C
3303 10-09-2008 07:32:02 16.2 C 80 % 12.75 C
3304 10-09-2008 07:37:02 16.2 C 79 % 12.56 C
3305 10-09-2008 07:42:02 16.2 C 79 % 12.56 C
3306 10-09-2008 07:47:01 16.5 C 79 % 12.85 C
3307 10-09-2008 07:52:01 16.5 C 79 % 12.85 C
3308 10-09-2008 07:57:01 16.8 C 77 % 12.75 C
3309 10-09-2008 08:02:02 17 C 75 % 12.54 C
3310 10-09-2008 08:07:02 17.1 C 74 % 12.43 C
3311 10-09-2008 08:12:02 17.2 C 74 % 12.53 C
3312 10-09-2008 08:17:01 17.1 C 74 % 12.43 C
3313 10-09-2008 08:22:01 17.9 C 74 % 13.2 C
3314 10-09-2008 08:27:01 17.2 C 74 % 12.53 C
3315 10-09-2008 08:32:02 17.4 C 73 % 12.51 C
3316 10-09-2008 08:37:02 17.5 C 73 % 12.61 C
3317 10-09-2008 08:42:02 17.5 C 73 % 12.61 C
3318 10-09-2008 08:47:02 17.5 C 73 % 12.61 C
3319 10-09-2008 08:52:02 17.5 C 73 % 12.61 C
3320 10-09-2008 08:57:02 17.6 C 73 % 12.71 C
3321 10-09-2008 09:02:01 17.8 C 73 % 12.9 C
3322 10-09-2008 09:07:01 17.9 C 72 % 12.78 C
3323 10-09-2008 09:12:01 18 C 72 % 12.88 C
3324 10-09-2008 09:17:02 18.1 C 72 % 12.98 C
3325 10-09-2008 09:22:02 18.3 C 71 % 12.95 C
Sensor: Nr:Datum:Temp:Feuchte:Taupunkt:
Aussen-T/F 3326 10-09-2008 09:27:02 18.4 C 71 % 13.05 C
3327 10-09-2008 09:32:01 18.5 C 70 % 12.93 C
3328 10-09-2008 09:37:01 18.8 C 70 % 13.22 C
3329 10-09-2008 09:42:02 19 C 67 % 12.74 C
3330 10-09-2008 09:47:02 19 C 67 % 12.74 C
3331 10-09-2008 09:52:02 19.4 C 67 % 13.12 C
3332 10-09-2008 09:57:02 20 C 65 % 13.22 C
3333 10-09-2008 10:02:02 20.1 C 64 % 13.08 C
3334 10-09-2008 10:07:02 20.5 C 62 % 12.97 C
3335 10-09-2008 10:12:02 20.8 C 62 % 13.26 C
3336 10-09-2008 10:17:01 21 C 60 % 12.94 C
3337 10-09-2008 10:22:01 21.3 C 60 % 13.22 C
3338 10-09-2008 10:27:01 21.4 C 60 % 13.32 C
3339 10-09-2008 10:32:02 21.5 C 60 % 13.41 C
3340 10-09-2008 10:37:02 21.6 C 59 % 13.25 C
3341 10-09-2008 10:42:02 21.5 C 59 % 13.15 C
3342 10-09-2008 10:47:02 21.5 C 59 % 13.15 C
3343 10-09-2008 10:52:02 21.5 C 59 % 13.15 C
3344 10-09-2008 10:57:03 21.4 C 59 % 13.06 C
3345 10-09-2008 11:02:02 21.4 C 60 % 13.32 C
3346 10-09-2008 11:07:02 21.6 C 59 % 13.25 C
3347 10-09-2008 11:12:02 21.9 C 58 % 13.27 C
3348 10-09-2008 11:17:02 22.1 C 56 % 12.92 C
3349 10-09-2008 11:22:02 22.2 C 56 % 13.01 C
3350 10-09-2008 11:27:02 22.5 C 55 % 13.01 C
Sensor: Nr:Datum:Temp:Feuchte:Taupunkt:
Aussen-T/F 3351 10-09-2008 11:32:02 22.6 C 55 % 13.11 C
3352 10-09-2008 11:37:02 22.7 C 56 % 13.47 C
3353 10-09-2008 11:42:02 22.7 C 55 % 13.2 C
3354 10-09-2008 11:47:02 22.6 C 56 % 13.38 C
3355 10-09-2008 11:52:02 22.6 C 56 % 13.38 C
3356 10-09-2008 11:57:02 22.7 C 56 % 13.47 C
3357 10-09-2008 12:02:02 23 C 54 % 13.2 C
3358 10-09-2008 12:07:03 23.2 C 53 % 13.09 C
3359 10-09-2008 12:12:03 23.2 C 53 % 13.09 C
3360 10-09-2008 12:17:02 23.5 C 53 % 13.37 C
3361 10-09-2008 12:22:02 23.4 C 53 % 13.28 C
3362 10-09-2008 12:27:02 23.2 C 54 % 13.38 C
3363 10-09-2008 12:32:02 23.2 C 54 % 13.38 C
3364 10-09-2008 12:37:02 23.5 C 54 % 13.66 C
3365 10-09-2008 12:42:02 24 C 51 % 13.24 C
3366 10-09-2008 12:47:02 24 C 50 % 12.94 C
3367 10-09-2008 12:52:02 24.2 C 50 % 13.12 C
3368 10-09-2008 12:57:03 24.4 C 49 % 13 C
3369 10-09-2008 13:02:01 24.5 C 49 % 13.09 C
3370 10-09-2008 13:07:01 24.9 C 47 % 12.82 C
3371 10-09-2008 13:12:01 25 C 46 % 12.58 C
3372 10-09-2008 13:17:02 24.9 C 46 % 12.49 C
3373 10-09-2008 13:22:02 24.8 C 47 % 12.73 C
3374 10-09-2008 13:27:02 24.7 C 46 % 12.31 C
3375 10-09-2008 13:32:02 24.9 C 48 % 13.14 C
Sensor: Nr:Datum:Temp:Feuchte:Taupunkt:
Aussen-T/F 3376 10-09-2008 13:37:02 24.9 C 47 % 12.82 C
3377 10-09-2008 13:42:02 24.6 C 47 % 12.54 C
3378 10-09-2008 13:47:01 24.4 C 47 % 12.36 C
3379 10-09-2008 13:52:01 24.4 C 47 % 12.36 C
3380 10-09-2008 13:57:01 24.6 C 48 % 12.87 C
3381 10-09-2008 14:02:02 25.4 C 46 % 12.94 C
3382 10-09-2008 14:07:02 25.7 C 43 % 12.19 C
3383 10-09-2008 14:12:02 26 C 42 % 12.1 C
3384 10-09-2008 14:17:02 26.1 C 40 % 11.45 C
3385 10-09-2008 14:22:02 25.9 C 41 % 11.64 C
3386 10-09-2008 14:27:02 25.9 C 41 % 11.64 C
3387 10-09-2008 14:32:02 25.8 C 41 % 11.56 C
3388 10-09-2008 14:37:02 25.5 C 41 % 11.29 C
3389 10-09-2008 14:42:02 25.6 C 41 % 11.38 C
3390 10-09-2008 14:47:02 25.6 C 42 % 11.74 C
3391 10-09-2008 14:52:03 25.7 C 41 % 11.47 C
3392 10-09-2008 14:57:03 25.9 C 40 % 11.27 C
3393 10-09-2008 15:02:01 26.5 C 38 % 11.03 C
3394 10-09-2008 15:07:01 26.6 C 38 % 11.12 C
3395 10-09-2008 15:12:01 26.8 C 38 % 11.3 C
3396 10-09-2008 15:17:02 26.9 C 37 % 10.99 C
3397 10-09-2008 15:22:02 27.3 C 36 % 10.93 C
3398 10-09-2008 15:27:02 27.3 C 35 % 10.5 C
3399 10-09-2008 15:32:01 27.2 C 35 % 10.42 C
3400 10-09-2008 15:37:01 27.3 C 36 % 10.93 C
Sensor: Nr:Datum:Temp:Feuchte:Taupunkt:
Aussen-T/F 3401 10-09-2008 15:42:01 27.1 C 36 % 10.75 C
3402 10-09-2008 15:47:01 26.9 C 36 % 10.57 C
3403 10-09-2008 15:52:01 27 C 36 % 10.66 C
3404 10-09-2008 15:57:01 26.7 C 37 % 10.81 C
3405 10-09-2008 16:02:02 26.9 C 38 % 11.39 C
3406 10-09-2008 16:07:02 26.8 C 37 % 10.9 C
3407 10-09-2008 16:12:02 27 C 35 % 10.24 C
3408 10-09-2008 16:17:01 27 C 35 % 10.24 C
3409 10-09-2008 16:22:01 27.4 C 35 % 10.59 C
3410 10-09-2008 16:27:01 27.7 C 35 % 10.85 C
3411 10-09-2008 16:32:02 27.7 C 34 % 10.42 C
3412 10-09-2008 16:37:02 27.5 C 33 % 9.8 C
3413 10-09-2008 16:42:02 27.8 C 34 % 10.51 C
3414 10-09-2008 16:47:02 27.9 C 33 % 10.15 C
3415 10-09-2008 16:52:03 27.8 C 33 % 10.06 C
3416 10-09-2008 16:57:03 27.8 C 33 % 10.06 C
3417 10-09-2008 17:02:02 27.6 C 33 % 9.89 C
3418 10-09-2008 17:07:02 27.6 C 34 % 10.33 C
3419 10-09-2008 17:12:02 27.3 C 34 % 10.07 C
3420 10-09-2008 17:17:02 27.7 C 34 % 10.42 C
3421 10-09-2008 17:22:02 27.8 C 33 % 10.06 C
3422 10-09-2008 17:27:02 27.8 C 33 % 10.06 C
3423 10-09-2008 17:32:02 28 C 32 % 9.77 C
3424 10-09-2008 17:37:02 28.3 C 31 % 9.56 C
3425 10-09-2008 17:42:02 28 C 31 % 9.3 C
Sensor: Nr:Datum:Temp:Feuchte:Taupunkt:
Aussen-T/F 3426 10-09-2008 17:47:02 28.2 C 31 % 9.48 C
3427 10-09-2008 17:52:02 27.7 C 33 % 9.97 C
3428 10-09-2008 17:57:02 27.6 C 33 % 9.89 C
3429 10-09-2008 18:02:02 27.5 C 34 % 10.24 C
3430 10-09-2008 18:07:02 27.5 C 34 % 10.24 C
3431 10-09-2008 18:12:02 27.7 C 33 % 9.97 C
3432 10-09-2008 18:17:02 27.9 C 33 % 10.15 C
3433 10-09-2008 18:22:02 27.3 C 33 % 9.62 C
3434 10-09-2008 18:27:02 27.4 C 34 % 10.16 C
3435 10-09-2008 18:32:02 27.2 C 35 % 10.42 C
3436 10-09-2008 18:37:02 27.5 C 35 % 10.68 C
3437 10-09-2008 18:42:02 27.7 C 35 % 10.85 C
3438 10-09-2008 18:47:02 27.5 C 34 % 10.24 C
3439 10-09-2008 18:52:02 27.4 C 34 % 10.16 C
3440 10-09-2008 18:57:02 27.2 C 34 % 9.98 C
3441 10-09-2008 19:02:01 26.6 C 35 % 9.89 C
3442 10-09-2008 19:07:01 26.5 C 36 % 10.22 C
3443 10-09-2008 19:12:01 26.4 C 38 % 10.94 C
3444 10-09-2008 19:17:02 26.3 C 38 % 10.86 C
3445 10-09-2008 19:22:02 26 C 38 % 10.59 C
3446 10-09-2008 19:27:02 25.8 C 40 % 11.18 C
3447 10-09-2008 19:32:01 25.3 C 41 % 11.11 C
3448 10-09-2008 19:37:01 24.7 C 42 % 10.93 C
3449 10-09-2008 19:42:01 24.4 C 44 % 11.36 C
3450 10-09-2008 19:47:01 23.9 C 46 % 11.58 C
Sensor: Nr:Datum:Temp:Feuchte:Taupunkt:
Aussen-T/F 3451 10-09-2008 19:52:01 23.7 C 46 % 11.4 C
3452 10-09-2008 19:57:01 23.6 C 47 % 11.63 C
3453 10-09-2008 20:02:02 23.3 C 48 % 11.68 C
3454 10-09-2008 20:07:02 23.1 C 49 % 11.81 C
3455 10-09-2008 20:12:02 22.9 C 51 % 12.23 C
3456 10-09-2008 20:17:01 22.7 C 52 % 12.34 C
3457 10-09-2008 20:22:01 22.5 C 52 % 12.16 C
3458 10-09-2008 20:27:01 22.5 C 53 % 12.45 C
3459 10-09-2008 20:32:02 22.3 C 54 % 12.55 C
3460 10-09-2008 20:37:02 22.2 C 54 % 12.45 C
3461 10-09-2008 20:42:02 22.1 C 55 % 12.64 C
3462 10-09-2008 20:47:02 21.9 C 57 % 13 C
3463 10-09-2008 20:52:02 21.7 C 57 % 12.81 C
3464 10-09-2008 20:57:02 21.7 C 58 % 13.08 C
3465 10-09-2008 21:02:02 21.6 C 58 % 12.99 C
3466 10-09-2008 21:07:02 21.4 C 59 % 13.06 C
3467 10-09-2008 21:12:02 21.4 C 59 % 13.06 C
3468 10-09-2008 21:18:02 21.2 C 59 % 12.87 C
3469 10-09-2008 21:23:02 21.1 C 60 % 13.04 C
3470 10-09-2008 21:28:02 21 C 61 % 13.2 C
3471 10-09-2008 21:33:02 20.9 C 62 % 13.35 C
3472 10-09-2008 21:38:03 20.9 C 62 % 13.35 C
3473 10-09-2008 21:43:03 20.8 C 62 % 13.26 C
3474 10-09-2008 21:48:03 20.7 C 63 % 13.41 C
3475 10-09-2008 21:53:03 20.6 C 63 % 13.31 C
Sensor: Nr:Datum:Temp:Feuchte:Taupunkt:
Aussen-T/F 3476 10-09-2008 21:58:03 20.6 C 63 % 13.31 C
3477 10-09-2008 22:03:03 20.6 C 63 % 13.31 C
3478 10-09-2008 22:08:03 20.5 C 63 % 13.22 C
3479 10-09-2008 22:13:03 20.4 C 63 % 13.12 C
3480 10-09-2008 22:18:03 20.4 C 63 % 13.12 C
3481 10-09-2008 22:23:03 20.4 C 63 % 13.12 C
3482 10-09-2008 22:28:03 20.4 C 64 % 13.37 C
3483 10-09-2008 22:33:03 20.3 C 64 % 13.27 C
3484 10-09-2008 22:38:03 20.2 C 64 % 13.18 C
3485 10-09-2008 22:43:03 20.1 C 64 % 13.08 C
3486 10-09-2008 22:48:03 20.1 C 65 % 13.32 C
3487 10-09-2008 22:53:03 20 C 65 % 13.22 C
3488 10-09-2008 22:58:03 19.9 C 67 % 13.59 C
3489 10-09-2008 23:03:03 19.8 C 68 % 13.73 C
3490 10-09-2008 23:08:03 19.9 C 69 % 14.05 C
3491 10-09-2008 23:13:03 19.9 C 69 % 14.05 C
3492 10-09-2008 23:18:04 20 C 68 % 13.92 C
3493 10-09-2008 23:23:04 19.7 C 69 % 13.86 C
3494 10-09-2008 23:28:04 19.7 C 69 % 13.86 C
3495 10-09-2008 23:33:04 19.6 C 70 % 13.98 C
3496 10-09-2008 23:38:04 19.6 C 71 % 14.2 C
3497 10-09-2008 23:43:04 19.5 C 71 % 14.1 C
3498 10-09-2008 23:48:04 19.5 C 71 % 14.1 C
3499 10-09-2008 23:53:04 19.4 C 72 % 14.22 C
3500 10-09-2008 23:58:04 19.3 C 72 % 14.13 C
Sensor: Nr:Datum:Temp:Feuchte:Taupunkt:
Aussen-T/F 3501 11-09-2008 00:03:04 19.2 C 73 % 14.25 C
3502 11-09-2008 00:08:04 19.1 C 73 % 14.15 C
3503 11-09-2008 00:13:04 19.1 C 74 % 14.36 C
3504 11-09-2008 00:18:04 18.9 C 75 % 14.37 C
3505 11-09-2008 00:23:04 18.7 C 76 % 14.39 C
3506 11-09-2008 00:28:04 18.7 C 76 % 14.39 C
3507 11-09-2008 00:33:04 18.7 C 76 % 14.39 C
3508 11-09-2008 00:38:04 18.5 C 76 % 14.19 C
3509 11-09-2008 00:43:04 18.4 C 76 % 14.1 C
3510 11-09-2008 00:48:04 18.3 C 76 % 14 C
3511 11-09-2008 00:53:05 18.2 C 76 % 13.9 C
3512 11-09-2008 00:58:05 18 C 76 % 13.71 C
3513 11-09-2008 01:03:05 18 C 76 % 13.71 C
3514 11-09-2008 01:08:05 17.8 C 77 % 13.72 C
3515 11-09-2008 01:13:05 17.6 C 78 % 13.72 C
3516 11-09-2008 01:18:05 17.5 C 78 % 13.62 C
3517 11-09-2008 01:23:05 17.5 C 78 % 13.62 C
3518 11-09-2008 01:28:05 17.5 C 78 % 13.62 C
3519 11-09-2008 01:33:05 17.4 C 78 % 13.53 C
3520 11-09-2008 01:38:05 17.3 C 78 % 13.43 C
3521 11-09-2008 01:43:05 17.2 C 78 % 13.33 C
3522 11-09-2008 01:48:05 17.2 C 79 % 13.53 C
3523 11-09-2008 01:53:05 17.2 C 79 % 13.53 C
3524 11-09-2008 01:58:05 17.3 C 79 % 13.63 C
3525 11-09-2008 02:03:05 17.1 C 79 % 13.43 C
Sensor: Nr:Datum:Temp:Feuchte:Taupunkt:
Aussen-T/F 3526 11-09-2008 02:08:05 17 C 79 % 13.33 C
3527 11-09-2008 02:13:05 16.9 C 81 % 13.62 C
3528 11-09-2008 02:18:05 16.7 C 81 % 13.43 C
3529 11-09-2008 02:23:05 16.6 C 81 % 13.33 C
3530 11-09-2008 02:28:06 16.6 C 81 % 13.33 C
3531 11-09-2008 02:33:06 16.5 C 82 % 13.42 C
3532 11-09-2008 02:38:06 16.4 C 82 % 13.32 C
3533 11-09-2008 02:43:06 16.4 C 81 % 13.13 C
3534 11-09-2008 02:48:06 16.3 C 81 % 13.04 C
3535 11-09-2008 02:53:06 16.3 C 81 % 13.04 C
3536 11-09-2008 02:58:06 16.2 C 81 % 12.94 C
3537 11-09-2008 03:03:06 16.2 C 81 % 12.94 C
3538 11-09-2008 03:08:06 16.1 C 81 % 12.84 C
3539 11-09-2008 03:13:06 16.1 C 81 % 12.84 C
3540 11-09-2008 03:18:06 16 C 81 % 12.74 C
3541 11-09-2008 03:23:06 16 C 81 % 12.74 C
3542 11-09-2008 03:28:06 16 C 82 % 12.93 C
3543 11-09-2008 03:33:06 15.9 C 82 % 12.83 C
3544 11-09-2008 03:38:06 15.9 C 82 % 12.83 C
3545 11-09-2008 03:43:06 15.8 C 82 % 12.74 C
3546 11-09-2008 03:48:06 15.8 C 82 % 12.74 C
3547 11-09-2008 03:53:06 15.8 C 82 % 12.74 C
3548 11-09-2008 03:58:06 15.7 C 82 % 12.64 C
3549 11-09-2008 04:03:06 15.6 C 82 % 12.54 C
3550 11-09-2008 04:08:07 15.7 C 82 % 12.64 C
Sensor: Nr:Datum:Temp:Feuchte:Taupunkt:
Aussen-T/F 3551 11-09-2008 04:13:07 15.5 C 82 % 12.44 C
3552 11-09-2008 04:18:07 15.4 C 83 % 12.53 C
3553 11-09-2008 04:23:07 15.4 C 83 % 12.53 C
3554 11-09-2008 04:28:07 15.4 C 83 % 12.53 C
3555 11-09-2008 04:33:07 15.3 C 83 % 12.43 C
3556 11-09-2008 04:38:07 15.3 C 83 % 12.43 C
3557 11-09-2008 04:43:07 15.3 C 83 % 12.43 C
3558 11-09-2008 04:48:07 15.3 C 84 % 12.61 C
3559 11-09-2008 04:53:07 15.3 C 84 % 12.61 C
3560 11-09-2008 04:58:07 15.3 C 84 % 12.61 C
3561 11-09-2008 05:03:07 15.4 C 84 % 12.71 C
3562 11-09-2008 05:08:07 15.5 C 84 % 12.81 C
3563 11-09-2008 05:13:07 15.5 C 84 % 12.81 C
3564 11-09-2008 05:18:07 15.6 C 84 % 12.91 C
3565 11-09-2008 05:23:07 15.6 C 84 % 12.91 C
3566 11-09-2008 05:28:07 15.6 C 84 % 12.91 C
3567 11-09-2008 05:33:07 15.6 C 84 % 12.91 C
3568 11-09-2008 05:38:07 15.5 C 84 % 12.81 C
3569 11-09-2008 05:43:08 15.5 C 84 % 12.81 C
3570 11-09-2008 05:48:08 15.5 C 84 % 12.81 C
3571 11-09-2008 05:53:08 15.5 C 83 % 12.63 C
3572 11-09-2008 05:58:08 15.4 C 84 % 12.71 C
3573 11-09-2008 06:03:08 15.4 C 84 % 12.71 C
3574 11-09-2008 06:08:08 15.3 C 84 % 12.61 C
3575 11-09-2008 06:13:08 15.2 C 84 % 12.52 C
Sensor: Nr:Datum:Temp:Feuchte:Taupunkt:
Aussen-T/F 3576 11-09-2008 06:18:08 15.1 C 84 % 12.42 C
3577 11-09-2008 06:23:08 15.1 C 84 % 12.42 C
3578 11-09-2008 06:28:08 15.2 C 85 % 12.7 C
3579 11-09-2008 06:33:08 15.1 C 85 % 12.6 C
3580 11-09-2008 06:38:08 15.1 C 85 % 12.6 C
3581 11-09-2008 06:43:08 15.2 C 85 % 12.7 C
3582 11-09-2008 06:48:08 15.3 C 85 % 12.79 C
3583 11-09-2008 06:53:08 15.3 C 85 % 12.79 C
3584 11-09-2008 06:58:08 15.4 C 85 % 12.89 C
3585 11-09-2008 07:03:02 15.4 C 85 % 12.89 C
3586 11-09-2008 07:08:02 15.4 C 85 % 12.89 C
3587 11-09-2008 07:13:02 15.4 C 85 % 12.89 C
3588 11-09-2008 07:18:02 15.4 C 85 % 12.89 C
3589 11-09-2008 07:23:02 15.4 C 85 % 12.89 C
3590 11-09-2008 07:28:02 15.4 C 85 % 12.89 C
3591 11-09-2008 07:33:02 15.4 C 85 % 12.89 C
3592 11-09-2008 07:38:02 15.4 C 86 % 13.07 C
3593 11-09-2008 07:43:02 15.5 C 86 % 13.17 C
3594 11-09-2008 07:48:02 15.6 C 86 % 13.27 C
3595 11-09-2008 07:53:02 15.7 C 86 % 13.37 C
3596 11-09-2008 07:58:02 15.8 C 86 % 13.46 C
3597 11-09-2008 08:03:02 15.8 C 86 % 13.46 C
3598 11-09-2008 08:08:02 15.8 C 85 % 13.28 C
3599 11-09-2008 08:13:02 15.9 C 85 % 13.38 C
3600 11-09-2008 08:18:02 16 C 84 % 13.3 C
Sensor: Nr:Datum:Temp:Feuchte:Taupunkt:
Aussen-T/F 3601 11-09-2008 08:23:02 16 C 84 % 13.3 C
3602 11-09-2008 08:28:02 16.1 C 85 % 13.58 C
3603 11-09-2008 08:33:03 16.2 C 85 % 13.68 C
3604 11-09-2008 08:38:03 16.4 C 85 % 13.87 C
3605 11-09-2008 08:43:03 16.5 C 84 % 13.79 C
3606 11-09-2008 08:48:02 16.6 C 84 % 13.89 C
3607 11-09-2008 08:53:02 16.6 C 84 % 13.89 C
3608 11-09-2008 08:58:02 16.7 C 84 % 13.98 C
3609 11-09-2008 09:03:02 16.8 C 83 % 13.9 C
3610 11-09-2008 09:08:02 16.8 C 83 % 13.9 C
3611 11-09-2008 09:13:02 17 C 83 % 14.09 C
3612 11-09-2008 09:18:02 17.2 C 83 % 14.29 C
3613 11-09-2008 09:23:02 17.3 C 82 % 14.2 C
3614 11-09-2008 09:28:02 17.5 C 82 % 14.39 C
3615 11-09-2008 09:33:03 17.6 C 81 % 14.3 C
3616 11-09-2008 09:38:03 17.6 C 80 % 14.11 C
3617 11-09-2008 09:43:03 17.7 C 80 % 14.21 C
3618 11-09-2008 09:48:02 17.8 C 79 % 14.11 C
3619 11-09-2008 09:53:02 17.9 C 79 % 14.21 C
3620 11-09-2008 09:58:02 18.2 C 78 % 14.3 C
3621 11-09-2008 10:03:03 18.4 C 77 % 14.3 C
3622 11-09-2008 10:08:03 18.7 C 77 % 14.59 C
3623 11-09-2008 10:13:03 18.8 C 76 % 14.48 C
3624 11-09-2008 10:18:02 19 C 74 % 14.26 C
3625 11-09-2008 10:23:02 19.2 C 73 % 14.25 C
Sensor: Nr:Datum:Temp:Feuchte:Taupunkt:
Aussen-T/F 3626 11-09-2008 10:28:02 19.3 C 73 % 14.34 C
3627 11-09-2008 10:33:02 19.5 C 72 % 14.32 C
3628 11-09-2008 10:38:02 19.7 C 71 % 14.3 C
3629 11-09-2008 10:43:02 19.9 C 70 % 14.27 C
3630 11-09-2008 10:48:03 20.1 C 68 % 14.01 C
3631 11-09-2008 10:53:03 20.5 C 68 % 14.39 C
3632 11-09-2008 10:58:03 20.4 C 67 % 14.07 C
3633 11-09-2008 11:03:02 20.5 C 66 % 13.93 C
3634 11-09-2008 11:08:02 20.8 C 66 % 14.22 C
3635 11-09-2008 11:13:02 20.9 C 65 % 14.08 C
3636 11-09-2008 11:18:02 21 C 64 % 13.93 C
3637 11-09-2008 11:23:02 21.1 C 64 % 14.03 C
3638 11-09-2008 11:28:02 21.2 C 63 % 13.88 C
3639 11-09-2008 11:33:02 21.1 C 63 % 13.79 C
3640 11-09-2008 11:38:02 20.9 C 64 % 13.84 C
3641 11-09-2008 11:43:03 20.8 C 66 % 14.22 C
3642 11-09-2008 11:48:01 20.9 C 66 % 14.31 C
3643 11-09-2008 11:53:01 21 C 65 % 14.17 C
3644 11-09-2008 11:58:01 21.1 C 64 % 14.03 C
3645 11-09-2008 12:03:02 21.1 C 65 % 14.27 C
3646 11-09-2008 12:08:02 21.2 C 65 % 14.36 C
3647 11-09-2008 12:13:02 21.2 C 65 % 14.36 C
3648 11-09-2008 12:18:02 21.5 C 65 % 14.65 C
3649 11-09-2008 12:23:02 21.6 C 64 % 14.5 C
3650 11-09-2008 12:28:03 21.9 C 64 % 14.78 C
Sensor: Nr:Datum:Temp:Feuchte:Taupunkt:
Aussen-T/F 3651 11-09-2008 12:33:01 22.2 C 62 % 14.58 C
3652 11-09-2008 12:38:01 22.5 C 62 % 14.86 C
3653 11-09-2008 12:43:01 22.8 C 60 % 14.63 C
3654 11-09-2008 12:48:02 23 C 59 % 14.56 C
3655 11-09-2008 12:53:02 23.1 C 59 % 14.65 C
3656 11-09-2008 12:58:02 23.3 C 58 % 14.58 C
3657 11-09-2008 13:03:01 23.7 C 57 % 14.68 C
3658 11-09-2008 13:08:01 24.1 C 55 % 14.5 C
3659 11-09-2008 13:13:01 24.3 C 55 % 14.68 C
3660 11-09-2008 13:18:01 24.7 C 54 % 14.77 C
3661 11-09-2008 13:23:01 24.9 C 53 % 14.66 C
3662 11-09-2008 13:28:01 24.9 C 52 % 14.37 C
3663 11-09-2008 13:33:02 25.4 C 50 % 14.22 C
3664 11-09-2008 13:38:02 25.7 C 49 % 14.19 C
3665 11-09-2008 13:43:02 25.9 C 49 % 14.37 C
3666 11-09-2008 13:48:02 26.1 C 49 % 14.55 C
3667 11-09-2008 13:53:02 26.4 C 47 % 14.18 C
3668 11-09-2008 13:58:02 26.5 C 47 % 14.27 C
3669 11-09-2008 14:03:01 26.9 C 46 % 14.3 C
3670 11-09-2008 14:08:01 27.2 C 44 % 13.89 C
3671 11-09-2008 14:13:01 27.5 C 43 % 13.81 C
3672 11-09-2008 14:18:02 27.7 C 43 % 13.99 C
3673 11-09-2008 14:23:02 27.8 C 42 % 13.71 C
3674 11-09-2008 14:28:02 27.9 C 41 % 13.43 C
3675 11-09-2008 14:33:02 27.8 C 41 % 13.34 C
Sensor: Nr:Datum:Temp:Feuchte:Taupunkt:
Aussen-T/F 3676 11-09-2008 14:38:02 28.2 C 41 % 13.7 C
3677 11-09-2008 14:43:02 28.3 C 40 % 13.41 C
3678 11-09-2008 14:48:01 28.3 C 41 % 13.79 C
3679 11-09-2008 14:53:01 28.7 C 40 % 13.77 C
3680 11-09-2008 14:58:01 29 C 37 % 12.84 C
3681 11-09-2008 15:03:02 29.4 C 35 % 12.34 C
3682 11-09-2008 15:08:03 29.6 C 36 % 12.95 C
3683 11-09-2008 15:13:03 29.4 C 34 % 11.9 C
3684 11-09-2008 15:18:02 29 C 37 % 12.84 C
3685 11-09-2008 15:23:02 28.8 C 37 % 12.66 C
3686 11-09-2008 15:28:02 28.7 C 36 % 12.16 C
3687 11-09-2008 15:33:02 28.8 C 37 % 12.66 C
3688 11-09-2008 15:38:02 28.9 C 38 % 13.16 C
3689 11-09-2008 15:43:02 29 C 34 % 11.55 C
3690 11-09-2008 15:48:02 29.2 C 32 % 10.81 C
3691 11-09-2008 15:53:02 29 C 31 % 10.17 C
3692 11-09-2008 15:58:02 28.6 C 32 % 10.29 C
3693 11-09-2008 16:03:01 28.3 C 35 % 11.38 C
3694 11-09-2008 16:08:01 28 C 37 % 11.96 C
3695 11-09-2008 16:13:01 27.7 C 40 % 12.88 C
3696 11-09-2008 16:18:02 27.1 C 41 % 12.72 C
3697 11-09-2008 16:23:02 26.6 C 44 % 13.35 C
3698 11-09-2008 16:28:02 26.5 C 42 % 12.55 C
3699 11-09-2008 16:33:02 26.3 C 46 % 13.76 C
3700 11-09-2008 16:38:02 26 C 46 % 13.49 C
Sensor: Nr:Datum:Temp:Feuchte:Taupunkt:
Aussen-T/F 3701 11-09-2008 16:43:02 25.9 C 48 % 14.05 C
3702 11-09-2008 16:48:02 25.8 C 48 % 13.96 C
3703 11-09-2008 16:53:02 25.6 C 46 % 13.12 C
3704 11-09-2008 16:58:02 25.4 C 47 % 13.27 C
3705 11-09-2008 17:03:02 25.1 C 48 % 13.32 C
3706 11-09-2008 17:08:02 25.3 C 46 % 12.85 C
3707 11-09-2008 17:13:02 25.2 C 47 % 13.09 C
3708 11-09-2008 17:18:02 25.1 C 47 % 13 C
3709 11-09-2008 17:23:02 25.1 C 47 % 13 C
3710 11-09-2008 17:28:02 24.8 C 50 % 13.67 C
3711 11-09-2008 17:33:02 24.7 C 51 % 13.89 C
3712 11-09-2008 17:38:02 24.6 C 52 % 14.09 C
3713 11-09-2008 17:43:02 23.2 C 63 % 15.77 C
3714 11-09-2008 17:48:02 22.7 C 68 % 16.49 C
3715 11-09-2008 17:53:02 21.6 C 75 % 16.98 C
3716 11-09-2008 17:58:02 21.1 C 79 % 17.32 C
3717 11-09-2008 18:03:01 20.9 C 81 % 17.52 C
3718 11-09-2008 18:08:01 20.8 C 82 % 17.61 C
3719 11-09-2008 18:13:01 20.9 C 83 % 17.9 C
3720 11-09-2008 18:18:02 21 C 82 % 17.81 C
3721 11-09-2008 18:23:02 21.1 C 82 % 17.91 C
3722 11-09-2008 18:28:02 21.4 C 82 % 18.2 C
3723 11-09-2008 18:33:02 21.6 C 81 % 18.2 C
3724 11-09-2008 18:38:02 21.8 C 81 % 18.39 C
3725 11-09-2008 18:43:02 22.1 C 79 % 18.29 C
Sensor: Nr:Datum:Temp:Feuchte:Taupunkt:
Aussen-T/F 3726 11-09-2008 18:48:02 22.2 C 78 % 18.18 C
3727 11-09-2008 18:53:02 22.2 C 78 % 18.18 C
3728 11-09-2008 18:58:02 22.2 C 77 % 17.98 C
3729 11-09-2008 19:03:02 22.2 C 77 % 17.98 C
3730 11-09-2008 19:08:02 22.1 C 77 % 17.88 C
3731 11-09-2008 19:13:02 22 C 77 % 17.78 C
3732 11-09-2008 19:18:02 21.8 C 79 % 18 C
3733 11-09-2008 19:23:02 21.6 C 79 % 17.8 C
3734 11-09-2008 19:28:02 21.4 C 79 % 17.61 C
3735 11-09-2008 19:33:01 21.2 C 80 % 17.61 C
3736 11-09-2008 19:38:01 21.1 C 80 % 17.51 C
3737 11-09-2008 19:43:01 21.1 C 81 % 17.71 C
3738 11-09-2008 19:48:02 20.9 C 82 % 17.71 C
3739 11-09-2008 19:53:02 20.8 C 82 % 17.61 C
3740 11-09-2008 19:58:02 20.7 C 82 % 17.52 C
3741 11-09-2008 20:03:02 20.6 C 82 % 17.42 C
3742 11-09-2008 20:08:02 20.4 C 82 % 17.22 C
3743 11-09-2008 20:13:02 20.3 C 82 % 17.13 C
3744 11-09-2008 20:18:02 20.1 C 82 % 16.93 C
3745 11-09-2008 20:23:02 20 C 82 % 16.83 C
3746 11-09-2008 20:28:02 19.9 C 83 % 16.93 C
3747 11-09-2008 20:33:02 19.9 C 83 % 16.93 C
3748 11-09-2008 20:38:02 19.9 C 83 % 16.93 C
3749 11-09-2008 20:43:02 19.9 C 83 % 16.93 C
3750 11-09-2008 20:48:01 20 C 82 % 16.83 C
Sensor: Nr:Datum:Temp:Feuchte:Taupunkt:
Aussen-T/F 3751 11-09-2008 20:53:01 19.7 C 84 % 16.92 C
3752 11-09-2008 20:58:01 19.6 C 84 % 16.82 C
3753 11-09-2008 21:03:01 19.5 C 84 % 16.72 C
3754 11-09-2008 21:08:01 19.6 C 84 % 16.82 C
3755 11-09-2008 21:13:01 19.5 C 84 % 16.72 C
3756 11-09-2008 21:18:01 19.5 C 84 % 16.72 C
3757 11-09-2008 21:23:01 19.5 C 84 % 16.72 C
3758 11-09-2008 21:28:01 19.4 C 84 % 16.63 C
3759 11-09-2008 21:33:01 19.3 C 84 % 16.53 C
3760 11-09-2008 21:38:01 19.3 C 84 % 16.53 C
3761 11-09-2008 21:43:01 19.3 C 85 % 16.72 C
3762 11-09-2008 21:49:03 19.2 C 85 % 16.62 C
3763 11-09-2008 21:54:03 19.2 C 85 % 16.62 C
3764 11-09-2008 21:59:03 19.1 C 85 % 16.52 C
3765 11-09-2008 22:04:03 19 C 85 % 16.42 C
3766 11-09-2008 22:09:03 19 C 85 % 16.42 C
3767 11-09-2008 22:14:03 19 C 85 % 16.42 C
3768 11-09-2008 22:19:03 18.9 C 86 % 16.51 C
3769 11-09-2008 22:24:03 18.9 C 86 % 16.51 C
3770 11-09-2008 22:29:03 18.8 C 86 % 16.41 C
3771 11-09-2008 22:34:03 18.8 C 86 % 16.41 C
3772 11-09-2008 22:39:03 18.7 C 87 % 16.49 C
3773 11-09-2008 22:44:03 18.7 C 87 % 16.49 C
3774 11-09-2008 22:49:03 18.7 C 86 % 16.31 C
3775 11-09-2008 22:54:03 18.6 C 86 % 16.21 C
Sensor: Nr:Datum:Temp:Feuchte:Taupunkt:
Aussen-T/F 3776 11-09-2008 22:59:03 18.6 C 87 % 16.39 C
3777 11-09-2008 23:04:04 18.6 C 87 % 16.39 C
3778 11-09-2008 23:09:04 18.5 C 87 % 16.3 C
3779 11-09-2008 23:14:04 18.5 C 87 % 16.3 C
3780 11-09-2008 23:19:04 18.5 C 87 % 16.3 C
3781 11-09-2008 23:24:04 18.4 C 87 % 16.2 C
3782 11-09-2008 23:29:04 18.3 C 87 % 16.1 C
3783 11-09-2008 23:34:04 18.2 C 87 % 16 C
3784 11-09-2008 23:39:04 18.1 C 87 % 15.9 C
3785 11-09-2008 23:44:04 18.1 C 87 % 15.9 C
3786 11-09-2008 23:49:04 18.1 C 87 % 15.9 C
3787 11-09-2008 23:54:04 18 C 87 % 15.8 C
3788 11-09-2008 23:59:04 18 C 88 % 15.98 C
3789 12-09-2008 00:04:04 18 C 88 % 15.98 C
3790 12-09-2008 00:09:04 18.1 C 88 % 16.08 C
3791 12-09-2008 00:14:04 18.1 C 88 % 16.08 C
3792 12-09-2008 00:19:04 18.1 C 88 % 16.08 C
3793 12-09-2008 00:24:04 18.1 C 88 % 16.08 C
3794 12-09-2008 00:29:04 18.1 C 88 % 16.08 C
3795 12-09-2008 00:34:04 18.1 C 88 % 16.08 C
3796 12-09-2008 00:39:05 18.1 C 88 % 16.08 C
3797 12-09-2008 00:44:05 18.1 C 88 % 16.08 C
3798 12-09-2008 00:49:05 18.1 C 88 % 16.08 C
3799 12-09-2008 00:54:05 18.1 C 88 % 16.08 C
3800 12-09-2008 00:59:05 18.1 C 88 % 16.08 C
Sensor: Nr:Datum:Temp:Feuchte:Taupunkt:
Aussen-T/F 3801 12-09-2008 01:04:05 18.1 C 88 % 16.08 C
3802 12-09-2008 01:09:05 18.1 C 88 % 16.08 C
3803 12-09-2008 01:14:05 18.1 C 88 % 16.08 C
3804 12-09-2008 01:19:05 18.2 C 88 % 16.18 C
3805 12-09-2008 01:24:05 18.2 C 88 % 16.18 C
3806 12-09-2008 01:29:05 18.2 C 88 % 16.18 C
3807 12-09-2008 01:34:05 18.2 C 87 % 16 C
3808 12-09-2008 01:39:05 18.3 C 87 % 16.1 C
3809 12-09-2008 01:44:05 18.3 C 87 % 16.1 C
3810 12-09-2008 01:49:05 18.3 C 87 % 16.1 C
3811 12-09-2008 01:54:05 18.3 C 86 % 15.92 C
3812 12-09-2008 01:59:05 18.3 C 86 % 15.92 C
3813 12-09-2008 02:04:05 18.2 C 86 % 15.82 C
3814 12-09-2008 02:09:05 18.3 C 86 % 15.92 C
3815 12-09-2008 02:14:06 18.2 C 86 % 15.82 C
3816 12-09-2008 02:19:06 18.3 C 86 % 15.92 C
3817 12-09-2008 02:24:06 18.3 C 86 % 15.92 C
3818 12-09-2008 02:29:06 18.3 C 86 % 15.92 C
3819 12-09-2008 02:34:06 18.3 C 86 % 15.92 C
3820 12-09-2008 02:39:06 18.3 C 86 % 15.92 C
3821 12-09-2008 02:44:06 18.3 C 86 % 15.92 C
3822 12-09-2008 02:49:06 18.3 C 86 % 15.92 C
3823 12-09-2008 02:54:06 18.3 C 86 % 15.92 C
3824 12-09-2008 02:59:06 18.3 C 86 % 15.92 C
3825 12-09-2008 03:04:06 18.3 C 86 % 15.92 C
Sensor: Nr:Datum:Temp:Feuchte:Taupunkt:
Aussen-T/F 3826 12-09-2008 03:09:06 18.2 C 86 % 15.82 C
3827 12-09-2008 03:14:06 18.1 C 87 % 15.9 C
3828 12-09-2008 03:19:06 18.1 C 87 % 15.9 C
3829 12-09-2008 03:24:06 18.1 C 87 % 15.9 C
3830 12-09-2008 03:29:06 18.2 C 87 % 16 C
3831 12-09-2008 03:34:06 18 C 87 % 15.8 C
3832 12-09-2008 03:39:06 17.9 C 88 % 15.88 C
3833 12-09-2008 03:44:06 17.9 C 89 % 16.06 C
3834 12-09-2008 03:49:07 17.8 C 89 % 15.96 C
3835 12-09-2008 03:54:07 17.8 C 89 % 15.96 C
3836 12-09-2008 03:59:07 17.8 C 89 % 15.96 C
3837 12-09-2008 04:04:07 17.9 C 89 % 16.06 C
3838 12-09-2008 04:09:07 17.9 C 89 % 16.06 C
3839 12-09-2008 04:14:07 17.9 C 89 % 16.06 C
3840 12-09-2008 04:19:07 17.8 C 89 % 15.96 C
3841 12-09-2008 04:24:07 17.8 C 89 % 15.96 C
3842 12-09-2008 04:29:07 17.8 C 89 % 15.96 C
3843 12-09-2008 04:34:07 17.8 C 89 % 15.96 C
3844 12-09-2008 04:39:07 17.8 C 89 % 15.96 C
3845 12-09-2008 04:44:07 17.7 C 89 % 15.86 C
3846 12-09-2008 04:49:07 17.7 C 89 % 15.86 C
3847 12-09-2008 04:54:07 17.7 C 89 % 15.86 C
3848 12-09-2008 04:59:07 17.7 C 90 % 16.04 C
3849 12-09-2008 05:04:07 17.7 C 90 % 16.04 C
3850 12-09-2008 05:09:07 17.7 C 90 % 16.04 C
Sensor: Nr:Datum:Temp:Feuchte:Taupunkt:
Aussen-T/F 3851 12-09-2008 05:14:07 17.7 C 90 % 16.04 C
3852 12-09-2008 05:19:07 17.5 C 89 % 15.67 C
3853 12-09-2008 05:24:07 17.5 C 89 % 15.67 C
3854 12-09-2008 05:29:08 17.5 C 90 % 15.84 C
3855 12-09-2008 05:34:08 17.4 C 89 % 15.57 C
3856 12-09-2008 05:39:08 17.4 C 89 % 15.57 C
3857 12-09-2008 05:44:08 17.4 C 89 % 15.57 C
3858 12-09-2008 05:49:08 17.4 C 90 % 15.74 C
3859 12-09-2008 05:54:08 17.2 C 89 % 15.37 C
3860 12-09-2008 05:59:08 17.2 C 89 % 15.37 C
3861 12-09-2008 06:04:08 17.3 C 90 % 15.64 C
3862 12-09-2008 06:09:08 17.5 C 90 % 15.84 C
3863 12-09-2008 06:14:08 17.5 C 90 % 15.84 C
3864 12-09-2008 06:19:08 17.4 C 90 % 15.74 C
3865 12-09-2008 06:24:08 17.4 C 90 % 15.74 C
3866 12-09-2008 06:29:08 17.5 C 90 % 15.84 C
3867 12-09-2008 06:34:08 17.4 C 90 % 15.74 C
3868 12-09-2008 06:39:08 17.2 C 90 % 15.55 C
3869 12-09-2008 06:44:08 17.2 C 90 % 15.55 C
3870 12-09-2008 06:49:08 17.2 C 89 % 15.37 C
3871 12-09-2008 06:54:08 17 C 89 % 15.17 C
3872 12-09-2008 06:59:08 16.9 C 90 % 15.25 C
3873 12-09-2008 07:04:02 16.9 C 90 % 15.25 C
3874 12-09-2008 07:09:02 16.9 C 90 % 15.25 C
3875 12-09-2008 07:14:02 17 C 89 % 15.17 C
Sensor: Nr:Datum:Temp:Feuchte:Taupunkt:
Aussen-T/F 3876 12-09-2008 07:19:03 17 C 89 % 15.17 C
3877 12-09-2008 07:24:03 16.9 C 90 % 15.25 C
3878 12-09-2008 07:29:03 16.9 C 90 % 15.25 C
3879 12-09-2008 07:34:02 17 C 89 % 15.17 C
3880 12-09-2008 07:39:02 16.8 C 90 % 15.15 C
3881 12-09-2008 07:44:02 16.9 C